<?xml version="1.0" encoding="UTF-8" standalone="no" ?>
<gpx xmlns="http://www.topografix.com/GPX/1/1" xmlns:xsi="http://www.w3.org/2001/XMLSchema-instance" xsi:schemaLocation="http://www.topografix.com/GPX/1/1 http://www.topografix.com/GPX/1/1/gpx.xsd" version="1.1" creator="VisuGPX - https://www.visugpx.com">
  <metadata>
    <name>Boucle St Julien Boutières - Les Vastres (07-43)</name>
    <desc><![CDATA[st Julien boutieres]]></desc>
  </metadata>
  <wpt lat="44.96956" lon="4.31349">
    <ele>797</ele>
    <name><![CDATA[paradis]]></name>
    <desc><![CDATA[Coordonnées: 44.969555, 4.313488
Altitude: 797 m
Durée: 23 avr. 2017 16:18:11]]></desc>
  </wpt>
  <wpt lat="44.97584" lon="4.30507">
    <ele>1073</ele>
    <name><![CDATA[repas]]></name>
    <desc><![CDATA[Coordonnées: 44.975838, 4.305072
Altitude: 1073 m
Durée: 23 avr. 2017 12:32:01]]></desc>
  </wpt>
  <trk>
    <name><![CDATA[23 avr. 2017 9:27:16]]></name>
    <desc><![CDATA[st Julien boutieres]]></desc>
    <trkseg>
      <trkpt lat="44.97355" lon="4.3297">
        <ele>774</ele>
        <time>2017-04-23T07:38:35.000Z</time>
      </trkpt>
      <trkpt lat="44.97342" lon="4.32972">
        <ele>772</ele>
        <time>2017-04-23T07:38:49.000Z</time>
      </trkpt>
      <trkpt lat="44.97332" lon="4.32971">
        <ele>775</ele>
        <time>2017-04-23T07:39:02.000Z</time>
      </trkpt>
      <trkpt lat="44.97324" lon="4.32964">
        <ele>776</ele>
        <time>2017-04-23T07:39:16.000Z</time>
      </trkpt>
      <trkpt lat="44.97316" lon="4.32956">
        <ele>777</ele>
        <time>2017-04-23T07:39:34.000Z</time>
      </trkpt>
      <trkpt lat="44.97311" lon="4.32946">
        <ele>779</ele>
        <time>2017-04-23T07:39:46.000Z</time>
      </trkpt>
      <trkpt lat="44.97314" lon="4.32933">
        <ele>784</ele>
        <time>2017-04-23T07:39:58.000Z</time>
      </trkpt>
      <trkpt lat="44.97316" lon="4.3292">
        <ele>793</ele>
        <time>2017-04-23T07:40:18.000Z</time>
      </trkpt>
      <trkpt lat="44.97312" lon="4.32908">
        <ele>795</ele>
        <time>2017-04-23T07:40:31.000Z</time>
      </trkpt>
      <trkpt lat="44.97306" lon="4.32893">
        <ele>789</ele>
        <time>2017-04-23T07:40:40.000Z</time>
      </trkpt>
      <trkpt lat="44.97306" lon="4.32881">
        <ele>793</ele>
        <time>2017-04-23T07:40:54.000Z</time>
      </trkpt>
      <trkpt lat="44.9731" lon="4.32865">
        <ele>795</ele>
        <time>2017-04-23T07:41:19.000Z</time>
      </trkpt>
      <trkpt lat="44.97308" lon="4.3285">
        <ele>797</ele>
        <time>2017-04-23T07:41:29.000Z</time>
      </trkpt>
      <trkpt lat="44.97308" lon="4.32832">
        <ele>799</ele>
        <time>2017-04-23T07:41:44.000Z</time>
      </trkpt>
      <trkpt lat="44.97303" lon="4.32819">
        <ele>796</ele>
        <time>2017-04-23T07:41:54.000Z</time>
      </trkpt>
      <trkpt lat="44.97306" lon="4.32784">
        <ele>804</ele>
        <time>2017-04-23T07:42:29.000Z</time>
      </trkpt>
      <trkpt lat="44.97304" lon="4.3277">
        <ele>806</ele>
        <time>2017-04-23T07:42:41.000Z</time>
      </trkpt>
      <trkpt lat="44.97271" lon="4.32756">
        <ele>813</ele>
        <time>2017-04-23T07:43:28.000Z</time>
      </trkpt>
      <trkpt lat="44.9726" lon="4.3276">
        <ele>807</ele>
        <time>2017-04-23T07:43:46.000Z</time>
      </trkpt>
      <trkpt lat="44.97251" lon="4.32765">
        <ele>810</ele>
        <time>2017-04-23T07:44:01.000Z</time>
      </trkpt>
      <trkpt lat="44.97241" lon="4.3277">
        <ele>808</ele>
        <time>2017-04-23T07:44:10.000Z</time>
      </trkpt>
      <trkpt lat="44.9723" lon="4.32768">
        <ele>811</ele>
        <time>2017-04-23T07:44:22.000Z</time>
      </trkpt>
      <trkpt lat="44.97222" lon="4.32776">
        <ele>814</ele>
        <time>2017-04-23T07:44:38.000Z</time>
      </trkpt>
      <trkpt lat="44.97212" lon="4.32776">
        <ele>818</ele>
        <time>2017-04-23T07:44:56.000Z</time>
      </trkpt>
      <trkpt lat="44.97201" lon="4.32774">
        <ele>819</ele>
        <time>2017-04-23T07:45:33.000Z</time>
      </trkpt>
      <trkpt lat="44.97189" lon="4.32771">
        <ele>821</ele>
        <time>2017-04-23T07:45:44.000Z</time>
      </trkpt>
      <trkpt lat="44.97179" lon="4.3277">
        <ele>823</ele>
        <time>2017-04-23T07:46:14.000Z</time>
      </trkpt>
      <trkpt lat="44.9717" lon="4.32768">
        <ele>821</ele>
        <time>2017-04-23T07:46:41.000Z</time>
      </trkpt>
      <trkpt lat="44.9716" lon="4.32765">
        <ele>823</ele>
        <time>2017-04-23T07:46:54.000Z</time>
      </trkpt>
      <trkpt lat="44.9715" lon="4.32763">
        <ele>823</ele>
        <time>2017-04-23T07:47:05.000Z</time>
      </trkpt>
      <trkpt lat="44.97139" lon="4.32766">
        <ele>826</ele>
        <time>2017-04-23T07:47:20.000Z</time>
      </trkpt>
      <trkpt lat="44.97129" lon="4.32771">
        <ele>833</ele>
        <time>2017-04-23T07:47:39.000Z</time>
      </trkpt>
      <trkpt lat="44.97118" lon="4.32764">
        <ele>834</ele>
        <time>2017-04-23T07:47:48.000Z</time>
      </trkpt>
      <trkpt lat="44.97109" lon="4.32757">
        <ele>835</ele>
        <time>2017-04-23T07:48:02.000Z</time>
      </trkpt>
      <trkpt lat="44.97106" lon="4.32745">
        <ele>835</ele>
        <time>2017-04-23T07:48:15.000Z</time>
      </trkpt>
      <trkpt lat="44.97105" lon="4.32731">
        <ele>835</ele>
        <time>2017-04-23T07:48:28.000Z</time>
      </trkpt>
      <trkpt lat="44.97109" lon="4.32718">
        <ele>840</ele>
        <time>2017-04-23T07:48:42.000Z</time>
      </trkpt>
      <trkpt lat="44.97118" lon="4.32722">
        <ele>844</ele>
        <time>2017-04-23T07:48:55.000Z</time>
      </trkpt>
      <trkpt lat="44.97129" lon="4.32728">
        <ele>848</ele>
        <time>2017-04-23T07:49:07.000Z</time>
      </trkpt>
      <trkpt lat="44.97138" lon="4.32724">
        <ele>848</ele>
        <time>2017-04-23T07:49:17.000Z</time>
      </trkpt>
      <trkpt lat="44.97149" lon="4.32713">
        <ele>849</ele>
        <time>2017-04-23T07:49:33.000Z</time>
      </trkpt>
      <trkpt lat="44.97159" lon="4.32705">
        <ele>851</ele>
        <time>2017-04-23T07:49:43.000Z</time>
      </trkpt>
      <trkpt lat="44.97168" lon="4.32696">
        <ele>852</ele>
        <time>2017-04-23T07:49:56.000Z</time>
      </trkpt>
      <trkpt lat="44.97176" lon="4.32688">
        <ele>855</ele>
        <time>2017-04-23T07:50:05.000Z</time>
      </trkpt>
      <trkpt lat="44.97179" lon="4.32675">
        <ele>855</ele>
        <time>2017-04-23T07:50:22.000Z</time>
      </trkpt>
      <trkpt lat="44.97185" lon="4.32664">
        <ele>862</ele>
        <time>2017-04-23T07:50:56.000Z</time>
      </trkpt>
      <trkpt lat="44.97176" lon="4.32658">
        <ele>864</ele>
        <time>2017-04-23T07:51:09.000Z</time>
      </trkpt>
      <trkpt lat="44.97169" lon="4.3265">
        <ele>865</ele>
        <time>2017-04-23T07:51:22.000Z</time>
      </trkpt>
      <trkpt lat="44.97169" lon="4.32637">
        <ele>870</ele>
        <time>2017-04-23T07:51:55.000Z</time>
      </trkpt>
      <trkpt lat="44.97175" lon="4.32626">
        <ele>871</ele>
        <time>2017-04-23T07:52:08.000Z</time>
      </trkpt>
      <trkpt lat="44.97186" lon="4.32626">
        <ele>872</ele>
        <time>2017-04-23T07:52:31.000Z</time>
      </trkpt>
      <trkpt lat="44.97193" lon="4.32612">
        <ele>873</ele>
        <time>2017-04-23T07:52:46.000Z</time>
      </trkpt>
      <trkpt lat="44.97202" lon="4.32603">
        <ele>873</ele>
        <time>2017-04-23T07:52:59.000Z</time>
      </trkpt>
      <trkpt lat="44.97208" lon="4.32593">
        <ele>875</ele>
        <time>2017-04-23T07:53:16.000Z</time>
      </trkpt>
      <trkpt lat="44.9722" lon="4.32574">
        <ele>874</ele>
        <time>2017-04-23T07:53:37.000Z</time>
      </trkpt>
      <trkpt lat="44.97228" lon="4.32566">
        <ele>877</ele>
        <time>2017-04-23T07:53:45.000Z</time>
      </trkpt>
      <trkpt lat="44.97233" lon="4.32556">
        <ele>879</ele>
        <time>2017-04-23T07:53:58.000Z</time>
      </trkpt>
      <trkpt lat="44.97242" lon="4.32548">
        <ele>881</ele>
        <time>2017-04-23T07:54:11.000Z</time>
      </trkpt>
      <trkpt lat="44.97253" lon="4.32536">
        <ele>883</ele>
        <time>2017-04-23T07:54:31.000Z</time>
      </trkpt>
      <trkpt lat="44.97261" lon="4.32524">
        <ele>881</ele>
        <time>2017-04-23T07:54:44.000Z</time>
      </trkpt>
      <trkpt lat="44.97271" lon="4.32516">
        <ele>883</ele>
        <time>2017-04-23T07:55:00.000Z</time>
      </trkpt>
      <trkpt lat="44.97277" lon="4.32506">
        <ele>883</ele>
        <time>2017-04-23T07:55:13.000Z</time>
      </trkpt>
      <trkpt lat="44.97284" lon="4.32496">
        <ele>885</ele>
        <time>2017-04-23T07:55:29.000Z</time>
      </trkpt>
      <trkpt lat="44.97293" lon="4.32489">
        <ele>889</ele>
        <time>2017-04-23T07:55:42.000Z</time>
      </trkpt>
      <trkpt lat="44.973" lon="4.32476">
        <ele>890</ele>
        <time>2017-04-23T07:55:59.000Z</time>
      </trkpt>
      <trkpt lat="44.97306" lon="4.32468">
        <ele>892</ele>
        <time>2017-04-23T07:56:12.000Z</time>
      </trkpt>
      <trkpt lat="44.97314" lon="4.32455">
        <ele>893</ele>
        <time>2017-04-23T07:56:30.000Z</time>
      </trkpt>
      <trkpt lat="44.97321" lon="4.32446">
        <ele>893</ele>
        <time>2017-04-23T07:56:40.000Z</time>
      </trkpt>
      <trkpt lat="44.97326" lon="4.32434">
        <ele>893</ele>
        <time>2017-04-23T07:56:54.000Z</time>
      </trkpt>
      <trkpt lat="44.97334" lon="4.32427">
        <ele>898</ele>
        <time>2017-04-23T07:57:05.000Z</time>
      </trkpt>
      <trkpt lat="44.97339" lon="4.32414">
        <ele>898</ele>
        <time>2017-04-23T07:57:32.000Z</time>
      </trkpt>
      <trkpt lat="44.97342" lon="4.32426">
        <ele>898</ele>
        <time>2017-04-23T07:57:52.000Z</time>
      </trkpt>
      <trkpt lat="44.97348" lon="4.32438">
        <ele>907</ele>
        <time>2017-04-23T07:58:08.000Z</time>
      </trkpt>
      <trkpt lat="44.97351" lon="4.32467">
        <ele>907</ele>
        <time>2017-04-23T07:58:39.000Z</time>
      </trkpt>
      <trkpt lat="44.97376" lon="4.32487">
        <ele>903</ele>
        <time>2017-04-23T07:59:04.000Z</time>
      </trkpt>
      <trkpt lat="44.97385" lon="4.32491">
        <ele>910</ele>
        <time>2017-04-23T07:59:15.000Z</time>
      </trkpt>
      <trkpt lat="44.97391" lon="4.32501">
        <ele>919</ele>
        <time>2017-04-23T07:59:37.000Z</time>
      </trkpt>
      <trkpt lat="44.97403" lon="4.32501">
        <ele>919</ele>
        <time>2017-04-23T07:59:56.000Z</time>
      </trkpt>
      <trkpt lat="44.97416" lon="4.32505">
        <ele>922</ele>
        <time>2017-04-23T08:00:17.000Z</time>
      </trkpt>
      <trkpt lat="44.97427" lon="4.32506">
        <ele>928</ele>
        <time>2017-04-23T08:00:46.000Z</time>
      </trkpt>
      <trkpt lat="44.97436" lon="4.3251">
        <ele>925</ele>
        <time>2017-04-23T08:00:55.000Z</time>
      </trkpt>
      <trkpt lat="44.97447" lon="4.32507">
        <ele>928</ele>
        <time>2017-04-23T08:01:08.000Z</time>
      </trkpt>
      <trkpt lat="44.97445" lon="4.32493">
        <ele>925</ele>
        <time>2017-04-23T08:01:26.000Z</time>
      </trkpt>
      <trkpt lat="44.97437" lon="4.32485">
        <ele>926</ele>
        <time>2017-04-23T08:01:41.000Z</time>
      </trkpt>
      <trkpt lat="44.97429" lon="4.32474">
        <ele>931</ele>
        <time>2017-04-23T08:01:59.000Z</time>
      </trkpt>
      <trkpt lat="44.97422" lon="4.32447">
        <ele>928</ele>
        <time>2017-04-23T08:02:25.000Z</time>
      </trkpt>
      <trkpt lat="44.97421" lon="4.32433">
        <ele>926</ele>
        <time>2017-04-23T08:02:40.000Z</time>
      </trkpt>
      <trkpt lat="44.97416" lon="4.32421">
        <ele>927</ele>
        <time>2017-04-23T08:02:51.000Z</time>
      </trkpt>
      <trkpt lat="44.97416" lon="4.32408">
        <ele>934</ele>
        <time>2017-04-23T08:03:11.000Z</time>
      </trkpt>
      <trkpt lat="44.97413" lon="4.32394">
        <ele>934</ele>
        <time>2017-04-23T08:03:33.000Z</time>
      </trkpt>
      <trkpt lat="44.97421" lon="4.32384">
        <ele>932</ele>
        <time>2017-04-23T08:03:53.000Z</time>
      </trkpt>
      <trkpt lat="44.9742" lon="4.32363">
        <ele>943</ele>
        <time>2017-04-23T08:04:53.000Z</time>
      </trkpt>
      <trkpt lat="44.97429" lon="4.32374">
        <ele>948</ele>
        <time>2017-04-23T08:05:23.000Z</time>
      </trkpt>
      <trkpt lat="44.97436" lon="4.32386">
        <ele>946</ele>
        <time>2017-04-23T08:05:36.000Z</time>
      </trkpt>
      <trkpt lat="44.97437" lon="4.32354">
        <ele>940</ele>
        <time>2017-04-23T08:06:20.000Z</time>
      </trkpt>
      <trkpt lat="44.97442" lon="4.32342">
        <ele>944</ele>
        <time>2017-04-23T08:06:32.000Z</time>
      </trkpt>
      <trkpt lat="44.9745" lon="4.32347">
        <ele>946</ele>
        <time>2017-04-23T08:06:55.000Z</time>
      </trkpt>
      <trkpt lat="44.97453" lon="4.32359">
        <ele>947</ele>
        <time>2017-04-23T08:07:09.000Z</time>
      </trkpt>
      <trkpt lat="44.97461" lon="4.32368">
        <ele>950</ele>
        <time>2017-04-23T08:07:27.000Z</time>
      </trkpt>
      <trkpt lat="44.9747" lon="4.32374">
        <ele>958</ele>
        <time>2017-04-23T08:07:36.000Z</time>
      </trkpt>
      <trkpt lat="44.97479" lon="4.32376">
        <ele>959</ele>
        <time>2017-04-23T08:07:44.000Z</time>
      </trkpt>
      <trkpt lat="44.97492" lon="4.32391">
        <ele>957</ele>
        <time>2017-04-23T08:08:07.000Z</time>
      </trkpt>
      <trkpt lat="44.97502" lon="4.32393">
        <ele>961</ele>
        <time>2017-04-23T08:08:18.000Z</time>
      </trkpt>
      <trkpt lat="44.97511" lon="4.32396">
        <ele>964</ele>
        <time>2017-04-23T08:08:33.000Z</time>
      </trkpt>
      <trkpt lat="44.97521" lon="4.32406">
        <ele>968</ele>
        <time>2017-04-23T08:08:54.000Z</time>
      </trkpt>
      <trkpt lat="44.9754" lon="4.32408">
        <ele>970</ele>
        <time>2017-04-23T08:09:29.000Z</time>
      </trkpt>
      <trkpt lat="44.97551" lon="4.32411">
        <ele>969</ele>
        <time>2017-04-23T08:09:56.000Z</time>
      </trkpt>
      <trkpt lat="44.97561" lon="4.3242">
        <ele>966</ele>
        <time>2017-04-23T08:10:09.000Z</time>
      </trkpt>
      <trkpt lat="44.9757" lon="4.3242">
        <ele>967</ele>
        <time>2017-04-23T08:10:19.000Z</time>
      </trkpt>
      <trkpt lat="44.9758" lon="4.32419">
        <ele>966</ele>
        <time>2017-04-23T08:10:30.000Z</time>
      </trkpt>
      <trkpt lat="44.9759" lon="4.32416">
        <ele>967</ele>
        <time>2017-04-23T08:10:42.000Z</time>
      </trkpt>
      <trkpt lat="44.97599" lon="4.32413">
        <ele>967</ele>
        <time>2017-04-23T08:10:55.000Z</time>
      </trkpt>
      <trkpt lat="44.9761" lon="4.32413">
        <ele>973</ele>
        <time>2017-04-23T08:11:06.000Z</time>
      </trkpt>
      <trkpt lat="44.97621" lon="4.3241">
        <ele>968</ele>
        <time>2017-04-23T08:12:07.000Z</time>
      </trkpt>
      <trkpt lat="44.9763" lon="4.32407">
        <ele>968</ele>
        <time>2017-04-23T08:12:32.000Z</time>
      </trkpt>
      <trkpt lat="44.97639" lon="4.32402">
        <ele>969</ele>
        <time>2017-04-23T08:12:41.000Z</time>
      </trkpt>
      <trkpt lat="44.97651" lon="4.32396">
        <ele>964</ele>
        <time>2017-04-23T08:12:55.000Z</time>
      </trkpt>
      <trkpt lat="44.97661" lon="4.32389">
        <ele>963</ele>
        <time>2017-04-23T08:13:05.000Z</time>
      </trkpt>
      <trkpt lat="44.97671" lon="4.32381">
        <ele>966</ele>
        <time>2017-04-23T08:13:49.000Z</time>
      </trkpt>
      <trkpt lat="44.97679" lon="4.32374">
        <ele>964</ele>
        <time>2017-04-23T08:13:59.000Z</time>
      </trkpt>
      <trkpt lat="44.9769" lon="4.3237">
        <ele>966</ele>
        <time>2017-04-23T08:14:09.000Z</time>
      </trkpt>
      <trkpt lat="44.97699" lon="4.32365">
        <ele>964</ele>
        <time>2017-04-23T08:14:18.000Z</time>
      </trkpt>
      <trkpt lat="44.97709" lon="4.32356">
        <ele>963</ele>
        <time>2017-04-23T08:14:29.000Z</time>
      </trkpt>
      <trkpt lat="44.97719" lon="4.32351">
        <ele>965</ele>
        <time>2017-04-23T08:14:38.000Z</time>
      </trkpt>
      <trkpt lat="44.97728" lon="4.32344">
        <ele>960</ele>
        <time>2017-04-23T08:14:48.000Z</time>
      </trkpt>
      <trkpt lat="44.97738" lon="4.32337">
        <ele>956</ele>
        <time>2017-04-23T08:14:57.000Z</time>
      </trkpt>
      <trkpt lat="44.97747" lon="4.32331">
        <ele>957</ele>
        <time>2017-04-23T08:15:06.000Z</time>
      </trkpt>
      <trkpt lat="44.97755" lon="4.32331">
        <ele>959</ele>
        <time>2017-04-23T08:15:13.000Z</time>
      </trkpt>
      <trkpt lat="44.97767" lon="4.32323">
        <ele>954</ele>
        <time>2017-04-23T08:15:28.000Z</time>
      </trkpt>
      <trkpt lat="44.97774" lon="4.32308">
        <ele>947</ele>
        <time>2017-04-23T08:15:40.000Z</time>
      </trkpt>
      <trkpt lat="44.97781" lon="4.32296">
        <ele>942</ele>
        <time>2017-04-23T08:15:48.000Z</time>
      </trkpt>
      <trkpt lat="44.97787" lon="4.32285">
        <ele>945</ele>
        <time>2017-04-23T08:15:56.000Z</time>
      </trkpt>
      <trkpt lat="44.97804" lon="4.32277">
        <ele>952</ele>
        <time>2017-04-23T08:16:22.000Z</time>
      </trkpt>
      <trkpt lat="44.97803" lon="4.32293">
        <ele>957</ele>
        <time>2017-04-23T08:16:32.000Z</time>
      </trkpt>
      <trkpt lat="44.97805" lon="4.32307">
        <ele>951</ele>
        <time>2017-04-23T08:16:43.000Z</time>
      </trkpt>
      <trkpt lat="44.97812" lon="4.32319">
        <ele>938</ele>
        <time>2017-04-23T08:16:52.000Z</time>
      </trkpt>
      <trkpt lat="44.97814" lon="4.32334">
        <ele>937</ele>
        <time>2017-04-23T08:16:59.000Z</time>
      </trkpt>
      <trkpt lat="44.97819" lon="4.32347">
        <ele>936</ele>
        <time>2017-04-23T08:17:07.000Z</time>
      </trkpt>
      <trkpt lat="44.97821" lon="4.32363">
        <ele>935</ele>
        <time>2017-04-23T08:17:16.000Z</time>
      </trkpt>
      <trkpt lat="44.97823" lon="4.32378">
        <ele>935</ele>
        <time>2017-04-23T08:17:25.000Z</time>
      </trkpt>
      <trkpt lat="44.97847" lon="4.32449">
        <ele>932</ele>
        <time>2017-04-23T08:18:14.000Z</time>
      </trkpt>
      <trkpt lat="44.97857" lon="4.32453">
        <ele>931</ele>
        <time>2017-04-23T08:18:23.000Z</time>
      </trkpt>
      <trkpt lat="44.97869" lon="4.32452">
        <ele>932</ele>
        <time>2017-04-23T08:18:32.000Z</time>
      </trkpt>
      <trkpt lat="44.9788" lon="4.32448">
        <ele>933</ele>
        <time>2017-04-23T08:18:41.000Z</time>
      </trkpt>
      <trkpt lat="44.97889" lon="4.32451">
        <ele>933</ele>
        <time>2017-04-23T08:18:47.000Z</time>
      </trkpt>
      <trkpt lat="44.97894" lon="4.32462">
        <ele>935</ele>
        <time>2017-04-23T08:18:57.000Z</time>
      </trkpt>
      <trkpt lat="44.97889" lon="4.32478">
        <ele>937</ele>
        <time>2017-04-23T08:19:09.000Z</time>
      </trkpt>
      <trkpt lat="44.97887" lon="4.32492">
        <ele>939</ele>
        <time>2017-04-23T08:19:18.000Z</time>
      </trkpt>
      <trkpt lat="44.97884" lon="4.32507">
        <ele>937</ele>
        <time>2017-04-23T08:19:27.000Z</time>
      </trkpt>
      <trkpt lat="44.9788" lon="4.32548">
        <ele>934</ele>
        <time>2017-04-23T08:19:50.000Z</time>
      </trkpt>
      <trkpt lat="44.9788" lon="4.32564">
        <ele>931</ele>
        <time>2017-04-23T08:20:04.000Z</time>
      </trkpt>
      <trkpt lat="44.9788" lon="4.32579">
        <ele>929</ele>
        <time>2017-04-23T08:20:16.000Z</time>
      </trkpt>
      <trkpt lat="44.97879" lon="4.32592">
        <ele>930</ele>
        <time>2017-04-23T08:20:25.000Z</time>
      </trkpt>
      <trkpt lat="44.97878" lon="4.32608">
        <ele>925</ele>
        <time>2017-04-23T08:20:35.000Z</time>
      </trkpt>
      <trkpt lat="44.97878" lon="4.32623">
        <ele>927</ele>
        <time>2017-04-23T08:20:45.000Z</time>
      </trkpt>
      <trkpt lat="44.97882" lon="4.32637">
        <ele>928</ele>
        <time>2017-04-23T08:21:01.000Z</time>
      </trkpt>
      <trkpt lat="44.97874" lon="4.32683">
        <ele>924</ele>
        <time>2017-04-23T08:21:29.000Z</time>
      </trkpt>
      <trkpt lat="44.97868" lon="4.32694">
        <ele>928</ele>
        <time>2017-04-23T08:21:51.000Z</time>
      </trkpt>
      <trkpt lat="44.97871" lon="4.3271">
        <ele>926</ele>
        <time>2017-04-23T08:24:42.000Z</time>
      </trkpt>
      <trkpt lat="44.97876" lon="4.32723">
        <ele>929</ele>
        <time>2017-04-23T08:24:58.000Z</time>
      </trkpt>
      <trkpt lat="44.97882" lon="4.32735">
        <ele>929</ele>
        <time>2017-04-23T08:25:12.000Z</time>
      </trkpt>
      <trkpt lat="44.97889" lon="4.32743">
        <ele>930</ele>
        <time>2017-04-23T08:25:26.000Z</time>
      </trkpt>
      <trkpt lat="44.97891" lon="4.32757">
        <ele>938</ele>
        <time>2017-04-23T08:25:49.000Z</time>
      </trkpt>
      <trkpt lat="44.9789" lon="4.3277">
        <ele>941</ele>
        <time>2017-04-23T08:26:04.000Z</time>
      </trkpt>
      <trkpt lat="44.9789" lon="4.32784">
        <ele>944</ele>
        <time>2017-04-23T08:26:18.000Z</time>
      </trkpt>
      <trkpt lat="44.97894" lon="4.32801">
        <ele>945</ele>
        <time>2017-04-23T08:26:44.000Z</time>
      </trkpt>
      <trkpt lat="44.97901" lon="4.3281">
        <ele>952</ele>
        <time>2017-04-23T08:27:05.000Z</time>
      </trkpt>
      <trkpt lat="44.97912" lon="4.32815">
        <ele>950</ele>
        <time>2017-04-23T08:27:18.000Z</time>
      </trkpt>
      <trkpt lat="44.97922" lon="4.32814">
        <ele>951</ele>
        <time>2017-04-23T08:27:27.000Z</time>
      </trkpt>
      <trkpt lat="44.97931" lon="4.32815">
        <ele>952</ele>
        <time>2017-04-23T08:27:39.000Z</time>
      </trkpt>
      <trkpt lat="44.97939" lon="4.3281">
        <ele>950</ele>
        <time>2017-04-23T08:27:55.000Z</time>
      </trkpt>
      <trkpt lat="44.97947" lon="4.32803">
        <ele>956</ele>
        <time>2017-04-23T08:28:05.000Z</time>
      </trkpt>
      <trkpt lat="44.97957" lon="4.32796">
        <ele>966</ele>
        <time>2017-04-23T08:28:17.000Z</time>
      </trkpt>
      <trkpt lat="44.97967" lon="4.3279">
        <ele>966</ele>
        <time>2017-04-23T08:28:34.000Z</time>
      </trkpt>
      <trkpt lat="44.97976" lon="4.32794">
        <ele>961</ele>
        <time>2017-04-23T08:28:46.000Z</time>
      </trkpt>
      <trkpt lat="44.97986" lon="4.32796">
        <ele>960</ele>
        <time>2017-04-23T08:28:58.000Z</time>
      </trkpt>
      <trkpt lat="44.98005" lon="4.32789">
        <ele>960</ele>
        <time>2017-04-23T08:29:21.000Z</time>
      </trkpt>
      <trkpt lat="44.98015" lon="4.32786">
        <ele>960</ele>
        <time>2017-04-23T08:29:30.000Z</time>
      </trkpt>
      <trkpt lat="44.98025" lon="4.32787">
        <ele>960</ele>
        <time>2017-04-23T08:29:45.000Z</time>
      </trkpt>
      <trkpt lat="44.98034" lon="4.32783">
        <ele>959</ele>
        <time>2017-04-23T08:29:57.000Z</time>
      </trkpt>
      <trkpt lat="44.98042" lon="4.32774">
        <ele>961</ele>
        <time>2017-04-23T08:30:18.000Z</time>
      </trkpt>
      <trkpt lat="44.98052" lon="4.32767">
        <ele>962</ele>
        <time>2017-04-23T08:30:33.000Z</time>
      </trkpt>
      <trkpt lat="44.98059" lon="4.32745">
        <ele>988</ele>
        <time>2017-04-23T08:31:30.000Z</time>
      </trkpt>
      <trkpt lat="44.9805" lon="4.32739">
        <ele>996</ele>
        <time>2017-04-23T08:31:45.000Z</time>
      </trkpt>
      <trkpt lat="44.98045" lon="4.32727">
        <ele>997</ele>
        <time>2017-04-23T08:32:00.000Z</time>
      </trkpt>
      <trkpt lat="44.98034" lon="4.32723">
        <ele>992</ele>
        <time>2017-04-23T08:32:09.000Z</time>
      </trkpt>
      <trkpt lat="44.98034" lon="4.32704">
        <ele>982</ele>
        <time>2017-04-23T08:32:53.000Z</time>
      </trkpt>
      <trkpt lat="44.98034" lon="4.32679">
        <ele>987</ele>
        <time>2017-04-23T08:33:15.000Z</time>
      </trkpt>
      <trkpt lat="44.98028" lon="4.3266">
        <ele>992</ele>
        <time>2017-04-23T08:33:41.000Z</time>
      </trkpt>
      <trkpt lat="44.98026" lon="4.32646">
        <ele>999</ele>
        <time>2017-04-23T08:34:08.000Z</time>
      </trkpt>
      <trkpt lat="44.98023" lon="4.32631">
        <ele>1004</ele>
        <time>2017-04-23T08:34:24.000Z</time>
      </trkpt>
      <trkpt lat="44.98023" lon="4.32617">
        <ele>1000</ele>
        <time>2017-04-23T08:34:36.000Z</time>
      </trkpt>
      <trkpt lat="44.98027" lon="4.32606">
        <ele>1000</ele>
        <time>2017-04-23T08:34:51.000Z</time>
      </trkpt>
      <trkpt lat="44.98032" lon="4.32594">
        <ele>1002</ele>
        <time>2017-04-23T08:35:21.000Z</time>
      </trkpt>
      <trkpt lat="44.98037" lon="4.32577">
        <ele>1003</ele>
        <time>2017-04-23T08:35:55.000Z</time>
      </trkpt>
      <trkpt lat="44.98045" lon="4.32569">
        <ele>1013</ele>
        <time>2017-04-23T08:36:09.000Z</time>
      </trkpt>
      <trkpt lat="44.98053" lon="4.32575">
        <ele>1017</ele>
        <time>2017-04-23T08:36:28.000Z</time>
      </trkpt>
      <trkpt lat="44.98064" lon="4.32576">
        <ele>1024</ele>
        <time>2017-04-23T08:36:47.000Z</time>
      </trkpt>
      <trkpt lat="44.98074" lon="4.32576">
        <ele>1030</ele>
        <time>2017-04-23T08:36:59.000Z</time>
      </trkpt>
      <trkpt lat="44.98084" lon="4.3258">
        <ele>1026</ele>
        <time>2017-04-23T08:37:13.000Z</time>
      </trkpt>
      <trkpt lat="44.98093" lon="4.32578">
        <ele>1026</ele>
        <time>2017-04-23T08:37:27.000Z</time>
      </trkpt>
      <trkpt lat="44.98103" lon="4.32569">
        <ele>1020</ele>
        <time>2017-04-23T08:37:51.000Z</time>
      </trkpt>
      <trkpt lat="44.98108" lon="4.32551">
        <ele>1021</ele>
        <time>2017-04-23T08:38:09.000Z</time>
      </trkpt>
      <trkpt lat="44.98113" lon="4.32537">
        <ele>1025</ele>
        <time>2017-04-23T08:38:18.000Z</time>
      </trkpt>
      <trkpt lat="44.98119" lon="4.32526">
        <ele>1023</ele>
        <time>2017-04-23T08:38:35.000Z</time>
      </trkpt>
      <trkpt lat="44.98125" lon="4.32512">
        <ele>1024</ele>
        <time>2017-04-23T08:38:44.000Z</time>
      </trkpt>
      <trkpt lat="44.98129" lon="4.32499">
        <ele>1025</ele>
        <time>2017-04-23T08:39:00.000Z</time>
      </trkpt>
      <trkpt lat="44.98135" lon="4.32483">
        <ele>1027</ele>
        <time>2017-04-23T08:39:11.000Z</time>
      </trkpt>
      <trkpt lat="44.98137" lon="4.3246">
        <ele>1034</ele>
        <time>2017-04-23T08:39:28.000Z</time>
      </trkpt>
      <trkpt lat="44.98136" lon="4.32446">
        <ele>1034</ele>
        <time>2017-04-23T08:39:42.000Z</time>
      </trkpt>
      <trkpt lat="44.98143" lon="4.32435">
        <ele>1032</ele>
        <time>2017-04-23T08:39:55.000Z</time>
      </trkpt>
      <trkpt lat="44.9815" lon="4.32426">
        <ele>1034</ele>
        <time>2017-04-23T08:40:07.000Z</time>
      </trkpt>
      <trkpt lat="44.98161" lon="4.32414">
        <ele>1032</ele>
        <time>2017-04-23T08:40:26.000Z</time>
      </trkpt>
      <trkpt lat="44.9817" lon="4.32409">
        <ele>1038</ele>
        <time>2017-04-23T08:40:44.000Z</time>
      </trkpt>
      <trkpt lat="44.9818" lon="4.32402">
        <ele>1043</ele>
        <time>2017-04-23T08:41:00.000Z</time>
      </trkpt>
      <trkpt lat="44.98189" lon="4.32399">
        <ele>1042</ele>
        <time>2017-04-23T08:41:13.000Z</time>
      </trkpt>
      <trkpt lat="44.982" lon="4.32393">
        <ele>1040</ele>
        <time>2017-04-23T08:41:26.000Z</time>
      </trkpt>
      <trkpt lat="44.98207" lon="4.32384">
        <ele>1043</ele>
        <time>2017-04-23T08:41:44.000Z</time>
      </trkpt>
      <trkpt lat="44.98214" lon="4.32375">
        <ele>1044</ele>
        <time>2017-04-23T08:41:56.000Z</time>
      </trkpt>
      <trkpt lat="44.98221" lon="4.32365">
        <ele>1042</ele>
        <time>2017-04-23T08:42:02.000Z</time>
      </trkpt>
      <trkpt lat="44.98228" lon="4.32355">
        <ele>1042</ele>
        <time>2017-04-23T08:42:11.000Z</time>
      </trkpt>
      <trkpt lat="44.98238" lon="4.32344">
        <ele>1045</ele>
        <time>2017-04-23T08:42:36.000Z</time>
      </trkpt>
      <trkpt lat="44.98248" lon="4.32324">
        <ele>1046</ele>
        <time>2017-04-23T08:43:10.000Z</time>
      </trkpt>
      <trkpt lat="44.98255" lon="4.32312">
        <ele>1050</ele>
        <time>2017-04-23T08:43:26.000Z</time>
      </trkpt>
      <trkpt lat="44.98266" lon="4.323">
        <ele>1049</ele>
        <time>2017-04-23T08:43:47.000Z</time>
      </trkpt>
      <trkpt lat="44.98274" lon="4.32294">
        <ele>1050</ele>
        <time>2017-04-23T08:44:05.000Z</time>
      </trkpt>
      <trkpt lat="44.98287" lon="4.3228">
        <ele>1056</ele>
        <time>2017-04-23T08:44:28.000Z</time>
      </trkpt>
      <trkpt lat="44.98294" lon="4.3227">
        <ele>1066</ele>
        <time>2017-04-23T08:44:39.000Z</time>
      </trkpt>
      <trkpt lat="44.98301" lon="4.32261">
        <ele>1064</ele>
        <time>2017-04-23T08:44:50.000Z</time>
      </trkpt>
      <trkpt lat="44.98311" lon="4.32256">
        <ele>1069</ele>
        <time>2017-04-23T08:45:06.000Z</time>
      </trkpt>
      <trkpt lat="44.98321" lon="4.32245">
        <ele>1071</ele>
        <time>2017-04-23T08:45:28.000Z</time>
      </trkpt>
      <trkpt lat="44.98327" lon="4.32235">
        <ele>1073</ele>
        <time>2017-04-23T08:45:42.000Z</time>
      </trkpt>
      <trkpt lat="44.98334" lon="4.32222">
        <ele>1074</ele>
        <time>2017-04-23T08:45:53.000Z</time>
      </trkpt>
      <trkpt lat="44.98339" lon="4.32207">
        <ele>1072</ele>
        <time>2017-04-23T08:46:15.000Z</time>
      </trkpt>
      <trkpt lat="44.98342" lon="4.32194">
        <ele>1077</ele>
        <time>2017-04-23T08:46:30.000Z</time>
      </trkpt>
      <trkpt lat="44.98348" lon="4.32181">
        <ele>1080</ele>
        <time>2017-04-23T08:46:42.000Z</time>
      </trkpt>
      <trkpt lat="44.98352" lon="4.32169">
        <ele>1083</ele>
        <time>2017-04-23T08:46:56.000Z</time>
      </trkpt>
      <trkpt lat="44.98354" lon="4.32156">
        <ele>1089</ele>
        <time>2017-04-23T08:47:11.000Z</time>
      </trkpt>
      <trkpt lat="44.98357" lon="4.32142">
        <ele>1087</ele>
        <time>2017-04-23T08:47:27.000Z</time>
      </trkpt>
      <trkpt lat="44.9836" lon="4.32124">
        <ele>1094</ele>
        <time>2017-04-23T08:47:46.000Z</time>
      </trkpt>
      <trkpt lat="44.98365" lon="4.32112">
        <ele>1090</ele>
        <time>2017-04-23T08:48:02.000Z</time>
      </trkpt>
      <trkpt lat="44.98369" lon="4.32087">
        <ele>1092</ele>
        <time>2017-04-23T08:48:24.000Z</time>
      </trkpt>
      <trkpt lat="44.98372" lon="4.32074">
        <ele>1095</ele>
        <time>2017-04-23T08:48:34.000Z</time>
      </trkpt>
      <trkpt lat="44.98374" lon="4.32046">
        <ele>1099</ele>
        <time>2017-04-23T08:49:07.000Z</time>
      </trkpt>
      <trkpt lat="44.98376" lon="4.32033">
        <ele>1107</ele>
        <time>2017-04-23T08:49:28.000Z</time>
      </trkpt>
      <trkpt lat="44.98379" lon="4.32019">
        <ele>1107</ele>
        <time>2017-04-23T08:49:41.000Z</time>
      </trkpt>
      <trkpt lat="44.98381" lon="4.32006">
        <ele>1105</ele>
        <time>2017-04-23T08:49:59.000Z</time>
      </trkpt>
      <trkpt lat="44.98383" lon="4.31993">
        <ele>1110</ele>
        <time>2017-04-23T08:50:14.000Z</time>
      </trkpt>
      <trkpt lat="44.98383" lon="4.3198">
        <ele>1114</ele>
        <time>2017-04-23T08:50:28.000Z</time>
      </trkpt>
      <trkpt lat="44.98383" lon="4.31965">
        <ele>1115</ele>
        <time>2017-04-23T08:50:43.000Z</time>
      </trkpt>
      <trkpt lat="44.98378" lon="4.31951">
        <ele>1116</ele>
        <time>2017-04-23T08:50:58.000Z</time>
      </trkpt>
      <trkpt lat="44.98378" lon="4.31937">
        <ele>1116</ele>
        <time>2017-04-23T08:51:13.000Z</time>
      </trkpt>
      <trkpt lat="44.98374" lon="4.31926">
        <ele>1115</ele>
        <time>2017-04-23T08:51:30.000Z</time>
      </trkpt>
      <trkpt lat="44.98369" lon="4.3191">
        <ele>1118</ele>
        <time>2017-04-23T08:51:44.000Z</time>
      </trkpt>
      <trkpt lat="44.98367" lon="4.31894">
        <ele>1118</ele>
        <time>2017-04-23T08:52:08.000Z</time>
      </trkpt>
      <trkpt lat="44.98372" lon="4.31882">
        <ele>1118</ele>
        <time>2017-04-23T08:52:20.000Z</time>
      </trkpt>
      <trkpt lat="44.98378" lon="4.31872">
        <ele>1120</ele>
        <time>2017-04-23T08:52:37.000Z</time>
      </trkpt>
      <trkpt lat="44.98385" lon="4.31863">
        <ele>1122</ele>
        <time>2017-04-23T08:52:49.000Z</time>
      </trkpt>
      <trkpt lat="44.98391" lon="4.31853">
        <ele>1125</ele>
        <time>2017-04-23T08:53:05.000Z</time>
      </trkpt>
      <trkpt lat="44.98399" lon="4.31839">
        <ele>1124</ele>
        <time>2017-04-23T08:53:27.000Z</time>
      </trkpt>
      <trkpt lat="44.98388" lon="4.3182">
        <ele>1118</ele>
        <time>2017-04-23T08:59:20.000Z</time>
      </trkpt>
      <trkpt lat="44.98376" lon="4.31815">
        <ele>1119</ele>
        <time>2017-04-23T08:59:33.000Z</time>
      </trkpt>
      <trkpt lat="44.98336" lon="4.31785">
        <ele>1126</ele>
        <time>2017-04-23T09:00:20.000Z</time>
      </trkpt>
      <trkpt lat="44.98325" lon="4.31778">
        <ele>1125</ele>
        <time>2017-04-23T09:00:30.000Z</time>
      </trkpt>
      <trkpt lat="44.98316" lon="4.31773">
        <ele>1123</ele>
        <time>2017-04-23T09:00:38.000Z</time>
      </trkpt>
      <trkpt lat="44.98307" lon="4.31765">
        <ele>1122</ele>
        <time>2017-04-23T09:00:47.000Z</time>
      </trkpt>
      <trkpt lat="44.98298" lon="4.3176">
        <ele>1120</ele>
        <time>2017-04-23T09:00:54.000Z</time>
      </trkpt>
      <trkpt lat="44.98289" lon="4.31757">
        <ele>1119</ele>
        <time>2017-04-23T09:01:10.000Z</time>
      </trkpt>
      <trkpt lat="44.98278" lon="4.31753">
        <ele>1119</ele>
        <time>2017-04-23T09:01:23.000Z</time>
      </trkpt>
      <trkpt lat="44.98269" lon="4.31755">
        <ele>1117</ele>
        <time>2017-04-23T09:01:46.000Z</time>
      </trkpt>
      <trkpt lat="44.98259" lon="4.31761">
        <ele>1118</ele>
        <time>2017-04-23T09:01:58.000Z</time>
      </trkpt>
      <trkpt lat="44.98248" lon="4.31768">
        <ele>1117</ele>
        <time>2017-04-23T09:02:11.000Z</time>
      </trkpt>
      <trkpt lat="44.98238" lon="4.31777">
        <ele>1117</ele>
        <time>2017-04-23T09:02:24.000Z</time>
      </trkpt>
      <trkpt lat="44.98229" lon="4.31785">
        <ele>1114</ele>
        <time>2017-04-23T09:02:36.000Z</time>
      </trkpt>
      <trkpt lat="44.98219" lon="4.31793">
        <ele>1113</ele>
        <time>2017-04-23T09:02:49.000Z</time>
      </trkpt>
      <trkpt lat="44.9821" lon="4.31799">
        <ele>1111</ele>
        <time>2017-04-23T09:03:00.000Z</time>
      </trkpt>
      <trkpt lat="44.98201" lon="4.31802">
        <ele>1107</ele>
        <time>2017-04-23T09:03:13.000Z</time>
      </trkpt>
      <trkpt lat="44.98192" lon="4.31804">
        <ele>1106</ele>
        <time>2017-04-23T09:03:23.000Z</time>
      </trkpt>
      <trkpt lat="44.98182" lon="4.31807">
        <ele>1108</ele>
        <time>2017-04-23T09:03:41.000Z</time>
      </trkpt>
      <trkpt lat="44.9817" lon="4.31808">
        <ele>1108</ele>
        <time>2017-04-23T09:03:55.000Z</time>
      </trkpt>
      <trkpt lat="44.9816" lon="4.31807">
        <ele>1108</ele>
        <time>2017-04-23T09:04:04.000Z</time>
      </trkpt>
      <trkpt lat="44.9815" lon="4.31805">
        <ele>1108</ele>
        <time>2017-04-23T09:04:16.000Z</time>
      </trkpt>
      <trkpt lat="44.9813" lon="4.31796">
        <ele>1101</ele>
        <time>2017-04-23T09:04:29.000Z</time>
      </trkpt>
      <trkpt lat="44.98124" lon="4.31786">
        <ele>1102</ele>
        <time>2017-04-23T09:04:41.000Z</time>
      </trkpt>
      <trkpt lat="44.98117" lon="4.31776">
        <ele>1099</ele>
        <time>2017-04-23T09:04:52.000Z</time>
      </trkpt>
      <trkpt lat="44.98108" lon="4.31776">
        <ele>1099</ele>
        <time>2017-04-23T09:05:02.000Z</time>
      </trkpt>
      <trkpt lat="44.98099" lon="4.31779">
        <ele>1099</ele>
        <time>2017-04-23T09:05:17.000Z</time>
      </trkpt>
      <trkpt lat="44.98089" lon="4.31785">
        <ele>1096</ele>
        <time>2017-04-23T09:05:27.000Z</time>
      </trkpt>
      <trkpt lat="44.9808" lon="4.31791">
        <ele>1096</ele>
        <time>2017-04-23T09:05:39.000Z</time>
      </trkpt>
      <trkpt lat="44.98072" lon="4.31797">
        <ele>1088</ele>
        <time>2017-04-23T09:05:51.000Z</time>
      </trkpt>
      <trkpt lat="44.98061" lon="4.318">
        <ele>1084</ele>
        <time>2017-04-23T09:06:05.000Z</time>
      </trkpt>
      <trkpt lat="44.98053" lon="4.31811">
        <ele>1078</ele>
        <time>2017-04-23T09:06:19.000Z</time>
      </trkpt>
      <trkpt lat="44.98044" lon="4.3182">
        <ele>1073</ele>
        <time>2017-04-23T09:06:26.000Z</time>
      </trkpt>
      <trkpt lat="44.98032" lon="4.31825">
        <ele>1073</ele>
        <time>2017-04-23T09:06:37.000Z</time>
      </trkpt>
      <trkpt lat="44.98022" lon="4.31829">
        <ele>1074</ele>
        <time>2017-04-23T09:06:47.000Z</time>
      </trkpt>
      <trkpt lat="44.9801" lon="4.31833">
        <ele>1072</ele>
        <time>2017-04-23T09:06:58.000Z</time>
      </trkpt>
      <trkpt lat="44.97999" lon="4.31836">
        <ele>1069</ele>
        <time>2017-04-23T09:07:06.000Z</time>
      </trkpt>
      <trkpt lat="44.97986" lon="4.31837">
        <ele>1064</ele>
        <time>2017-04-23T09:07:18.000Z</time>
      </trkpt>
      <trkpt lat="44.97976" lon="4.31841">
        <ele>1062</ele>
        <time>2017-04-23T09:07:25.000Z</time>
      </trkpt>
      <trkpt lat="44.97965" lon="4.31845">
        <ele>1064</ele>
        <time>2017-04-23T09:07:36.000Z</time>
      </trkpt>
      <trkpt lat="44.97953" lon="4.3184">
        <ele>1062</ele>
        <time>2017-04-23T09:07:46.000Z</time>
      </trkpt>
      <trkpt lat="44.97955" lon="4.31822">
        <ele>1073</ele>
        <time>2017-04-23T09:08:13.000Z</time>
      </trkpt>
      <trkpt lat="44.97963" lon="4.31812">
        <ele>1074</ele>
        <time>2017-04-23T09:08:25.000Z</time>
      </trkpt>
      <trkpt lat="44.97969" lon="4.31801">
        <ele>1068</ele>
        <time>2017-04-23T09:08:31.000Z</time>
      </trkpt>
      <trkpt lat="44.97975" lon="4.3179">
        <ele>1066</ele>
        <time>2017-04-23T09:08:40.000Z</time>
      </trkpt>
      <trkpt lat="44.97982" lon="4.31781">
        <ele>1069</ele>
        <time>2017-04-23T09:08:51.000Z</time>
      </trkpt>
      <trkpt lat="44.9799" lon="4.31772">
        <ele>1067</ele>
        <time>2017-04-23T09:08:58.000Z</time>
      </trkpt>
      <trkpt lat="44.97997" lon="4.31764">
        <ele>1069</ele>
        <time>2017-04-23T09:09:10.000Z</time>
      </trkpt>
      <trkpt lat="44.98005" lon="4.31756">
        <ele>1067</ele>
        <time>2017-04-23T09:09:31.000Z</time>
      </trkpt>
      <trkpt lat="44.98013" lon="4.31749">
        <ele>1065</ele>
        <time>2017-04-23T09:09:39.000Z</time>
      </trkpt>
      <trkpt lat="44.9802" lon="4.31739">
        <ele>1066</ele>
        <time>2017-04-23T09:09:49.000Z</time>
      </trkpt>
      <trkpt lat="44.98027" lon="4.3173">
        <ele>1066</ele>
        <time>2017-04-23T09:10:07.000Z</time>
      </trkpt>
      <trkpt lat="44.98032" lon="4.3172">
        <ele>1071</ele>
        <time>2017-04-23T09:10:28.000Z</time>
      </trkpt>
      <trkpt lat="44.98039" lon="4.31712">
        <ele>1067</ele>
        <time>2017-04-23T09:10:37.000Z</time>
      </trkpt>
      <trkpt lat="44.98051" lon="4.31698">
        <ele>1074</ele>
        <time>2017-04-23T09:11:19.000Z</time>
      </trkpt>
      <trkpt lat="44.9806" lon="4.3169">
        <ele>1079</ele>
        <time>2017-04-23T09:11:34.000Z</time>
      </trkpt>
      <trkpt lat="44.98069" lon="4.31681">
        <ele>1066</ele>
        <time>2017-04-23T09:11:37.000Z</time>
      </trkpt>
      <trkpt lat="44.98077" lon="4.31672">
        <ele>1063</ele>
        <time>2017-04-23T09:11:50.000Z</time>
      </trkpt>
      <trkpt lat="44.98085" lon="4.3166">
        <ele>1062</ele>
        <time>2017-04-23T09:12:02.000Z</time>
      </trkpt>
      <trkpt lat="44.98095" lon="4.31652">
        <ele>1059</ele>
        <time>2017-04-23T09:12:16.000Z</time>
      </trkpt>
      <trkpt lat="44.98106" lon="4.31651">
        <ele>1057</ele>
        <time>2017-04-23T09:12:38.000Z</time>
      </trkpt>
      <trkpt lat="44.98115" lon="4.3165">
        <ele>1058</ele>
        <time>2017-04-23T09:12:53.000Z</time>
      </trkpt>
      <trkpt lat="44.98124" lon="4.31645">
        <ele>1056</ele>
        <time>2017-04-23T09:13:02.000Z</time>
      </trkpt>
      <trkpt lat="44.98139" lon="4.31631">
        <ele>1056</ele>
        <time>2017-04-23T09:13:23.000Z</time>
      </trkpt>
      <trkpt lat="44.98148" lon="4.3163">
        <ele>1062</ele>
        <time>2017-04-23T09:14:45.000Z</time>
      </trkpt>
      <trkpt lat="44.98149" lon="4.31617">
        <ele>1073</ele>
        <time>2017-04-23T09:15:03.000Z</time>
      </trkpt>
      <trkpt lat="44.98151" lon="4.316">
        <ele>1074</ele>
        <time>2017-04-23T09:15:15.000Z</time>
      </trkpt>
      <trkpt lat="44.98155" lon="4.31589">
        <ele>1067</ele>
        <time>2017-04-23T09:15:21.000Z</time>
      </trkpt>
      <trkpt lat="44.98161" lon="4.31573">
        <ele>1061</ele>
        <time>2017-04-23T09:15:50.000Z</time>
      </trkpt>
      <trkpt lat="44.98165" lon="4.31561">
        <ele>1061</ele>
        <time>2017-04-23T09:15:59.000Z</time>
      </trkpt>
      <trkpt lat="44.9818" lon="4.31543">
        <ele>1060</ele>
        <time>2017-04-23T09:16:28.000Z</time>
      </trkpt>
      <trkpt lat="44.98188" lon="4.31533">
        <ele>1054</ele>
        <time>2017-04-23T09:17:22.000Z</time>
      </trkpt>
      <trkpt lat="44.98187" lon="4.31499">
        <ele>1065</ele>
        <time>2017-04-23T09:18:06.000Z</time>
      </trkpt>
      <trkpt lat="44.9819" lon="4.31448">
        <ele>1067</ele>
        <time>2017-04-23T09:18:43.000Z</time>
      </trkpt>
      <trkpt lat="44.98195" lon="4.31435">
        <ele>1066</ele>
        <time>2017-04-23T09:18:52.000Z</time>
      </trkpt>
      <trkpt lat="44.98196" lon="4.31421">
        <ele>1069</ele>
        <time>2017-04-23T09:19:00.000Z</time>
      </trkpt>
      <trkpt lat="44.98197" lon="4.31406">
        <ele>1068</ele>
        <time>2017-04-23T09:19:10.000Z</time>
      </trkpt>
      <trkpt lat="44.98199" lon="4.3139">
        <ele>1068</ele>
        <time>2017-04-23T09:19:19.000Z</time>
      </trkpt>
      <trkpt lat="44.98202" lon="4.31376">
        <ele>1068</ele>
        <time>2017-04-23T09:19:28.000Z</time>
      </trkpt>
      <trkpt lat="44.98205" lon="4.31363">
        <ele>1067</ele>
        <time>2017-04-23T09:19:37.000Z</time>
      </trkpt>
      <trkpt lat="44.9821" lon="4.31346">
        <ele>1065</ele>
        <time>2017-04-23T09:19:48.000Z</time>
      </trkpt>
      <trkpt lat="44.98219" lon="4.31324">
        <ele>1059</ele>
        <time>2017-04-23T09:20:23.000Z</time>
      </trkpt>
      <trkpt lat="44.98222" lon="4.31312">
        <ele>1060</ele>
        <time>2017-04-23T09:20:30.000Z</time>
      </trkpt>
      <trkpt lat="44.98225" lon="4.31298">
        <ele>1061</ele>
        <time>2017-04-23T09:20:37.000Z</time>
      </trkpt>
      <trkpt lat="44.9823" lon="4.31286">
        <ele>1060</ele>
        <time>2017-04-23T09:20:43.000Z</time>
      </trkpt>
      <trkpt lat="44.98235" lon="4.31258">
        <ele>1061</ele>
        <time>2017-04-23T09:21:01.000Z</time>
      </trkpt>
      <trkpt lat="44.98244" lon="4.31218">
        <ele>1061</ele>
        <time>2017-04-23T09:21:31.000Z</time>
      </trkpt>
      <trkpt lat="44.98249" lon="4.31187">
        <ele>1059</ele>
        <time>2017-04-23T09:21:50.000Z</time>
      </trkpt>
      <trkpt lat="44.98255" lon="4.31176">
        <ele>1058</ele>
        <time>2017-04-23T09:21:58.000Z</time>
      </trkpt>
      <trkpt lat="44.98259" lon="4.31165">
        <ele>1059</ele>
        <time>2017-04-23T09:22:07.000Z</time>
      </trkpt>
      <trkpt lat="44.98265" lon="4.31153">
        <ele>1061</ele>
        <time>2017-04-23T09:22:18.000Z</time>
      </trkpt>
      <trkpt lat="44.98272" lon="4.31143">
        <ele>1064</ele>
        <time>2017-04-23T09:22:31.000Z</time>
      </trkpt>
      <trkpt lat="44.98281" lon="4.31129">
        <ele>1072</ele>
        <time>2017-04-23T09:22:58.000Z</time>
      </trkpt>
      <trkpt lat="44.98288" lon="4.3112">
        <ele>1071</ele>
        <time>2017-04-23T09:23:09.000Z</time>
      </trkpt>
      <trkpt lat="44.98295" lon="4.31112">
        <ele>1070</ele>
        <time>2017-04-23T09:23:21.000Z</time>
      </trkpt>
      <trkpt lat="44.98302" lon="4.31102">
        <ele>1066</ele>
        <time>2017-04-23T09:23:30.000Z</time>
      </trkpt>
      <trkpt lat="44.98301" lon="4.31087">
        <ele>1074</ele>
        <time>2017-04-23T09:23:48.000Z</time>
      </trkpt>
      <trkpt lat="44.98317" lon="4.31057">
        <ele>1065</ele>
        <time>2017-04-23T09:24:14.000Z</time>
      </trkpt>
      <trkpt lat="44.98326" lon="4.31052">
        <ele>1064</ele>
        <time>2017-04-23T09:24:23.000Z</time>
      </trkpt>
      <trkpt lat="44.98337" lon="4.31048">
        <ele>1070</ele>
        <time>2017-04-23T09:24:45.000Z</time>
      </trkpt>
      <trkpt lat="44.98344" lon="4.31036">
        <ele>1064</ele>
        <time>2017-04-23T09:25:03.000Z</time>
      </trkpt>
      <trkpt lat="44.98349" lon="4.31025">
        <ele>1065</ele>
        <time>2017-04-23T09:25:12.000Z</time>
      </trkpt>
      <trkpt lat="44.98353" lon="4.31013">
        <ele>1062</ele>
        <time>2017-04-23T09:25:23.000Z</time>
      </trkpt>
      <trkpt lat="44.9835" lon="4.31">
        <ele>1064</ele>
        <time>2017-04-23T09:25:42.000Z</time>
      </trkpt>
      <trkpt lat="44.98341" lon="4.30996">
        <ele>1059</ele>
        <time>2017-04-23T09:25:51.000Z</time>
      </trkpt>
      <trkpt lat="44.98332" lon="4.3099">
        <ele>1054</ele>
        <time>2017-04-23T09:26:09.000Z</time>
      </trkpt>
      <trkpt lat="44.98324" lon="4.30984">
        <ele>1054</ele>
        <time>2017-04-23T09:26:18.000Z</time>
      </trkpt>
      <trkpt lat="44.98316" lon="4.30977">
        <ele>1055</ele>
        <time>2017-04-23T09:26:30.000Z</time>
      </trkpt>
      <trkpt lat="44.98305" lon="4.30972">
        <ele>1057</ele>
        <time>2017-04-23T09:26:42.000Z</time>
      </trkpt>
      <trkpt lat="44.98296" lon="4.30971">
        <ele>1052</ele>
        <time>2017-04-23T09:26:59.000Z</time>
      </trkpt>
      <trkpt lat="44.98283" lon="4.30972">
        <ele>1047</ele>
        <time>2017-04-23T09:27:05.000Z</time>
      </trkpt>
      <trkpt lat="44.98273" lon="4.30971">
        <ele>1045</ele>
        <time>2017-04-23T09:27:11.000Z</time>
      </trkpt>
      <trkpt lat="44.98261" lon="4.30974">
        <ele>1048</ele>
        <time>2017-04-23T09:27:17.000Z</time>
      </trkpt>
      <trkpt lat="44.98251" lon="4.30977">
        <ele>1047</ele>
        <time>2017-04-23T09:27:23.000Z</time>
      </trkpt>
      <trkpt lat="44.9824" lon="4.30987">
        <ele>1045</ele>
        <time>2017-04-23T09:27:34.000Z</time>
      </trkpt>
      <trkpt lat="44.9823" lon="4.30997">
        <ele>1042</ele>
        <time>2017-04-23T09:27:46.000Z</time>
      </trkpt>
      <trkpt lat="44.98219" lon="4.30998">
        <ele>1030</ele>
        <time>2017-04-23T09:28:01.000Z</time>
      </trkpt>
      <trkpt lat="44.98212" lon="4.30986">
        <ele>1028</ele>
        <time>2017-04-23T09:28:11.000Z</time>
      </trkpt>
      <trkpt lat="44.98211" lon="4.30973">
        <ele>1030</ele>
        <time>2017-04-23T09:28:23.000Z</time>
      </trkpt>
      <trkpt lat="44.98212" lon="4.30958">
        <ele>1027</ele>
        <time>2017-04-23T09:28:36.000Z</time>
      </trkpt>
      <trkpt lat="44.98215" lon="4.30941">
        <ele>1026</ele>
        <time>2017-04-23T09:28:47.000Z</time>
      </trkpt>
      <trkpt lat="44.98222" lon="4.30927">
        <ele>1025</ele>
        <time>2017-04-23T09:29:00.000Z</time>
      </trkpt>
      <trkpt lat="44.98227" lon="4.30912">
        <ele>1021</ele>
        <time>2017-04-23T09:29:12.000Z</time>
      </trkpt>
      <trkpt lat="44.98234" lon="4.30903">
        <ele>1017</ele>
        <time>2017-04-23T09:29:17.000Z</time>
      </trkpt>
      <trkpt lat="44.98242" lon="4.3089">
        <ele>1009</ele>
        <time>2017-04-23T09:29:22.000Z</time>
      </trkpt>
      <trkpt lat="44.98247" lon="4.3087">
        <ele>1006</ele>
        <time>2017-04-23T09:29:41.000Z</time>
      </trkpt>
      <trkpt lat="44.98249" lon="4.30856">
        <ele>1003</ele>
        <time>2017-04-23T09:29:58.000Z</time>
      </trkpt>
      <trkpt lat="44.98252" lon="4.30845">
        <ele>1001</ele>
        <time>2017-04-23T09:30:13.000Z</time>
      </trkpt>
      <trkpt lat="44.98251" lon="4.30832">
        <ele>998</ele>
        <time>2017-04-23T09:30:29.000Z</time>
      </trkpt>
      <trkpt lat="44.98248" lon="4.30819">
        <ele>999</ele>
        <time>2017-04-23T09:30:40.000Z</time>
      </trkpt>
      <trkpt lat="44.98237" lon="4.30819">
        <ele>1001</ele>
        <time>2017-04-23T09:31:00.000Z</time>
      </trkpt>
      <trkpt lat="44.98228" lon="4.30823">
        <ele>1005</ele>
        <time>2017-04-23T09:31:16.000Z</time>
      </trkpt>
      <trkpt lat="44.98217" lon="4.30823">
        <ele>1009</ele>
        <time>2017-04-23T09:31:28.000Z</time>
      </trkpt>
      <trkpt lat="44.98206" lon="4.30839">
        <ele>1006</ele>
        <time>2017-04-23T09:31:52.000Z</time>
      </trkpt>
      <trkpt lat="44.98203" lon="4.30851">
        <ele>1000</ele>
        <time>2017-04-23T09:31:55.000Z</time>
      </trkpt>
      <trkpt lat="44.98193" lon="4.30859">
        <ele>1006</ele>
        <time>2017-04-23T09:32:14.000Z</time>
      </trkpt>
      <trkpt lat="44.98185" lon="4.30866">
        <ele>1010</ele>
        <time>2017-04-23T09:32:28.000Z</time>
      </trkpt>
      <trkpt lat="44.98181" lon="4.30886">
        <ele>982</ele>
        <time>2017-04-23T09:32:48.000Z</time>
      </trkpt>
      <trkpt lat="44.9817" lon="4.30889">
        <ele>1006</ele>
        <time>2017-04-23T09:33:09.000Z</time>
      </trkpt>
      <trkpt lat="44.98158" lon="4.30896">
        <ele>987</ele>
        <time>2017-04-23T09:33:19.000Z</time>
      </trkpt>
      <trkpt lat="44.98148" lon="4.30905">
        <ele>982</ele>
        <time>2017-04-23T09:33:50.000Z</time>
      </trkpt>
      <trkpt lat="44.98139" lon="4.30912">
        <ele>984</ele>
        <time>2017-04-23T09:33:58.000Z</time>
      </trkpt>
      <trkpt lat="44.98134" lon="4.30935">
        <ele>976</ele>
        <time>2017-04-23T09:34:18.000Z</time>
      </trkpt>
      <trkpt lat="44.98122" lon="4.30943">
        <ele>973</ele>
        <time>2017-04-23T09:34:32.000Z</time>
      </trkpt>
      <trkpt lat="44.98113" lon="4.30956">
        <ele>973</ele>
        <time>2017-04-23T09:34:43.000Z</time>
      </trkpt>
      <trkpt lat="44.98115" lon="4.30969">
        <ele>974</ele>
        <time>2017-04-23T09:34:48.000Z</time>
      </trkpt>
      <trkpt lat="44.98108" lon="4.30982">
        <ele>978</ele>
        <time>2017-04-23T09:35:03.000Z</time>
      </trkpt>
      <trkpt lat="44.98111" lon="4.30995">
        <ele>981</ele>
        <time>2017-04-23T09:35:19.000Z</time>
      </trkpt>
      <trkpt lat="44.98108" lon="4.31007">
        <ele>979</ele>
        <time>2017-04-23T09:35:39.000Z</time>
      </trkpt>
      <trkpt lat="44.98104" lon="4.3102">
        <ele>972</ele>
        <time>2017-04-23T09:35:50.000Z</time>
      </trkpt>
      <trkpt lat="44.981" lon="4.31033">
        <ele>969</ele>
        <time>2017-04-23T09:35:55.000Z</time>
      </trkpt>
      <trkpt lat="44.98089" lon="4.31045">
        <ele>975</ele>
        <time>2017-04-23T09:36:07.000Z</time>
      </trkpt>
      <trkpt lat="44.98078" lon="4.31058">
        <ele>979</ele>
        <time>2017-04-23T09:36:24.000Z</time>
      </trkpt>
      <trkpt lat="44.98067" lon="4.31068">
        <ele>973</ele>
        <time>2017-04-23T09:36:31.000Z</time>
      </trkpt>
      <trkpt lat="44.9806" lon="4.31077">
        <ele>967</ele>
        <time>2017-04-23T09:36:39.000Z</time>
      </trkpt>
      <trkpt lat="44.98058" lon="4.31091">
        <ele>968</ele>
        <time>2017-04-23T09:36:53.000Z</time>
      </trkpt>
      <trkpt lat="44.98055" lon="4.31105">
        <ele>969</ele>
        <time>2017-04-23T09:37:06.000Z</time>
      </trkpt>
      <trkpt lat="44.98046" lon="4.31113">
        <ele>970</ele>
        <time>2017-04-23T09:37:15.000Z</time>
      </trkpt>
      <trkpt lat="44.98036" lon="4.31119">
        <ele>969</ele>
        <time>2017-04-23T09:37:24.000Z</time>
      </trkpt>
      <trkpt lat="44.98029" lon="4.3113">
        <ele>960</ele>
        <time>2017-04-23T09:37:30.000Z</time>
      </trkpt>
      <trkpt lat="44.98023" lon="4.3114">
        <ele>956</ele>
        <time>2017-04-23T09:37:37.000Z</time>
      </trkpt>
      <trkpt lat="44.98014" lon="4.31149">
        <ele>946</ele>
        <time>2017-04-23T09:37:57.000Z</time>
      </trkpt>
      <trkpt lat="44.98003" lon="4.31144">
        <ele>942</ele>
        <time>2017-04-23T09:38:29.000Z</time>
      </trkpt>
      <trkpt lat="44.97994" lon="4.3115">
        <ele>949</ele>
        <time>2017-04-23T09:38:38.000Z</time>
      </trkpt>
      <trkpt lat="44.97984" lon="4.31161">
        <ele>950</ele>
        <time>2017-04-23T09:38:50.000Z</time>
      </trkpt>
      <trkpt lat="44.97973" lon="4.31168">
        <ele>961</ele>
        <time>2017-04-23T09:38:56.000Z</time>
      </trkpt>
      <trkpt lat="44.97963" lon="4.31169">
        <ele>962</ele>
        <time>2017-04-23T09:39:04.000Z</time>
      </trkpt>
      <trkpt lat="44.97961" lon="4.31185">
        <ele>966</ele>
        <time>2017-04-23T09:39:19.000Z</time>
      </trkpt>
      <trkpt lat="44.97957" lon="4.31197">
        <ele>971</ele>
        <time>2017-04-23T09:39:32.000Z</time>
      </trkpt>
      <trkpt lat="44.97948" lon="4.31207">
        <ele>972</ele>
        <time>2017-04-23T09:39:45.000Z</time>
      </trkpt>
      <trkpt lat="44.97939" lon="4.3121">
        <ele>973</ele>
        <time>2017-04-23T09:39:53.000Z</time>
      </trkpt>
      <trkpt lat="44.97931" lon="4.3122">
        <ele>968</ele>
        <time>2017-04-23T09:40:02.000Z</time>
      </trkpt>
      <trkpt lat="44.97922" lon="4.31219">
        <ele>962</ele>
        <time>2017-04-23T09:40:16.000Z</time>
      </trkpt>
      <trkpt lat="44.97911" lon="4.31218">
        <ele>960</ele>
        <time>2017-04-23T09:40:33.000Z</time>
      </trkpt>
      <trkpt lat="44.97902" lon="4.3121">
        <ele>958</ele>
        <time>2017-04-23T09:40:46.000Z</time>
      </trkpt>
      <trkpt lat="44.9789" lon="4.3121">
        <ele>961</ele>
        <time>2017-04-23T09:40:55.000Z</time>
      </trkpt>
      <trkpt lat="44.97881" lon="4.31207">
        <ele>960</ele>
        <time>2017-04-23T09:41:05.000Z</time>
      </trkpt>
      <trkpt lat="44.97868" lon="4.31202">
        <ele>959</ele>
        <time>2017-04-23T09:41:20.000Z</time>
      </trkpt>
      <trkpt lat="44.97859" lon="4.31197">
        <ele>958</ele>
        <time>2017-04-23T09:41:31.000Z</time>
      </trkpt>
      <trkpt lat="44.9785" lon="4.31194">
        <ele>961</ele>
        <time>2017-04-23T09:41:45.000Z</time>
      </trkpt>
      <trkpt lat="44.9784" lon="4.3119">
        <ele>962</ele>
        <time>2017-04-23T09:41:57.000Z</time>
      </trkpt>
      <trkpt lat="44.97829" lon="4.31185">
        <ele>964</ele>
        <time>2017-04-23T09:42:10.000Z</time>
      </trkpt>
      <trkpt lat="44.97819" lon="4.31181">
        <ele>968</ele>
        <time>2017-04-23T09:42:24.000Z</time>
      </trkpt>
      <trkpt lat="44.97806" lon="4.31178">
        <ele>975</ele>
        <time>2017-04-23T09:42:45.000Z</time>
      </trkpt>
      <trkpt lat="44.97797" lon="4.31176">
        <ele>978</ele>
        <time>2017-04-23T09:42:55.000Z</time>
      </trkpt>
      <trkpt lat="44.97788" lon="4.31175">
        <ele>983</ele>
        <time>2017-04-23T09:43:07.000Z</time>
      </trkpt>
      <trkpt lat="44.97776" lon="4.31172">
        <ele>986</ele>
        <time>2017-04-23T09:43:19.000Z</time>
      </trkpt>
      <trkpt lat="44.97767" lon="4.3117">
        <ele>988</ele>
        <time>2017-04-23T09:43:28.000Z</time>
      </trkpt>
      <trkpt lat="44.97755" lon="4.31168">
        <ele>989</ele>
        <time>2017-04-23T09:43:38.000Z</time>
      </trkpt>
      <trkpt lat="44.97747" lon="4.31162">
        <ele>989</ele>
        <time>2017-04-23T09:43:47.000Z</time>
      </trkpt>
      <trkpt lat="44.9774" lon="4.31151">
        <ele>994</ele>
        <time>2017-04-23T09:43:59.000Z</time>
      </trkpt>
      <trkpt lat="44.97729" lon="4.31141">
        <ele>996</ele>
        <time>2017-04-23T09:44:11.000Z</time>
      </trkpt>
      <trkpt lat="44.97724" lon="4.31123">
        <ele>991</ele>
        <time>2017-04-23T09:44:23.000Z</time>
      </trkpt>
      <trkpt lat="44.97715" lon="4.31121">
        <ele>994</ele>
        <time>2017-04-23T09:44:35.000Z</time>
      </trkpt>
      <trkpt lat="44.97705" lon="4.31117">
        <ele>997</ele>
        <time>2017-04-23T09:44:53.000Z</time>
      </trkpt>
      <trkpt lat="44.97696" lon="4.31117">
        <ele>1001</ele>
        <time>2017-04-23T09:45:05.000Z</time>
      </trkpt>
      <trkpt lat="44.97686" lon="4.31109">
        <ele>998</ele>
        <time>2017-04-23T09:45:20.000Z</time>
      </trkpt>
      <trkpt lat="44.97677" lon="4.31102">
        <ele>996</ele>
        <time>2017-04-23T09:51:10.000Z</time>
      </trkpt>
      <trkpt lat="44.97686" lon="4.31104">
        <ele>1010</ele>
        <time>2017-04-23T09:52:28.000Z</time>
      </trkpt>
      <trkpt lat="44.97697" lon="4.31104">
        <ele>1021</ele>
        <time>2017-04-23T09:52:49.000Z</time>
      </trkpt>
      <trkpt lat="44.97706" lon="4.31099">
        <ele>1019</ele>
        <time>2017-04-23T09:53:01.000Z</time>
      </trkpt>
      <trkpt lat="44.97716" lon="4.31094">
        <ele>1015</ele>
        <time>2017-04-23T09:53:11.000Z</time>
      </trkpt>
      <trkpt lat="44.97727" lon="4.31095">
        <ele>1016</ele>
        <time>2017-04-23T09:53:23.000Z</time>
      </trkpt>
      <trkpt lat="44.97736" lon="4.31091">
        <ele>1021</ele>
        <time>2017-04-23T09:53:35.000Z</time>
      </trkpt>
      <trkpt lat="44.97745" lon="4.31084">
        <ele>1022</ele>
        <time>2017-04-23T09:53:49.000Z</time>
      </trkpt>
      <trkpt lat="44.9777" lon="4.31095">
        <ele>1021</ele>
        <time>2017-04-23T09:54:30.000Z</time>
      </trkpt>
      <trkpt lat="44.97767" lon="4.31079">
        <ele>1023</ele>
        <time>2017-04-23T09:55:06.000Z</time>
      </trkpt>
      <trkpt lat="44.97763" lon="4.31065">
        <ele>1021</ele>
        <time>2017-04-23T09:55:18.000Z</time>
      </trkpt>
      <trkpt lat="44.97756" lon="4.31056">
        <ele>1030</ele>
        <time>2017-04-23T09:55:39.000Z</time>
      </trkpt>
      <trkpt lat="44.97749" lon="4.31049">
        <ele>1031</ele>
        <time>2017-04-23T09:56:52.000Z</time>
      </trkpt>
      <trkpt lat="44.97736" lon="4.31032">
        <ele>1024</ele>
        <time>2017-04-23T09:57:30.000Z</time>
      </trkpt>
      <trkpt lat="44.97726" lon="4.31025">
        <ele>1028</ele>
        <time>2017-04-23T09:57:45.000Z</time>
      </trkpt>
      <trkpt lat="44.97715" lon="4.31023">
        <ele>1032</ele>
        <time>2017-04-23T09:57:58.000Z</time>
      </trkpt>
      <trkpt lat="44.97706" lon="4.31017">
        <ele>1031</ele>
        <time>2017-04-23T09:58:11.000Z</time>
      </trkpt>
      <trkpt lat="44.97697" lon="4.3101">
        <ele>1034</ele>
        <time>2017-04-23T09:58:23.000Z</time>
      </trkpt>
      <trkpt lat="44.97685" lon="4.31007">
        <ele>1033</ele>
        <time>2017-04-23T09:58:36.000Z</time>
      </trkpt>
      <trkpt lat="44.97673" lon="4.31007">
        <ele>1032</ele>
        <time>2017-04-23T09:58:46.000Z</time>
      </trkpt>
      <trkpt lat="44.97663" lon="4.31004">
        <ele>1036</ele>
        <time>2017-04-23T09:58:59.000Z</time>
      </trkpt>
      <trkpt lat="44.97652" lon="4.31002">
        <ele>1038</ele>
        <time>2017-04-23T09:59:11.000Z</time>
      </trkpt>
      <trkpt lat="44.97642" lon="4.31">
        <ele>1038</ele>
        <time>2017-04-23T09:59:23.000Z</time>
      </trkpt>
      <trkpt lat="44.97633" lon="4.30999">
        <ele>1039</ele>
        <time>2017-04-23T09:59:32.000Z</time>
      </trkpt>
      <trkpt lat="44.97621" lon="4.30999">
        <ele>1039</ele>
        <time>2017-04-23T09:59:44.000Z</time>
      </trkpt>
      <trkpt lat="44.97612" lon="4.30999">
        <ele>1038</ele>
        <time>2017-04-23T09:59:53.000Z</time>
      </trkpt>
      <trkpt lat="44.97601" lon="4.31">
        <ele>1037</ele>
        <time>2017-04-23T10:00:03.000Z</time>
      </trkpt>
      <trkpt lat="44.97593" lon="4.30999">
        <ele>1037</ele>
        <time>2017-04-23T10:00:10.000Z</time>
      </trkpt>
      <trkpt lat="44.97581" lon="4.31">
        <ele>1035</ele>
        <time>2017-04-23T10:00:21.000Z</time>
      </trkpt>
      <trkpt lat="44.9757" lon="4.30999">
        <ele>1033</ele>
        <time>2017-04-23T10:00:31.000Z</time>
      </trkpt>
      <trkpt lat="44.97549" lon="4.3098">
        <ele>1036</ele>
        <time>2017-04-23T10:00:53.000Z</time>
      </trkpt>
      <trkpt lat="44.97544" lon="4.30967">
        <ele>1037</ele>
        <time>2017-04-23T10:01:04.000Z</time>
      </trkpt>
      <trkpt lat="44.97539" lon="4.30954">
        <ele>1038</ele>
        <time>2017-04-23T10:01:15.000Z</time>
      </trkpt>
      <trkpt lat="44.97535" lon="4.30941">
        <ele>1037</ele>
        <time>2017-04-23T10:01:24.000Z</time>
      </trkpt>
      <trkpt lat="44.97533" lon="4.30927">
        <ele>1036</ele>
        <time>2017-04-23T10:01:36.000Z</time>
      </trkpt>
      <trkpt lat="44.97532" lon="4.30913">
        <ele>1037</ele>
        <time>2017-04-23T10:01:54.000Z</time>
      </trkpt>
      <trkpt lat="44.97532" lon="4.30898">
        <ele>1033</ele>
        <time>2017-04-23T10:02:13.000Z</time>
      </trkpt>
      <trkpt lat="44.97533" lon="4.30885">
        <ele>1031</ele>
        <time>2017-04-23T10:02:34.000Z</time>
      </trkpt>
      <trkpt lat="44.97536" lon="4.30872">
        <ele>1030</ele>
        <time>2017-04-23T10:03:09.000Z</time>
      </trkpt>
      <trkpt lat="44.97536" lon="4.30857">
        <ele>1029</ele>
        <time>2017-04-23T10:03:25.000Z</time>
      </trkpt>
      <trkpt lat="44.97541" lon="4.30842">
        <ele>1029</ele>
        <time>2017-04-23T10:03:47.000Z</time>
      </trkpt>
      <trkpt lat="44.97545" lon="4.30829">
        <ele>1031</ele>
        <time>2017-04-23T10:04:17.000Z</time>
      </trkpt>
      <trkpt lat="44.97549" lon="4.30817">
        <ele>1031</ele>
        <time>2017-04-23T10:04:29.000Z</time>
      </trkpt>
      <trkpt lat="44.97553" lon="4.30805">
        <ele>1033</ele>
        <time>2017-04-23T10:04:49.000Z</time>
      </trkpt>
      <trkpt lat="44.97556" lon="4.3079">
        <ele>1033</ele>
        <time>2017-04-23T10:05:19.000Z</time>
      </trkpt>
      <trkpt lat="44.97562" lon="4.30778">
        <ele>1034</ele>
        <time>2017-04-23T10:05:35.000Z</time>
      </trkpt>
      <trkpt lat="44.97565" lon="4.30761">
        <ele>1036</ele>
        <time>2017-04-23T10:05:57.000Z</time>
      </trkpt>
      <trkpt lat="44.97566" lon="4.30747">
        <ele>1037</ele>
        <time>2017-04-23T10:06:06.000Z</time>
      </trkpt>
      <trkpt lat="44.97566" lon="4.30731">
        <ele>1038</ele>
        <time>2017-04-23T10:06:18.000Z</time>
      </trkpt>
      <trkpt lat="44.97569" lon="4.30717">
        <ele>1040</ele>
        <time>2017-04-23T10:06:37.000Z</time>
      </trkpt>
      <trkpt lat="44.97573" lon="4.30704">
        <ele>1044</ele>
        <time>2017-04-23T10:07:06.000Z</time>
      </trkpt>
      <trkpt lat="44.97577" lon="4.30689">
        <ele>1047</ele>
        <time>2017-04-23T10:07:21.000Z</time>
      </trkpt>
      <trkpt lat="44.97578" lon="4.30675">
        <ele>1048</ele>
        <time>2017-04-23T10:07:32.000Z</time>
      </trkpt>
      <trkpt lat="44.97576" lon="4.3066">
        <ele>1050</ele>
        <time>2017-04-23T10:07:46.000Z</time>
      </trkpt>
      <trkpt lat="44.97572" lon="4.30645">
        <ele>1048</ele>
        <time>2017-04-23T10:07:56.000Z</time>
      </trkpt>
      <trkpt lat="44.97572" lon="4.30628">
        <ele>1048</ele>
        <time>2017-04-23T10:08:08.000Z</time>
      </trkpt>
      <trkpt lat="44.9757" lon="4.30614">
        <ele>1049</ele>
        <time>2017-04-23T10:08:20.000Z</time>
      </trkpt>
      <trkpt lat="44.97568" lon="4.306">
        <ele>1050</ele>
        <time>2017-04-23T10:08:30.000Z</time>
      </trkpt>
      <trkpt lat="44.97566" lon="4.30587">
        <ele>1051</ele>
        <time>2017-04-23T10:08:39.000Z</time>
      </trkpt>
      <trkpt lat="44.9756" lon="4.30575">
        <ele>1050</ele>
        <time>2017-04-23T10:08:52.000Z</time>
      </trkpt>
      <trkpt lat="44.97549" lon="4.30563">
        <ele>1049</ele>
        <time>2017-04-23T10:09:05.000Z</time>
      </trkpt>
      <trkpt lat="44.97542" lon="4.30555">
        <ele>1050</ele>
        <time>2017-04-23T10:09:17.000Z</time>
      </trkpt>
      <trkpt lat="44.97535" lon="4.30545">
        <ele>1053</ele>
        <time>2017-04-23T10:09:29.000Z</time>
      </trkpt>
      <trkpt lat="44.97531" lon="4.30532">
        <ele>1053</ele>
        <time>2017-04-23T10:09:37.000Z</time>
      </trkpt>
      <trkpt lat="44.97527" lon="4.30518">
        <ele>1052</ele>
        <time>2017-04-23T10:09:44.000Z</time>
      </trkpt>
      <trkpt lat="44.97521" lon="4.305">
        <ele>1052</ele>
        <time>2017-04-23T10:09:57.000Z</time>
      </trkpt>
      <trkpt lat="44.97518" lon="4.30488">
        <ele>1051</ele>
        <time>2017-04-23T10:10:05.000Z</time>
      </trkpt>
      <trkpt lat="44.97518" lon="4.30475">
        <ele>1051</ele>
        <time>2017-04-23T10:10:14.000Z</time>
      </trkpt>
      <trkpt lat="44.97516" lon="4.30463">
        <ele>1053</ele>
        <time>2017-04-23T10:10:29.000Z</time>
      </trkpt>
      <trkpt lat="44.97511" lon="4.30453">
        <ele>1057</ele>
        <time>2017-04-23T10:10:44.000Z</time>
      </trkpt>
      <trkpt lat="44.97516" lon="4.30441">
        <ele>1055</ele>
        <time>2017-04-23T10:11:08.000Z</time>
      </trkpt>
      <trkpt lat="44.97527" lon="4.30445">
        <ele>1058</ele>
        <time>2017-04-23T10:11:28.000Z</time>
      </trkpt>
      <trkpt lat="44.97536" lon="4.30449">
        <ele>1063</ele>
        <time>2017-04-23T10:11:59.000Z</time>
      </trkpt>
      <trkpt lat="44.97551" lon="4.30459">
        <ele>1073</ele>
        <time>2017-04-23T10:12:25.000Z</time>
      </trkpt>
      <trkpt lat="44.97556" lon="4.30474">
        <ele>1083</ele>
        <time>2017-04-23T10:12:45.000Z</time>
      </trkpt>
      <trkpt lat="44.97562" lon="4.30486">
        <ele>1082</ele>
        <time>2017-04-23T10:13:01.000Z</time>
      </trkpt>
      <trkpt lat="44.97571" lon="4.30493">
        <ele>1086</ele>
        <time>2017-04-23T10:13:16.000Z</time>
      </trkpt>
      <trkpt lat="44.97579" lon="4.30499">
        <ele>1076</ele>
        <time>2017-04-23T10:13:41.000Z</time>
      </trkpt>
      <trkpt lat="44.97586" lon="4.3051">
        <ele>1071</ele>
        <time>2017-04-23T10:56:48.000Z</time>
      </trkpt>
      <trkpt lat="44.97592" lon="4.30518">
        <ele>1075</ele>
        <time>2017-04-23T10:59:59.000Z</time>
      </trkpt>
      <trkpt lat="44.97599" lon="4.30526">
        <ele>1075</ele>
        <time>2017-04-23T11:00:18.000Z</time>
      </trkpt>
      <trkpt lat="44.97609" lon="4.30527">
        <ele>1075</ele>
        <time>2017-04-23T11:00:39.000Z</time>
      </trkpt>
      <trkpt lat="44.97617" lon="4.3052">
        <ele>1081</ele>
        <time>2017-04-23T11:01:04.000Z</time>
      </trkpt>
      <trkpt lat="44.97616" lon="4.30507">
        <ele>1084</ele>
        <time>2017-04-23T11:01:14.000Z</time>
      </trkpt>
      <trkpt lat="44.97612" lon="4.30493">
        <ele>1085</ele>
        <time>2017-04-23T11:01:24.000Z</time>
      </trkpt>
      <trkpt lat="44.97609" lon="4.30478">
        <ele>1084</ele>
        <time>2017-04-23T11:01:35.000Z</time>
      </trkpt>
      <trkpt lat="44.97604" lon="4.30464">
        <ele>1085</ele>
        <time>2017-04-23T11:01:45.000Z</time>
      </trkpt>
      <trkpt lat="44.97599" lon="4.30451">
        <ele>1087</ele>
        <time>2017-04-23T11:01:55.000Z</time>
      </trkpt>
      <trkpt lat="44.97595" lon="4.30435">
        <ele>1087</ele>
        <time>2017-04-23T11:02:06.000Z</time>
      </trkpt>
      <trkpt lat="44.97591" lon="4.30422">
        <ele>1089</ele>
        <time>2017-04-23T11:02:15.000Z</time>
      </trkpt>
      <trkpt lat="44.97586" lon="4.30406">
        <ele>1090</ele>
        <time>2017-04-23T11:02:26.000Z</time>
      </trkpt>
      <trkpt lat="44.97582" lon="4.30386">
        <ele>1092</ele>
        <time>2017-04-23T11:02:41.000Z</time>
      </trkpt>
      <trkpt lat="44.97581" lon="4.30371">
        <ele>1094</ele>
        <time>2017-04-23T11:02:52.000Z</time>
      </trkpt>
      <trkpt lat="44.97583" lon="4.30356">
        <ele>1095</ele>
        <time>2017-04-23T11:03:03.000Z</time>
      </trkpt>
      <trkpt lat="44.97588" lon="4.30331">
        <ele>1096</ele>
        <time>2017-04-23T11:03:21.000Z</time>
      </trkpt>
      <trkpt lat="44.97593" lon="4.30319">
        <ele>1097</ele>
        <time>2017-04-23T11:03:31.000Z</time>
      </trkpt>
      <trkpt lat="44.97598" lon="4.30307">
        <ele>1097</ele>
        <time>2017-04-23T11:03:41.000Z</time>
      </trkpt>
      <trkpt lat="44.97604" lon="4.30295">
        <ele>1098</ele>
        <time>2017-04-23T11:03:51.000Z</time>
      </trkpt>
      <trkpt lat="44.97609" lon="4.30284">
        <ele>1100</ele>
        <time>2017-04-23T11:04:02.000Z</time>
      </trkpt>
      <trkpt lat="44.97616" lon="4.3027">
        <ele>1102</ele>
        <time>2017-04-23T11:04:21.000Z</time>
      </trkpt>
      <trkpt lat="44.97621" lon="4.30258">
        <ele>1102</ele>
        <time>2017-04-23T11:04:31.000Z</time>
      </trkpt>
      <trkpt lat="44.97625" lon="4.30247">
        <ele>1103</ele>
        <time>2017-04-23T11:04:42.000Z</time>
      </trkpt>
      <trkpt lat="44.97631" lon="4.30235">
        <ele>1104</ele>
        <time>2017-04-23T11:04:52.000Z</time>
      </trkpt>
      <trkpt lat="44.97635" lon="4.30223">
        <ele>1107</ele>
        <time>2017-04-23T11:05:02.000Z</time>
      </trkpt>
      <trkpt lat="44.9764" lon="4.30211">
        <ele>1106</ele>
        <time>2017-04-23T11:05:22.000Z</time>
      </trkpt>
      <trkpt lat="44.97646" lon="4.302">
        <ele>1106</ele>
        <time>2017-04-23T11:05:50.000Z</time>
      </trkpt>
      <trkpt lat="44.97652" lon="4.30188">
        <ele>1105</ele>
        <time>2017-04-23T11:06:00.000Z</time>
      </trkpt>
      <trkpt lat="44.97659" lon="4.30179">
        <ele>1106</ele>
        <time>2017-04-23T11:06:07.000Z</time>
      </trkpt>
      <trkpt lat="44.97666" lon="4.30171">
        <ele>1110</ele>
        <time>2017-04-23T11:06:15.000Z</time>
      </trkpt>
      <trkpt lat="44.97673" lon="4.30161">
        <ele>1109</ele>
        <time>2017-04-23T11:06:25.000Z</time>
      </trkpt>
      <trkpt lat="44.97681" lon="4.30152">
        <ele>1111</ele>
        <time>2017-04-23T11:06:35.000Z</time>
      </trkpt>
      <trkpt lat="44.97688" lon="4.30143">
        <ele>1113</ele>
        <time>2017-04-23T11:06:43.000Z</time>
      </trkpt>
      <trkpt lat="44.97694" lon="4.30133">
        <ele>1113</ele>
        <time>2017-04-23T11:06:52.000Z</time>
      </trkpt>
      <trkpt lat="44.97699" lon="4.30122">
        <ele>1114</ele>
        <time>2017-04-23T11:07:03.000Z</time>
      </trkpt>
      <trkpt lat="44.97712" lon="4.30087">
        <ele>1113</ele>
        <time>2017-04-23T11:07:37.000Z</time>
      </trkpt>
      <trkpt lat="44.97715" lon="4.30045">
        <ele>1115</ele>
        <time>2017-04-23T11:08:02.000Z</time>
      </trkpt>
      <trkpt lat="44.97717" lon="4.3003">
        <ele>1115</ele>
        <time>2017-04-23T11:08:11.000Z</time>
      </trkpt>
      <trkpt lat="44.97722" lon="4.30014">
        <ele>1116</ele>
        <time>2017-04-23T11:08:21.000Z</time>
      </trkpt>
      <trkpt lat="44.97727" lon="4.29998">
        <ele>1115</ele>
        <time>2017-04-23T11:08:31.000Z</time>
      </trkpt>
      <trkpt lat="44.97732" lon="4.29983">
        <ele>1115</ele>
        <time>2017-04-23T11:08:40.000Z</time>
      </trkpt>
      <trkpt lat="44.97739" lon="4.29955">
        <ele>1116</ele>
        <time>2017-04-23T11:08:58.000Z</time>
      </trkpt>
      <trkpt lat="44.97743" lon="4.29942">
        <ele>1116</ele>
        <time>2017-04-23T11:09:06.000Z</time>
      </trkpt>
      <trkpt lat="44.97752" lon="4.29899">
        <ele>1117</ele>
        <time>2017-04-23T11:09:33.000Z</time>
      </trkpt>
      <trkpt lat="44.97755" lon="4.29884">
        <ele>1117</ele>
        <time>2017-04-23T11:09:43.000Z</time>
      </trkpt>
      <trkpt lat="44.97757" lon="4.29871">
        <ele>1119</ele>
        <time>2017-04-23T11:09:51.000Z</time>
      </trkpt>
      <trkpt lat="44.9776" lon="4.29857">
        <ele>1119</ele>
        <time>2017-04-23T11:09:59.000Z</time>
      </trkpt>
      <trkpt lat="44.97763" lon="4.29841">
        <ele>1119</ele>
        <time>2017-04-23T11:10:11.000Z</time>
      </trkpt>
      <trkpt lat="44.97765" lon="4.29825">
        <ele>1120</ele>
        <time>2017-04-23T11:10:21.000Z</time>
      </trkpt>
      <trkpt lat="44.97768" lon="4.29812">
        <ele>1121</ele>
        <time>2017-04-23T11:10:30.000Z</time>
      </trkpt>
      <trkpt lat="44.97776" lon="4.29779">
        <ele>1124</ele>
        <time>2017-04-23T11:10:55.000Z</time>
      </trkpt>
      <trkpt lat="44.97781" lon="4.29767">
        <ele>1125</ele>
        <time>2017-04-23T11:11:04.000Z</time>
      </trkpt>
      <trkpt lat="44.97786" lon="4.29755">
        <ele>1126</ele>
        <time>2017-04-23T11:11:14.000Z</time>
      </trkpt>
      <trkpt lat="44.97793" lon="4.29744">
        <ele>1127</ele>
        <time>2017-04-23T11:11:24.000Z</time>
      </trkpt>
      <trkpt lat="44.97802" lon="4.29738">
        <ele>1130</ele>
        <time>2017-04-23T11:11:35.000Z</time>
      </trkpt>
      <trkpt lat="44.97813" lon="4.29734">
        <ele>1131</ele>
        <time>2017-04-23T11:11:47.000Z</time>
      </trkpt>
      <trkpt lat="44.97824" lon="4.29729">
        <ele>1132</ele>
        <time>2017-04-23T11:11:58.000Z</time>
      </trkpt>
      <trkpt lat="44.97833" lon="4.2972">
        <ele>1133</ele>
        <time>2017-04-23T11:12:09.000Z</time>
      </trkpt>
      <trkpt lat="44.97841" lon="4.29711">
        <ele>1134</ele>
        <time>2017-04-23T11:12:18.000Z</time>
      </trkpt>
      <trkpt lat="44.9785" lon="4.297">
        <ele>1135</ele>
        <time>2017-04-23T11:12:28.000Z</time>
      </trkpt>
      <trkpt lat="44.97856" lon="4.29691">
        <ele>1135</ele>
        <time>2017-04-23T11:12:37.000Z</time>
      </trkpt>
      <trkpt lat="44.97863" lon="4.29679">
        <ele>1136</ele>
        <time>2017-04-23T11:12:49.000Z</time>
      </trkpt>
      <trkpt lat="44.97866" lon="4.29667">
        <ele>1136</ele>
        <time>2017-04-23T11:12:59.000Z</time>
      </trkpt>
      <trkpt lat="44.97871" lon="4.29654">
        <ele>1137</ele>
        <time>2017-04-23T11:13:08.000Z</time>
      </trkpt>
      <trkpt lat="44.97879" lon="4.29617">
        <ele>1140</ele>
        <time>2017-04-23T11:13:33.000Z</time>
      </trkpt>
      <trkpt lat="44.97883" lon="4.29604">
        <ele>1140</ele>
        <time>2017-04-23T11:13:42.000Z</time>
      </trkpt>
      <trkpt lat="44.97885" lon="4.29592">
        <ele>1140</ele>
        <time>2017-04-23T11:13:50.000Z</time>
      </trkpt>
      <trkpt lat="44.97889" lon="4.29575">
        <ele>1140</ele>
        <time>2017-04-23T11:14:01.000Z</time>
      </trkpt>
      <trkpt lat="44.97892" lon="4.29562">
        <ele>1140</ele>
        <time>2017-04-23T11:14:10.000Z</time>
      </trkpt>
      <trkpt lat="44.97894" lon="4.29547">
        <ele>1139</ele>
        <time>2017-04-23T11:14:19.000Z</time>
      </trkpt>
      <trkpt lat="44.97898" lon="4.29523">
        <ele>1140</ele>
        <time>2017-04-23T11:14:35.000Z</time>
      </trkpt>
      <trkpt lat="44.979" lon="4.2951">
        <ele>1142</ele>
        <time>2017-04-23T11:14:44.000Z</time>
      </trkpt>
      <trkpt lat="44.97902" lon="4.29496">
        <ele>1143</ele>
        <time>2017-04-23T11:14:53.000Z</time>
      </trkpt>
      <trkpt lat="44.97904" lon="4.29482">
        <ele>1143</ele>
        <time>2017-04-23T11:15:02.000Z</time>
      </trkpt>
      <trkpt lat="44.97905" lon="4.29468">
        <ele>1142</ele>
        <time>2017-04-23T11:15:11.000Z</time>
      </trkpt>
      <trkpt lat="44.97906" lon="4.29452">
        <ele>1143</ele>
        <time>2017-04-23T11:15:22.000Z</time>
      </trkpt>
      <trkpt lat="44.97907" lon="4.29435">
        <ele>1144</ele>
        <time>2017-04-23T11:15:33.000Z</time>
      </trkpt>
      <trkpt lat="44.97908" lon="4.2942">
        <ele>1144</ele>
        <time>2017-04-23T11:15:44.000Z</time>
      </trkpt>
      <trkpt lat="44.97909" lon="4.29407">
        <ele>1145</ele>
        <time>2017-04-23T11:15:53.000Z</time>
      </trkpt>
      <trkpt lat="44.97911" lon="4.29392">
        <ele>1145</ele>
        <time>2017-04-23T11:16:05.000Z</time>
      </trkpt>
      <trkpt lat="44.9791" lon="4.29377">
        <ele>1146</ele>
        <time>2017-04-23T11:16:15.000Z</time>
      </trkpt>
      <trkpt lat="44.97912" lon="4.29364">
        <ele>1147</ele>
        <time>2017-04-23T11:16:24.000Z</time>
      </trkpt>
      <trkpt lat="44.97913" lon="4.29349">
        <ele>1147</ele>
        <time>2017-04-23T11:16:33.000Z</time>
      </trkpt>
      <trkpt lat="44.97914" lon="4.29328">
        <ele>1147</ele>
        <time>2017-04-23T11:16:46.000Z</time>
      </trkpt>
      <trkpt lat="44.97915" lon="4.29315">
        <ele>1146</ele>
        <time>2017-04-23T11:16:54.000Z</time>
      </trkpt>
      <trkpt lat="44.97916" lon="4.293">
        <ele>1146</ele>
        <time>2017-04-23T11:17:05.000Z</time>
      </trkpt>
      <trkpt lat="44.97918" lon="4.29286">
        <ele>1146</ele>
        <time>2017-04-23T11:17:14.000Z</time>
      </trkpt>
      <trkpt lat="44.97921" lon="4.29272">
        <ele>1147</ele>
        <time>2017-04-23T11:17:23.000Z</time>
      </trkpt>
      <trkpt lat="44.97923" lon="4.29259">
        <ele>1147</ele>
        <time>2017-04-23T11:17:32.000Z</time>
      </trkpt>
      <trkpt lat="44.97925" lon="4.29245">
        <ele>1146</ele>
        <time>2017-04-23T11:17:42.000Z</time>
      </trkpt>
      <trkpt lat="44.97929" lon="4.29231">
        <ele>1147</ele>
        <time>2017-04-23T11:17:52.000Z</time>
      </trkpt>
      <trkpt lat="44.97933" lon="4.29217">
        <ele>1147</ele>
        <time>2017-04-23T11:18:01.000Z</time>
      </trkpt>
      <trkpt lat="44.97937" lon="4.29204">
        <ele>1147</ele>
        <time>2017-04-23T11:18:10.000Z</time>
      </trkpt>
      <trkpt lat="44.97942" lon="4.29188">
        <ele>1147</ele>
        <time>2017-04-23T11:18:20.000Z</time>
      </trkpt>
      <trkpt lat="44.97945" lon="4.29176">
        <ele>1147</ele>
        <time>2017-04-23T11:18:28.000Z</time>
      </trkpt>
      <trkpt lat="44.97952" lon="4.29157">
        <ele>1147</ele>
        <time>2017-04-23T11:18:40.000Z</time>
      </trkpt>
      <trkpt lat="44.97955" lon="4.29144">
        <ele>1147</ele>
        <time>2017-04-23T11:18:49.000Z</time>
      </trkpt>
      <trkpt lat="44.97959" lon="4.2913">
        <ele>1147</ele>
        <time>2017-04-23T11:18:58.000Z</time>
      </trkpt>
      <trkpt lat="44.97962" lon="4.29116">
        <ele>1148</ele>
        <time>2017-04-23T11:19:07.000Z</time>
      </trkpt>
      <trkpt lat="44.97964" lon="4.29103">
        <ele>1149</ele>
        <time>2017-04-23T11:19:16.000Z</time>
      </trkpt>
      <trkpt lat="44.97965" lon="4.29088">
        <ele>1148</ele>
        <time>2017-04-23T11:19:25.000Z</time>
      </trkpt>
      <trkpt lat="44.97968" lon="4.29074">
        <ele>1148</ele>
        <time>2017-04-23T11:19:34.000Z</time>
      </trkpt>
      <trkpt lat="44.9797" lon="4.2906">
        <ele>1149</ele>
        <time>2017-04-23T11:19:43.000Z</time>
      </trkpt>
      <trkpt lat="44.97972" lon="4.29047">
        <ele>1149</ele>
        <time>2017-04-23T11:19:51.000Z</time>
      </trkpt>
      <trkpt lat="44.97974" lon="4.29032">
        <ele>1150</ele>
        <time>2017-04-23T11:20:00.000Z</time>
      </trkpt>
      <trkpt lat="44.97976" lon="4.29014">
        <ele>1150</ele>
        <time>2017-04-23T11:20:12.000Z</time>
      </trkpt>
      <trkpt lat="44.97977" lon="4.28998">
        <ele>1150</ele>
        <time>2017-04-23T11:20:22.000Z</time>
      </trkpt>
      <trkpt lat="44.97979" lon="4.28978">
        <ele>1152</ele>
        <time>2017-04-23T11:20:34.000Z</time>
      </trkpt>
      <trkpt lat="44.9798" lon="4.28963">
        <ele>1152</ele>
        <time>2017-04-23T11:20:43.000Z</time>
      </trkpt>
      <trkpt lat="44.97981" lon="4.2895">
        <ele>1152</ele>
        <time>2017-04-23T11:20:51.000Z</time>
      </trkpt>
      <trkpt lat="44.97982" lon="4.28935">
        <ele>1152</ele>
        <time>2017-04-23T11:21:00.000Z</time>
      </trkpt>
      <trkpt lat="44.97983" lon="4.28921">
        <ele>1152</ele>
        <time>2017-04-23T11:21:09.000Z</time>
      </trkpt>
      <trkpt lat="44.97984" lon="4.28906">
        <ele>1153</ele>
        <time>2017-04-23T11:21:18.000Z</time>
      </trkpt>
      <trkpt lat="44.97983" lon="4.28891">
        <ele>1152</ele>
        <time>2017-04-23T11:21:27.000Z</time>
      </trkpt>
      <trkpt lat="44.97984" lon="4.28877">
        <ele>1153</ele>
        <time>2017-04-23T11:21:36.000Z</time>
      </trkpt>
      <trkpt lat="44.97985" lon="4.28862">
        <ele>1154</ele>
        <time>2017-04-23T11:21:45.000Z</time>
      </trkpt>
      <trkpt lat="44.97986" lon="4.28846">
        <ele>1154</ele>
        <time>2017-04-23T11:21:55.000Z</time>
      </trkpt>
      <trkpt lat="44.9799" lon="4.28829">
        <ele>1155</ele>
        <time>2017-04-23T11:22:06.000Z</time>
      </trkpt>
      <trkpt lat="44.97994" lon="4.28816">
        <ele>1157</ele>
        <time>2017-04-23T11:22:17.000Z</time>
      </trkpt>
      <trkpt lat="44.98" lon="4.28805">
        <ele>1159</ele>
        <time>2017-04-23T11:22:27.000Z</time>
      </trkpt>
      <trkpt lat="44.98005" lon="4.28794">
        <ele>1160</ele>
        <time>2017-04-23T11:22:35.000Z</time>
      </trkpt>
      <trkpt lat="44.98013" lon="4.28783">
        <ele>1160</ele>
        <time>2017-04-23T11:22:45.000Z</time>
      </trkpt>
      <trkpt lat="44.9802" lon="4.28769">
        <ele>1161</ele>
        <time>2017-04-23T11:22:56.000Z</time>
      </trkpt>
      <trkpt lat="44.98032" lon="4.28744">
        <ele>1162</ele>
        <time>2017-04-23T11:23:17.000Z</time>
      </trkpt>
      <trkpt lat="44.9804" lon="4.28729">
        <ele>1164</ele>
        <time>2017-04-23T11:23:29.000Z</time>
      </trkpt>
      <trkpt lat="44.98046" lon="4.28719">
        <ele>1165</ele>
        <time>2017-04-23T11:23:38.000Z</time>
      </trkpt>
      <trkpt lat="44.98058" lon="4.28688">
        <ele>1166</ele>
        <time>2017-04-23T11:24:02.000Z</time>
      </trkpt>
      <trkpt lat="44.98063" lon="4.28677">
        <ele>1166</ele>
        <time>2017-04-23T11:24:11.000Z</time>
      </trkpt>
      <trkpt lat="44.98068" lon="4.28665">
        <ele>1167</ele>
        <time>2017-04-23T11:24:20.000Z</time>
      </trkpt>
      <trkpt lat="44.98073" lon="4.28652">
        <ele>1169</ele>
        <time>2017-04-23T11:24:30.000Z</time>
      </trkpt>
      <trkpt lat="44.98075" lon="4.28637">
        <ele>1169</ele>
        <time>2017-04-23T11:24:40.000Z</time>
      </trkpt>
      <trkpt lat="44.98078" lon="4.2861">
        <ele>1171</ele>
        <time>2017-04-23T11:25:02.000Z</time>
      </trkpt>
      <trkpt lat="44.9808" lon="4.28597">
        <ele>1172</ele>
        <time>2017-04-23T11:25:11.000Z</time>
      </trkpt>
      <trkpt lat="44.98082" lon="4.28584">
        <ele>1171</ele>
        <time>2017-04-23T11:25:20.000Z</time>
      </trkpt>
      <trkpt lat="44.98086" lon="4.28569">
        <ele>1172</ele>
        <time>2017-04-23T11:25:31.000Z</time>
      </trkpt>
      <trkpt lat="44.98089" lon="4.28555">
        <ele>1174</ele>
        <time>2017-04-23T11:25:41.000Z</time>
      </trkpt>
      <trkpt lat="44.9809" lon="4.28541">
        <ele>1174</ele>
        <time>2017-04-23T11:25:50.000Z</time>
      </trkpt>
      <trkpt lat="44.98093" lon="4.28529">
        <ele>1175</ele>
        <time>2017-04-23T11:25:59.000Z</time>
      </trkpt>
      <trkpt lat="44.98095" lon="4.28514">
        <ele>1175</ele>
        <time>2017-04-23T11:26:09.000Z</time>
      </trkpt>
      <trkpt lat="44.98096" lon="4.28501">
        <ele>1175</ele>
        <time>2017-04-23T11:26:18.000Z</time>
      </trkpt>
      <trkpt lat="44.98098" lon="4.28489">
        <ele>1176</ele>
        <time>2017-04-23T11:26:27.000Z</time>
      </trkpt>
      <trkpt lat="44.98101" lon="4.28476">
        <ele>1177</ele>
        <time>2017-04-23T11:26:36.000Z</time>
      </trkpt>
      <trkpt lat="44.98104" lon="4.28462">
        <ele>1178</ele>
        <time>2017-04-23T11:26:45.000Z</time>
      </trkpt>
      <trkpt lat="44.98107" lon="4.28447">
        <ele>1178</ele>
        <time>2017-04-23T11:26:56.000Z</time>
      </trkpt>
      <trkpt lat="44.98108" lon="4.28432">
        <ele>1181</ele>
        <time>2017-04-23T11:27:08.000Z</time>
      </trkpt>
      <trkpt lat="44.98109" lon="4.28418">
        <ele>1181</ele>
        <time>2017-04-23T11:27:18.000Z</time>
      </trkpt>
      <trkpt lat="44.9811" lon="4.28403">
        <ele>1179</ele>
        <time>2017-04-23T11:27:27.000Z</time>
      </trkpt>
      <trkpt lat="44.98113" lon="4.28387">
        <ele>1179</ele>
        <time>2017-04-23T11:27:38.000Z</time>
      </trkpt>
      <trkpt lat="44.98115" lon="4.28371">
        <ele>1180</ele>
        <time>2017-04-23T11:27:48.000Z</time>
      </trkpt>
      <trkpt lat="44.9812" lon="4.28359">
        <ele>1180</ele>
        <time>2017-04-23T11:27:57.000Z</time>
      </trkpt>
      <trkpt lat="44.98126" lon="4.28344">
        <ele>1180</ele>
        <time>2017-04-23T11:28:08.000Z</time>
      </trkpt>
      <trkpt lat="44.98129" lon="4.28331">
        <ele>1180</ele>
        <time>2017-04-23T11:28:17.000Z</time>
      </trkpt>
      <trkpt lat="44.98134" lon="4.28315">
        <ele>1179</ele>
        <time>2017-04-23T11:28:29.000Z</time>
      </trkpt>
      <trkpt lat="44.98139" lon="4.28304">
        <ele>1180</ele>
        <time>2017-04-23T11:28:37.000Z</time>
      </trkpt>
      <trkpt lat="44.98148" lon="4.28286">
        <ele>1178</ele>
        <time>2017-04-23T11:28:49.000Z</time>
      </trkpt>
      <trkpt lat="44.98153" lon="4.28274">
        <ele>1179</ele>
        <time>2017-04-23T11:28:57.000Z</time>
      </trkpt>
      <trkpt lat="44.98159" lon="4.28262">
        <ele>1179</ele>
        <time>2017-04-23T11:29:04.000Z</time>
      </trkpt>
      <trkpt lat="44.98164" lon="4.28248">
        <ele>1178</ele>
        <time>2017-04-23T11:29:14.000Z</time>
      </trkpt>
      <trkpt lat="44.98178" lon="4.28219">
        <ele>1178</ele>
        <time>2017-04-23T11:29:33.000Z</time>
      </trkpt>
      <trkpt lat="44.98185" lon="4.28208">
        <ele>1177</ele>
        <time>2017-04-23T11:29:42.000Z</time>
      </trkpt>
      <trkpt lat="44.98189" lon="4.28196">
        <ele>1178</ele>
        <time>2017-04-23T11:29:51.000Z</time>
      </trkpt>
      <trkpt lat="44.98196" lon="4.28182">
        <ele>1178</ele>
        <time>2017-04-23T11:30:02.000Z</time>
      </trkpt>
      <trkpt lat="44.98203" lon="4.28169">
        <ele>1178</ele>
        <time>2017-04-23T11:30:11.000Z</time>
      </trkpt>
      <trkpt lat="44.98209" lon="4.28156">
        <ele>1178</ele>
        <time>2017-04-23T11:30:23.000Z</time>
      </trkpt>
      <trkpt lat="44.98215" lon="4.28145">
        <ele>1178</ele>
        <time>2017-04-23T11:30:32.000Z</time>
      </trkpt>
      <trkpt lat="44.98222" lon="4.28134">
        <ele>1179</ele>
        <time>2017-04-23T11:30:40.000Z</time>
      </trkpt>
      <trkpt lat="44.9823" lon="4.28126">
        <ele>1180</ele>
        <time>2017-04-23T11:30:48.000Z</time>
      </trkpt>
      <trkpt lat="44.98239" lon="4.28117">
        <ele>1181</ele>
        <time>2017-04-23T11:30:57.000Z</time>
      </trkpt>
      <trkpt lat="44.98245" lon="4.28103">
        <ele>1181</ele>
        <time>2017-04-23T11:31:08.000Z</time>
      </trkpt>
      <trkpt lat="44.9825" lon="4.2809">
        <ele>1181</ele>
        <time>2017-04-23T11:31:19.000Z</time>
      </trkpt>
      <trkpt lat="44.98256" lon="4.28077">
        <ele>1181</ele>
        <time>2017-04-23T11:31:29.000Z</time>
      </trkpt>
      <trkpt lat="44.98262" lon="4.28066">
        <ele>1181</ele>
        <time>2017-04-23T11:31:37.000Z</time>
      </trkpt>
      <trkpt lat="44.98268" lon="4.28055">
        <ele>1181</ele>
        <time>2017-04-23T11:31:46.000Z</time>
      </trkpt>
      <trkpt lat="44.98273" lon="4.28043">
        <ele>1181</ele>
        <time>2017-04-23T11:31:55.000Z</time>
      </trkpt>
      <trkpt lat="44.98277" lon="4.28027">
        <ele>1182</ele>
        <time>2017-04-23T11:32:07.000Z</time>
      </trkpt>
      <trkpt lat="44.98278" lon="4.28011">
        <ele>1186</ele>
        <time>2017-04-23T11:32:19.000Z</time>
      </trkpt>
      <trkpt lat="44.98279" lon="4.27991">
        <ele>1188</ele>
        <time>2017-04-23T11:32:31.000Z</time>
      </trkpt>
      <trkpt lat="44.98281" lon="4.27977">
        <ele>1188</ele>
        <time>2017-04-23T11:32:46.000Z</time>
      </trkpt>
      <trkpt lat="44.98281" lon="4.27964">
        <ele>1188</ele>
        <time>2017-04-23T11:33:45.000Z</time>
      </trkpt>
      <trkpt lat="44.9829" lon="4.2796">
        <ele>1187</ele>
        <time>2017-04-23T11:34:56.000Z</time>
      </trkpt>
      <trkpt lat="44.98296" lon="4.27948">
        <ele>1187</ele>
        <time>2017-04-23T11:35:19.000Z</time>
      </trkpt>
      <trkpt lat="44.98297" lon="4.27927">
        <ele>1188</ele>
        <time>2017-04-23T11:35:39.000Z</time>
      </trkpt>
      <trkpt lat="44.98298" lon="4.27912">
        <ele>1188</ele>
        <time>2017-04-23T11:35:49.000Z</time>
      </trkpt>
      <trkpt lat="44.98299" lon="4.27898">
        <ele>1187</ele>
        <time>2017-04-23T11:35:58.000Z</time>
      </trkpt>
      <trkpt lat="44.98301" lon="4.27886">
        <ele>1189</ele>
        <time>2017-04-23T11:36:07.000Z</time>
      </trkpt>
      <trkpt lat="44.98303" lon="4.27873">
        <ele>1190</ele>
        <time>2017-04-23T11:36:15.000Z</time>
      </trkpt>
      <trkpt lat="44.98306" lon="4.27858">
        <ele>1190</ele>
        <time>2017-04-23T11:36:24.000Z</time>
      </trkpt>
      <trkpt lat="44.98305" lon="4.27843">
        <ele>1190</ele>
        <time>2017-04-23T11:36:34.000Z</time>
      </trkpt>
      <trkpt lat="44.98306" lon="4.27827">
        <ele>1189</ele>
        <time>2017-04-23T11:36:43.000Z</time>
      </trkpt>
      <trkpt lat="44.9831" lon="4.27801">
        <ele>1192</ele>
        <time>2017-04-23T11:37:01.000Z</time>
      </trkpt>
      <trkpt lat="44.98314" lon="4.27784">
        <ele>1193</ele>
        <time>2017-04-23T11:37:13.000Z</time>
      </trkpt>
      <trkpt lat="44.98317" lon="4.27769">
        <ele>1190</ele>
        <time>2017-04-23T11:37:23.000Z</time>
      </trkpt>
      <trkpt lat="44.9832" lon="4.27754">
        <ele>1189</ele>
        <time>2017-04-23T11:37:32.000Z</time>
      </trkpt>
      <trkpt lat="44.98323" lon="4.27737">
        <ele>1187</ele>
        <time>2017-04-23T11:37:43.000Z</time>
      </trkpt>
      <trkpt lat="44.98326" lon="4.27724">
        <ele>1187</ele>
        <time>2017-04-23T11:37:52.000Z</time>
      </trkpt>
      <trkpt lat="44.98328" lon="4.2771">
        <ele>1186</ele>
        <time>2017-04-23T11:38:01.000Z</time>
      </trkpt>
      <trkpt lat="44.98332" lon="4.27694">
        <ele>1189</ele>
        <time>2017-04-23T11:38:11.000Z</time>
      </trkpt>
      <trkpt lat="44.98337" lon="4.27678">
        <ele>1187</ele>
        <time>2017-04-23T11:38:21.000Z</time>
      </trkpt>
      <trkpt lat="44.9834" lon="4.27664">
        <ele>1188</ele>
        <time>2017-04-23T11:38:30.000Z</time>
      </trkpt>
      <trkpt lat="44.9834" lon="4.27649">
        <ele>1185</ele>
        <time>2017-04-23T11:38:39.000Z</time>
      </trkpt>
      <trkpt lat="44.98339" lon="4.27635">
        <ele>1186</ele>
        <time>2017-04-23T11:38:48.000Z</time>
      </trkpt>
      <trkpt lat="44.98339" lon="4.27619">
        <ele>1185</ele>
        <time>2017-04-23T11:38:58.000Z</time>
      </trkpt>
      <trkpt lat="44.9834" lon="4.27606">
        <ele>1185</ele>
        <time>2017-04-23T11:39:07.000Z</time>
      </trkpt>
      <trkpt lat="44.98342" lon="4.27574">
        <ele>1186</ele>
        <time>2017-04-23T11:39:27.000Z</time>
      </trkpt>
      <trkpt lat="44.98341" lon="4.27561">
        <ele>1186</ele>
        <time>2017-04-23T11:39:34.000Z</time>
      </trkpt>
      <trkpt lat="44.98343" lon="4.27546">
        <ele>1186</ele>
        <time>2017-04-23T11:39:43.000Z</time>
      </trkpt>
      <trkpt lat="44.98343" lon="4.27529">
        <ele>1184</ele>
        <time>2017-04-23T11:39:52.000Z</time>
      </trkpt>
      <trkpt lat="44.98341" lon="4.27512">
        <ele>1184</ele>
        <time>2017-04-23T11:40:02.000Z</time>
      </trkpt>
      <trkpt lat="44.9834" lon="4.2749">
        <ele>1183</ele>
        <time>2017-04-23T11:40:15.000Z</time>
      </trkpt>
      <trkpt lat="44.98342" lon="4.27475">
        <ele>1183</ele>
        <time>2017-04-23T11:40:24.000Z</time>
      </trkpt>
      <trkpt lat="44.98347" lon="4.27464">
        <ele>1183</ele>
        <time>2017-04-23T11:40:31.000Z</time>
      </trkpt>
      <trkpt lat="44.98352" lon="4.27451">
        <ele>1183</ele>
        <time>2017-04-23T11:40:39.000Z</time>
      </trkpt>
      <trkpt lat="44.98359" lon="4.27438">
        <ele>1184</ele>
        <time>2017-04-23T11:40:48.000Z</time>
      </trkpt>
      <trkpt lat="44.98366" lon="4.27425">
        <ele>1183</ele>
        <time>2017-04-23T11:40:57.000Z</time>
      </trkpt>
      <trkpt lat="44.98373" lon="4.27412">
        <ele>1183</ele>
        <time>2017-04-23T11:41:07.000Z</time>
      </trkpt>
      <trkpt lat="44.9838" lon="4.27402">
        <ele>1183</ele>
        <time>2017-04-23T11:41:15.000Z</time>
      </trkpt>
      <trkpt lat="44.98386" lon="4.27389">
        <ele>1183</ele>
        <time>2017-04-23T11:41:26.000Z</time>
      </trkpt>
      <trkpt lat="44.98394" lon="4.27378">
        <ele>1183</ele>
        <time>2017-04-23T11:41:36.000Z</time>
      </trkpt>
      <trkpt lat="44.98402" lon="4.2737">
        <ele>1184</ele>
        <time>2017-04-23T11:41:44.000Z</time>
      </trkpt>
      <trkpt lat="44.9841" lon="4.27361">
        <ele>1184</ele>
        <time>2017-04-23T11:41:53.000Z</time>
      </trkpt>
      <trkpt lat="44.98417" lon="4.27353">
        <ele>1185</ele>
        <time>2017-04-23T11:42:02.000Z</time>
      </trkpt>
      <trkpt lat="44.98425" lon="4.27344">
        <ele>1185</ele>
        <time>2017-04-23T11:42:11.000Z</time>
      </trkpt>
      <trkpt lat="44.98432" lon="4.27334">
        <ele>1185</ele>
        <time>2017-04-23T11:42:20.000Z</time>
      </trkpt>
      <trkpt lat="44.98442" lon="4.27322">
        <ele>1186</ele>
        <time>2017-04-23T11:42:32.000Z</time>
      </trkpt>
      <trkpt lat="44.98449" lon="4.2731">
        <ele>1187</ele>
        <time>2017-04-23T11:42:42.000Z</time>
      </trkpt>
      <trkpt lat="44.98457" lon="4.27299">
        <ele>1187</ele>
        <time>2017-04-23T11:42:52.000Z</time>
      </trkpt>
      <trkpt lat="44.98464" lon="4.27289">
        <ele>1186</ele>
        <time>2017-04-23T11:43:02.000Z</time>
      </trkpt>
      <trkpt lat="44.98472" lon="4.27279">
        <ele>1185</ele>
        <time>2017-04-23T11:43:11.000Z</time>
      </trkpt>
      <trkpt lat="44.9851" lon="4.27234">
        <ele>1187</ele>
        <time>2017-04-23T11:43:53.000Z</time>
      </trkpt>
      <trkpt lat="44.98518" lon="4.27229">
        <ele>1187</ele>
        <time>2017-04-23T11:44:01.000Z</time>
      </trkpt>
      <trkpt lat="44.98528" lon="4.27222">
        <ele>1186</ele>
        <time>2017-04-23T11:44:10.000Z</time>
      </trkpt>
      <trkpt lat="44.98536" lon="4.27213">
        <ele>1187</ele>
        <time>2017-04-23T11:44:19.000Z</time>
      </trkpt>
      <trkpt lat="44.98544" lon="4.27202">
        <ele>1187</ele>
        <time>2017-04-23T11:44:29.000Z</time>
      </trkpt>
      <trkpt lat="44.98563" lon="4.27174">
        <ele>1187</ele>
        <time>2017-04-23T11:44:53.000Z</time>
      </trkpt>
      <trkpt lat="44.9857" lon="4.27161">
        <ele>1186</ele>
        <time>2017-04-23T11:45:03.000Z</time>
      </trkpt>
      <trkpt lat="44.98576" lon="4.27151">
        <ele>1186</ele>
        <time>2017-04-23T11:45:11.000Z</time>
      </trkpt>
      <trkpt lat="44.98584" lon="4.2714">
        <ele>1186</ele>
        <time>2017-04-23T11:45:20.000Z</time>
      </trkpt>
      <trkpt lat="44.9859" lon="4.2713">
        <ele>1186</ele>
        <time>2017-04-23T11:45:28.000Z</time>
      </trkpt>
      <trkpt lat="44.98596" lon="4.2712">
        <ele>1186</ele>
        <time>2017-04-23T11:45:36.000Z</time>
      </trkpt>
      <trkpt lat="44.98604" lon="4.27107">
        <ele>1186</ele>
        <time>2017-04-23T11:45:46.000Z</time>
      </trkpt>
      <trkpt lat="44.98612" lon="4.27093">
        <ele>1186</ele>
        <time>2017-04-23T11:46:01.000Z</time>
      </trkpt>
      <trkpt lat="44.98618" lon="4.27082">
        <ele>1185</ele>
        <time>2017-04-23T11:46:10.000Z</time>
      </trkpt>
      <trkpt lat="44.98634" lon="4.27052">
        <ele>1185</ele>
        <time>2017-04-23T11:46:33.000Z</time>
      </trkpt>
      <trkpt lat="44.98641" lon="4.27038">
        <ele>1186</ele>
        <time>2017-04-23T11:46:43.000Z</time>
      </trkpt>
      <trkpt lat="44.98648" lon="4.27028">
        <ele>1186</ele>
        <time>2017-04-23T11:46:51.000Z</time>
      </trkpt>
      <trkpt lat="44.98655" lon="4.2702">
        <ele>1186</ele>
        <time>2017-04-23T11:47:05.000Z</time>
      </trkpt>
      <trkpt lat="44.98666" lon="4.27014">
        <ele>1185</ele>
        <time>2017-04-23T11:47:21.000Z</time>
      </trkpt>
      <trkpt lat="44.98676" lon="4.2701">
        <ele>1186</ele>
        <time>2017-04-23T11:47:30.000Z</time>
      </trkpt>
      <trkpt lat="44.98682" lon="4.26998">
        <ele>1188</ele>
        <time>2017-04-23T11:47:39.000Z</time>
      </trkpt>
      <trkpt lat="44.98686" lon="4.26982">
        <ele>1187</ele>
        <time>2017-04-23T11:47:49.000Z</time>
      </trkpt>
      <trkpt lat="44.98692" lon="4.26968">
        <ele>1187</ele>
        <time>2017-04-23T11:47:58.000Z</time>
      </trkpt>
      <trkpt lat="44.98697" lon="4.26954">
        <ele>1189</ele>
        <time>2017-04-23T11:48:07.000Z</time>
      </trkpt>
      <trkpt lat="44.98702" lon="4.26943">
        <ele>1188</ele>
        <time>2017-04-23T11:48:16.000Z</time>
      </trkpt>
      <trkpt lat="44.98709" lon="4.26927">
        <ele>1189</ele>
        <time>2017-04-23T11:48:31.000Z</time>
      </trkpt>
      <trkpt lat="44.98714" lon="4.26914">
        <ele>1189</ele>
        <time>2017-04-23T11:48:40.000Z</time>
      </trkpt>
      <trkpt lat="44.98719" lon="4.26902">
        <ele>1190</ele>
        <time>2017-04-23T11:48:57.000Z</time>
      </trkpt>
      <trkpt lat="44.98724" lon="4.2689">
        <ele>1190</ele>
        <time>2017-04-23T11:49:06.000Z</time>
      </trkpt>
      <trkpt lat="44.9873" lon="4.26878">
        <ele>1191</ele>
        <time>2017-04-23T11:49:15.000Z</time>
      </trkpt>
      <trkpt lat="44.98736" lon="4.26866">
        <ele>1191</ele>
        <time>2017-04-23T11:49:24.000Z</time>
      </trkpt>
      <trkpt lat="44.98743" lon="4.26855">
        <ele>1190</ele>
        <time>2017-04-23T11:49:33.000Z</time>
      </trkpt>
      <trkpt lat="44.98748" lon="4.26844">
        <ele>1190</ele>
        <time>2017-04-23T11:49:42.000Z</time>
      </trkpt>
      <trkpt lat="44.98753" lon="4.26831">
        <ele>1190</ele>
        <time>2017-04-23T11:49:51.000Z</time>
      </trkpt>
      <trkpt lat="44.98757" lon="4.26818">
        <ele>1189</ele>
        <time>2017-04-23T11:50:00.000Z</time>
      </trkpt>
      <trkpt lat="44.98762" lon="4.26804">
        <ele>1190</ele>
        <time>2017-04-23T11:50:09.000Z</time>
      </trkpt>
      <trkpt lat="44.98764" lon="4.26791">
        <ele>1190</ele>
        <time>2017-04-23T11:50:17.000Z</time>
      </trkpt>
      <trkpt lat="44.98768" lon="4.26777">
        <ele>1190</ele>
        <time>2017-04-23T11:50:26.000Z</time>
      </trkpt>
      <trkpt lat="44.98769" lon="4.26759">
        <ele>1190</ele>
        <time>2017-04-23T11:50:36.000Z</time>
      </trkpt>
      <trkpt lat="44.98771" lon="4.26743">
        <ele>1191</ele>
        <time>2017-04-23T11:50:46.000Z</time>
      </trkpt>
      <trkpt lat="44.98772" lon="4.26728">
        <ele>1191</ele>
        <time>2017-04-23T11:50:55.000Z</time>
      </trkpt>
      <trkpt lat="44.98774" lon="4.26712">
        <ele>1190</ele>
        <time>2017-04-23T11:51:04.000Z</time>
      </trkpt>
      <trkpt lat="44.98775" lon="4.26696">
        <ele>1190</ele>
        <time>2017-04-23T11:51:13.000Z</time>
      </trkpt>
      <trkpt lat="44.98776" lon="4.2668">
        <ele>1191</ele>
        <time>2017-04-23T11:51:22.000Z</time>
      </trkpt>
      <trkpt lat="44.98777" lon="4.26664">
        <ele>1191</ele>
        <time>2017-04-23T11:51:31.000Z</time>
      </trkpt>
      <trkpt lat="44.98778" lon="4.2665">
        <ele>1192</ele>
        <time>2017-04-23T11:51:40.000Z</time>
      </trkpt>
      <trkpt lat="44.98779" lon="4.26634">
        <ele>1193</ele>
        <time>2017-04-23T11:51:49.000Z</time>
      </trkpt>
      <trkpt lat="44.98781" lon="4.26617">
        <ele>1193</ele>
        <time>2017-04-23T11:51:59.000Z</time>
      </trkpt>
      <trkpt lat="44.98782" lon="4.26602">
        <ele>1193</ele>
        <time>2017-04-23T11:52:08.000Z</time>
      </trkpt>
      <trkpt lat="44.98784" lon="4.26585">
        <ele>1193</ele>
        <time>2017-04-23T11:52:18.000Z</time>
      </trkpt>
      <trkpt lat="44.98785" lon="4.2655">
        <ele>1194</ele>
        <time>2017-04-23T11:52:39.000Z</time>
      </trkpt>
      <trkpt lat="44.98786" lon="4.26535">
        <ele>1193</ele>
        <time>2017-04-23T11:52:48.000Z</time>
      </trkpt>
      <trkpt lat="44.98789" lon="4.26519">
        <ele>1193</ele>
        <time>2017-04-23T11:52:57.000Z</time>
      </trkpt>
      <trkpt lat="44.98791" lon="4.26506">
        <ele>1192</ele>
        <time>2017-04-23T11:53:06.000Z</time>
      </trkpt>
      <trkpt lat="44.98795" lon="4.26491">
        <ele>1192</ele>
        <time>2017-04-23T11:53:16.000Z</time>
      </trkpt>
      <trkpt lat="44.98798" lon="4.26478">
        <ele>1191</ele>
        <time>2017-04-23T11:53:25.000Z</time>
      </trkpt>
      <trkpt lat="44.98801" lon="4.26464">
        <ele>1190</ele>
        <time>2017-04-23T11:53:34.000Z</time>
      </trkpt>
      <trkpt lat="44.98802" lon="4.26434">
        <ele>1187</ele>
        <time>2017-04-23T11:53:52.000Z</time>
      </trkpt>
      <trkpt lat="44.98803" lon="4.26421">
        <ele>1186</ele>
        <time>2017-04-23T11:54:00.000Z</time>
      </trkpt>
      <trkpt lat="44.98807" lon="4.26408">
        <ele>1185</ele>
        <time>2017-04-23T11:54:09.000Z</time>
      </trkpt>
      <trkpt lat="44.98813" lon="4.26386">
        <ele>1182</ele>
        <time>2017-04-23T11:54:22.000Z</time>
      </trkpt>
      <trkpt lat="44.98816" lon="4.26372">
        <ele>1181</ele>
        <time>2017-04-23T11:54:31.000Z</time>
      </trkpt>
      <trkpt lat="44.98819" lon="4.26355">
        <ele>1179</ele>
        <time>2017-04-23T11:54:44.000Z</time>
      </trkpt>
      <trkpt lat="44.98821" lon="4.26341">
        <ele>1179</ele>
        <time>2017-04-23T11:54:53.000Z</time>
      </trkpt>
      <trkpt lat="44.98823" lon="4.26328">
        <ele>1179</ele>
        <time>2017-04-23T11:55:02.000Z</time>
      </trkpt>
      <trkpt lat="44.98825" lon="4.26313">
        <ele>1179</ele>
        <time>2017-04-23T11:55:12.000Z</time>
      </trkpt>
      <trkpt lat="44.98827" lon="4.26298">
        <ele>1179</ele>
        <time>2017-04-23T11:55:21.000Z</time>
      </trkpt>
      <trkpt lat="44.9883" lon="4.26286">
        <ele>1178</ele>
        <time>2017-04-23T11:55:28.000Z</time>
      </trkpt>
      <trkpt lat="44.98834" lon="4.26272">
        <ele>1178</ele>
        <time>2017-04-23T11:55:36.000Z</time>
      </trkpt>
      <trkpt lat="44.98838" lon="4.26258">
        <ele>1176</ele>
        <time>2017-04-23T11:55:45.000Z</time>
      </trkpt>
      <trkpt lat="44.98843" lon="4.26245">
        <ele>1173</ele>
        <time>2017-04-23T11:55:54.000Z</time>
      </trkpt>
      <trkpt lat="44.9885" lon="4.26231">
        <ele>1172</ele>
        <time>2017-04-23T11:56:05.000Z</time>
      </trkpt>
      <trkpt lat="44.98858" lon="4.26216">
        <ele>1172</ele>
        <time>2017-04-23T11:56:15.000Z</time>
      </trkpt>
      <trkpt lat="44.9887" lon="4.26209">
        <ele>1171</ele>
        <time>2017-04-23T11:56:27.000Z</time>
      </trkpt>
      <trkpt lat="44.98881" lon="4.26207">
        <ele>1175</ele>
        <time>2017-04-23T11:56:39.000Z</time>
      </trkpt>
      <trkpt lat="44.98892" lon="4.26202">
        <ele>1178</ele>
        <time>2017-04-23T11:56:51.000Z</time>
      </trkpt>
      <trkpt lat="44.989" lon="4.26195">
        <ele>1178</ele>
        <time>2017-04-23T11:57:06.000Z</time>
      </trkpt>
      <trkpt lat="44.9891" lon="4.26194">
        <ele>1177</ele>
        <time>2017-04-23T11:58:11.000Z</time>
      </trkpt>
      <trkpt lat="44.98919" lon="4.262">
        <ele>1179</ele>
        <time>2017-04-23T11:58:33.000Z</time>
      </trkpt>
      <trkpt lat="44.9893" lon="4.26203">
        <ele>1177</ele>
        <time>2017-04-23T11:59:09.000Z</time>
      </trkpt>
      <trkpt lat="44.98942" lon="4.26204">
        <ele>1177</ele>
        <time>2017-04-23T11:59:21.000Z</time>
      </trkpt>
      <trkpt lat="44.98951" lon="4.26201">
        <ele>1176</ele>
        <time>2017-04-23T11:59:30.000Z</time>
      </trkpt>
      <trkpt lat="44.98961" lon="4.26197">
        <ele>1179</ele>
        <time>2017-04-23T11:59:45.000Z</time>
      </trkpt>
      <trkpt lat="44.98968" lon="4.26188">
        <ele>1178</ele>
        <time>2017-04-23T11:59:54.000Z</time>
      </trkpt>
      <trkpt lat="44.98979" lon="4.26178">
        <ele>1179</ele>
        <time>2017-04-23T12:00:21.000Z</time>
      </trkpt>
      <trkpt lat="44.9899" lon="4.26171">
        <ele>1178</ele>
        <time>2017-04-23T12:00:39.000Z</time>
      </trkpt>
      <trkpt lat="44.98993" lon="4.26156">
        <ele>1174</ele>
        <time>2017-04-23T12:03:31.000Z</time>
      </trkpt>
      <trkpt lat="44.98992" lon="4.26143">
        <ele>1174</ele>
        <time>2017-04-23T12:03:40.000Z</time>
      </trkpt>
      <trkpt lat="44.98983" lon="4.26138">
        <ele>1177</ele>
        <time>2017-04-23T12:03:49.000Z</time>
      </trkpt>
      <trkpt lat="44.98973" lon="4.26138">
        <ele>1179</ele>
        <time>2017-04-23T12:04:00.000Z</time>
      </trkpt>
      <trkpt lat="44.98964" lon="4.26136">
        <ele>1182</ele>
        <time>2017-04-23T12:04:09.000Z</time>
      </trkpt>
      <trkpt lat="44.98954" lon="4.2614">
        <ele>1180</ele>
        <time>2017-04-23T12:04:20.000Z</time>
      </trkpt>
      <trkpt lat="44.98944" lon="4.26143">
        <ele>1181</ele>
        <time>2017-04-23T12:08:20.000Z</time>
      </trkpt>
      <trkpt lat="44.98927" lon="4.26164">
        <ele>1181</ele>
        <time>2017-04-23T12:08:49.000Z</time>
      </trkpt>
      <trkpt lat="44.9892" lon="4.26174">
        <ele>1178</ele>
        <time>2017-04-23T12:09:02.000Z</time>
      </trkpt>
      <trkpt lat="44.98912" lon="4.26186">
        <ele>1180</ele>
        <time>2017-04-23T12:09:22.000Z</time>
      </trkpt>
      <trkpt lat="44.98903" lon="4.2619">
        <ele>1178</ele>
        <time>2017-04-23T12:09:38.000Z</time>
      </trkpt>
      <trkpt lat="44.9889" lon="4.26197">
        <ele>1179</ele>
        <time>2017-04-23T12:09:53.000Z</time>
      </trkpt>
      <trkpt lat="44.98879" lon="4.26203">
        <ele>1178</ele>
        <time>2017-04-23T12:10:04.000Z</time>
      </trkpt>
      <trkpt lat="44.98868" lon="4.26207">
        <ele>1179</ele>
        <time>2017-04-23T12:10:13.000Z</time>
      </trkpt>
      <trkpt lat="44.98858" lon="4.26211">
        <ele>1179</ele>
        <time>2017-04-23T12:10:23.000Z</time>
      </trkpt>
      <trkpt lat="44.9885" lon="4.26214">
        <ele>1180</ele>
        <time>2017-04-23T12:10:33.000Z</time>
      </trkpt>
      <trkpt lat="44.98841" lon="4.26217">
        <ele>1181</ele>
        <time>2017-04-23T12:10:45.000Z</time>
      </trkpt>
      <trkpt lat="44.98832" lon="4.26223">
        <ele>1182</ele>
        <time>2017-04-23T12:10:58.000Z</time>
      </trkpt>
      <trkpt lat="44.98824" lon="4.26233">
        <ele>1183</ele>
        <time>2017-04-23T12:11:32.000Z</time>
      </trkpt>
      <trkpt lat="44.98817" lon="4.26241">
        <ele>1185</ele>
        <time>2017-04-23T12:11:46.000Z</time>
      </trkpt>
      <trkpt lat="44.98808" lon="4.2625">
        <ele>1187</ele>
        <time>2017-04-23T12:12:01.000Z</time>
      </trkpt>
      <trkpt lat="44.98798" lon="4.26258">
        <ele>1189</ele>
        <time>2017-04-23T12:12:13.000Z</time>
      </trkpt>
      <trkpt lat="44.98789" lon="4.26266">
        <ele>1190</ele>
        <time>2017-04-23T12:12:26.000Z</time>
      </trkpt>
      <trkpt lat="44.98782" lon="4.26278">
        <ele>1192</ele>
        <time>2017-04-23T12:12:38.000Z</time>
      </trkpt>
      <trkpt lat="44.98774" lon="4.26289">
        <ele>1193</ele>
        <time>2017-04-23T12:12:50.000Z</time>
      </trkpt>
      <trkpt lat="44.98768" lon="4.26301">
        <ele>1195</ele>
        <time>2017-04-23T12:13:02.000Z</time>
      </trkpt>
      <trkpt lat="44.98761" lon="4.26311">
        <ele>1196</ele>
        <time>2017-04-23T12:13:12.000Z</time>
      </trkpt>
      <trkpt lat="44.98756" lon="4.26321">
        <ele>1196</ele>
        <time>2017-04-23T12:13:25.000Z</time>
      </trkpt>
      <trkpt lat="44.9875" lon="4.2633">
        <ele>1196</ele>
        <time>2017-04-23T12:13:36.000Z</time>
      </trkpt>
      <trkpt lat="44.98743" lon="4.26339">
        <ele>1196</ele>
        <time>2017-04-23T12:13:53.000Z</time>
      </trkpt>
      <trkpt lat="44.98735" lon="4.26348">
        <ele>1196</ele>
        <time>2017-04-23T12:14:09.000Z</time>
      </trkpt>
      <trkpt lat="44.98719" lon="4.26362">
        <ele>1196</ele>
        <time>2017-04-23T12:14:34.000Z</time>
      </trkpt>
      <trkpt lat="44.98711" lon="4.2637">
        <ele>1196</ele>
        <time>2017-04-23T12:14:45.000Z</time>
      </trkpt>
      <trkpt lat="44.98703" lon="4.26378">
        <ele>1196</ele>
        <time>2017-04-23T12:14:55.000Z</time>
      </trkpt>
      <trkpt lat="44.98696" lon="4.26386">
        <ele>1195</ele>
        <time>2017-04-23T12:15:04.000Z</time>
      </trkpt>
      <trkpt lat="44.98688" lon="4.26394">
        <ele>1195</ele>
        <time>2017-04-23T12:15:13.000Z</time>
      </trkpt>
      <trkpt lat="44.9868" lon="4.26402">
        <ele>1195</ele>
        <time>2017-04-23T12:15:22.000Z</time>
      </trkpt>
      <trkpt lat="44.98671" lon="4.26411">
        <ele>1194</ele>
        <time>2017-04-23T12:15:31.000Z</time>
      </trkpt>
      <trkpt lat="44.98662" lon="4.2642">
        <ele>1194</ele>
        <time>2017-04-23T12:15:41.000Z</time>
      </trkpt>
      <trkpt lat="44.98653" lon="4.26427">
        <ele>1193</ele>
        <time>2017-04-23T12:15:50.000Z</time>
      </trkpt>
      <trkpt lat="44.98645" lon="4.26435">
        <ele>1193</ele>
        <time>2017-04-23T12:15:59.000Z</time>
      </trkpt>
      <trkpt lat="44.98639" lon="4.26444">
        <ele>1194</ele>
        <time>2017-04-23T12:16:08.000Z</time>
      </trkpt>
      <trkpt lat="44.98629" lon="4.26453">
        <ele>1193</ele>
        <time>2017-04-23T12:16:18.000Z</time>
      </trkpt>
      <trkpt lat="44.98622" lon="4.26463">
        <ele>1193</ele>
        <time>2017-04-23T12:16:27.000Z</time>
      </trkpt>
      <trkpt lat="44.98615" lon="4.26471">
        <ele>1192</ele>
        <time>2017-04-23T12:16:36.000Z</time>
      </trkpt>
      <trkpt lat="44.98606" lon="4.26482">
        <ele>1194</ele>
        <time>2017-04-23T12:16:48.000Z</time>
      </trkpt>
      <trkpt lat="44.98599" lon="4.26491">
        <ele>1193</ele>
        <time>2017-04-23T12:16:56.000Z</time>
      </trkpt>
      <trkpt lat="44.98591" lon="4.265">
        <ele>1193</ele>
        <time>2017-04-23T12:17:05.000Z</time>
      </trkpt>
      <trkpt lat="44.98583" lon="4.26509">
        <ele>1192</ele>
        <time>2017-04-23T12:17:14.000Z</time>
      </trkpt>
      <trkpt lat="44.98575" lon="4.26521">
        <ele>1193</ele>
        <time>2017-04-23T12:17:23.000Z</time>
      </trkpt>
      <trkpt lat="44.98569" lon="4.26531">
        <ele>1193</ele>
        <time>2017-04-23T12:17:31.000Z</time>
      </trkpt>
      <trkpt lat="44.98562" lon="4.26539">
        <ele>1193</ele>
        <time>2017-04-23T12:17:39.000Z</time>
      </trkpt>
      <trkpt lat="44.98555" lon="4.26549">
        <ele>1194</ele>
        <time>2017-04-23T12:17:49.000Z</time>
      </trkpt>
      <trkpt lat="44.98548" lon="4.26561">
        <ele>1195</ele>
        <time>2017-04-23T12:18:00.000Z</time>
      </trkpt>
      <trkpt lat="44.98539" lon="4.2657">
        <ele>1194</ele>
        <time>2017-04-23T12:18:09.000Z</time>
      </trkpt>
      <trkpt lat="44.98532" lon="4.26578">
        <ele>1192</ele>
        <time>2017-04-23T12:18:14.000Z</time>
      </trkpt>
      <trkpt lat="44.98521" lon="4.26588">
        <ele>1192</ele>
        <time>2017-04-23T12:18:25.000Z</time>
      </trkpt>
      <trkpt lat="44.98512" lon="4.26594">
        <ele>1191</ele>
        <time>2017-04-23T12:18:34.000Z</time>
      </trkpt>
      <trkpt lat="44.98502" lon="4.26602">
        <ele>1191</ele>
        <time>2017-04-23T12:18:43.000Z</time>
      </trkpt>
      <trkpt lat="44.98493" lon="4.26608">
        <ele>1192</ele>
        <time>2017-04-23T12:18:52.000Z</time>
      </trkpt>
      <trkpt lat="44.98484" lon="4.26615">
        <ele>1192</ele>
        <time>2017-04-23T12:19:01.000Z</time>
      </trkpt>
      <trkpt lat="44.98474" lon="4.26621">
        <ele>1192</ele>
        <time>2017-04-23T12:19:10.000Z</time>
      </trkpt>
      <trkpt lat="44.98466" lon="4.26628">
        <ele>1191</ele>
        <time>2017-04-23T12:19:19.000Z</time>
      </trkpt>
      <trkpt lat="44.98455" lon="4.2664">
        <ele>1192</ele>
        <time>2017-04-23T12:19:31.000Z</time>
      </trkpt>
      <trkpt lat="44.98447" lon="4.26654">
        <ele>1191</ele>
        <time>2017-04-23T12:19:42.000Z</time>
      </trkpt>
      <trkpt lat="44.98442" lon="4.26666">
        <ele>1190</ele>
        <time>2017-04-23T12:19:50.000Z</time>
      </trkpt>
      <trkpt lat="44.98431" lon="4.26676">
        <ele>1190</ele>
        <time>2017-04-23T12:20:34.000Z</time>
      </trkpt>
      <trkpt lat="44.98422" lon="4.26684">
        <ele>1190</ele>
        <time>2017-04-23T12:20:43.000Z</time>
      </trkpt>
      <trkpt lat="44.98414" lon="4.26694">
        <ele>1190</ele>
        <time>2017-04-23T12:20:53.000Z</time>
      </trkpt>
      <trkpt lat="44.98405" lon="4.26706">
        <ele>1191</ele>
        <time>2017-04-23T12:21:04.000Z</time>
      </trkpt>
      <trkpt lat="44.98399" lon="4.26716">
        <ele>1192</ele>
        <time>2017-04-23T12:21:13.000Z</time>
      </trkpt>
      <trkpt lat="44.98391" lon="4.26727">
        <ele>1192</ele>
        <time>2017-04-23T12:21:23.000Z</time>
      </trkpt>
      <trkpt lat="44.98383" lon="4.2674">
        <ele>1192</ele>
        <time>2017-04-23T12:21:35.000Z</time>
      </trkpt>
      <trkpt lat="44.98376" lon="4.26749">
        <ele>1193</ele>
        <time>2017-04-23T12:21:44.000Z</time>
      </trkpt>
      <trkpt lat="44.98368" lon="4.26759">
        <ele>1194</ele>
        <time>2017-04-23T12:21:55.000Z</time>
      </trkpt>
      <trkpt lat="44.98359" lon="4.26768">
        <ele>1193</ele>
        <time>2017-04-23T12:22:05.000Z</time>
      </trkpt>
      <trkpt lat="44.98349" lon="4.26777">
        <ele>1194</ele>
        <time>2017-04-23T12:22:16.000Z</time>
      </trkpt>
      <trkpt lat="44.9834" lon="4.26784">
        <ele>1194</ele>
        <time>2017-04-23T12:22:25.000Z</time>
      </trkpt>
      <trkpt lat="44.98332" lon="4.26791">
        <ele>1193</ele>
        <time>2017-04-23T12:22:34.000Z</time>
      </trkpt>
      <trkpt lat="44.98315" lon="4.26808">
        <ele>1193</ele>
        <time>2017-04-23T12:22:51.000Z</time>
      </trkpt>
      <trkpt lat="44.98306" lon="4.26816">
        <ele>1192</ele>
        <time>2017-04-23T12:23:00.000Z</time>
      </trkpt>
      <trkpt lat="44.98296" lon="4.26824">
        <ele>1191</ele>
        <time>2017-04-23T12:23:09.000Z</time>
      </trkpt>
      <trkpt lat="44.98289" lon="4.26833">
        <ele>1192</ele>
        <time>2017-04-23T12:23:18.000Z</time>
      </trkpt>
      <trkpt lat="44.9828" lon="4.26844">
        <ele>1192</ele>
        <time>2017-04-23T12:23:28.000Z</time>
      </trkpt>
      <trkpt lat="44.98273" lon="4.26855">
        <ele>1192</ele>
        <time>2017-04-23T12:23:37.000Z</time>
      </trkpt>
      <trkpt lat="44.98267" lon="4.26866">
        <ele>1194</ele>
        <time>2017-04-23T12:23:47.000Z</time>
      </trkpt>
      <trkpt lat="44.98259" lon="4.26874">
        <ele>1193</ele>
        <time>2017-04-23T12:23:55.000Z</time>
      </trkpt>
      <trkpt lat="44.98249" lon="4.26885">
        <ele>1192</ele>
        <time>2017-04-23T12:24:07.000Z</time>
      </trkpt>
      <trkpt lat="44.9824" lon="4.26892">
        <ele>1193</ele>
        <time>2017-04-23T12:24:15.000Z</time>
      </trkpt>
      <trkpt lat="44.9822" lon="4.26908">
        <ele>1193</ele>
        <time>2017-04-23T12:24:36.000Z</time>
      </trkpt>
      <trkpt lat="44.9821" lon="4.26915">
        <ele>1194</ele>
        <time>2017-04-23T12:24:46.000Z</time>
      </trkpt>
      <trkpt lat="44.98194" lon="4.26929">
        <ele>1194</ele>
        <time>2017-04-23T12:25:01.000Z</time>
      </trkpt>
      <trkpt lat="44.98185" lon="4.26937">
        <ele>1193</ele>
        <time>2017-04-23T12:25:09.000Z</time>
      </trkpt>
      <trkpt lat="44.98174" lon="4.26942">
        <ele>1192</ele>
        <time>2017-04-23T12:25:19.000Z</time>
      </trkpt>
      <trkpt lat="44.98164" lon="4.26946">
        <ele>1192</ele>
        <time>2017-04-23T12:25:28.000Z</time>
      </trkpt>
      <trkpt lat="44.98156" lon="4.26951">
        <ele>1192</ele>
        <time>2017-04-23T12:25:36.000Z</time>
      </trkpt>
      <trkpt lat="44.98146" lon="4.26956">
        <ele>1192</ele>
        <time>2017-04-23T12:25:46.000Z</time>
      </trkpt>
      <trkpt lat="44.98138" lon="4.26961">
        <ele>1192</ele>
        <time>2017-04-23T12:25:55.000Z</time>
      </trkpt>
      <trkpt lat="44.98127" lon="4.26968">
        <ele>1192</ele>
        <time>2017-04-23T12:26:06.000Z</time>
      </trkpt>
      <trkpt lat="44.98117" lon="4.26974">
        <ele>1192</ele>
        <time>2017-04-23T12:26:16.000Z</time>
      </trkpt>
      <trkpt lat="44.98107" lon="4.2698">
        <ele>1193</ele>
        <time>2017-04-23T12:26:30.000Z</time>
      </trkpt>
      <trkpt lat="44.98098" lon="4.26986">
        <ele>1192</ele>
        <time>2017-04-23T12:26:39.000Z</time>
      </trkpt>
      <trkpt lat="44.9809" lon="4.26992">
        <ele>1192</ele>
        <time>2017-04-23T12:26:47.000Z</time>
      </trkpt>
      <trkpt lat="44.98077" lon="4.27001">
        <ele>1191</ele>
        <time>2017-04-23T12:26:59.000Z</time>
      </trkpt>
      <trkpt lat="44.98068" lon="4.27005">
        <ele>1191</ele>
        <time>2017-04-23T12:27:07.000Z</time>
      </trkpt>
      <trkpt lat="44.98058" lon="4.2701">
        <ele>1191</ele>
        <time>2017-04-23T12:27:16.000Z</time>
      </trkpt>
      <trkpt lat="44.98047" lon="4.27015">
        <ele>1190</ele>
        <time>2017-04-23T12:27:28.000Z</time>
      </trkpt>
      <trkpt lat="44.98036" lon="4.27017">
        <ele>1190</ele>
        <time>2017-04-23T12:27:37.000Z</time>
      </trkpt>
      <trkpt lat="44.98025" lon="4.27018">
        <ele>1189</ele>
        <time>2017-04-23T12:27:48.000Z</time>
      </trkpt>
      <trkpt lat="44.98015" lon="4.2702">
        <ele>1190</ele>
        <time>2017-04-23T12:27:57.000Z</time>
      </trkpt>
      <trkpt lat="44.98004" lon="4.27021">
        <ele>1191</ele>
        <time>2017-04-23T12:28:06.000Z</time>
      </trkpt>
      <trkpt lat="44.97994" lon="4.27022">
        <ele>1191</ele>
        <time>2017-04-23T12:28:14.000Z</time>
      </trkpt>
      <trkpt lat="44.97984" lon="4.27025">
        <ele>1191</ele>
        <time>2017-04-23T12:28:23.000Z</time>
      </trkpt>
      <trkpt lat="44.97973" lon="4.27028">
        <ele>1192</ele>
        <time>2017-04-23T12:28:33.000Z</time>
      </trkpt>
      <trkpt lat="44.97962" lon="4.27032">
        <ele>1192</ele>
        <time>2017-04-23T12:28:42.000Z</time>
      </trkpt>
      <trkpt lat="44.97951" lon="4.27038">
        <ele>1192</ele>
        <time>2017-04-23T12:28:53.000Z</time>
      </trkpt>
      <trkpt lat="44.97942" lon="4.27044">
        <ele>1193</ele>
        <time>2017-04-23T12:29:10.000Z</time>
      </trkpt>
      <trkpt lat="44.9794" lon="4.2706">
        <ele>1191</ele>
        <time>2017-04-23T12:29:22.000Z</time>
      </trkpt>
      <trkpt lat="44.9794" lon="4.27077">
        <ele>1191</ele>
        <time>2017-04-23T12:29:31.000Z</time>
      </trkpt>
      <trkpt lat="44.9794" lon="4.2709">
        <ele>1193</ele>
        <time>2017-04-23T12:29:39.000Z</time>
      </trkpt>
      <trkpt lat="44.9794" lon="4.27105">
        <ele>1194</ele>
        <time>2017-04-23T12:29:49.000Z</time>
      </trkpt>
      <trkpt lat="44.9794" lon="4.27122">
        <ele>1195</ele>
        <time>2017-04-23T12:29:59.000Z</time>
      </trkpt>
      <trkpt lat="44.97938" lon="4.27138">
        <ele>1195</ele>
        <time>2017-04-23T12:30:09.000Z</time>
      </trkpt>
      <trkpt lat="44.97937" lon="4.27152">
        <ele>1196</ele>
        <time>2017-04-23T12:30:18.000Z</time>
      </trkpt>
      <trkpt lat="44.97935" lon="4.27166">
        <ele>1196</ele>
        <time>2017-04-23T12:30:28.000Z</time>
      </trkpt>
      <trkpt lat="44.97935" lon="4.2718">
        <ele>1196</ele>
        <time>2017-04-23T12:30:38.000Z</time>
      </trkpt>
      <trkpt lat="44.97935" lon="4.27195">
        <ele>1196</ele>
        <time>2017-04-23T12:30:47.000Z</time>
      </trkpt>
      <trkpt lat="44.97936" lon="4.27213">
        <ele>1197</ele>
        <time>2017-04-23T12:30:57.000Z</time>
      </trkpt>
      <trkpt lat="44.97936" lon="4.27228">
        <ele>1196</ele>
        <time>2017-04-23T12:31:06.000Z</time>
      </trkpt>
      <trkpt lat="44.97936" lon="4.27241">
        <ele>1196</ele>
        <time>2017-04-23T12:31:15.000Z</time>
      </trkpt>
      <trkpt lat="44.97936" lon="4.2726">
        <ele>1195</ele>
        <time>2017-04-23T12:31:28.000Z</time>
      </trkpt>
      <trkpt lat="44.97937" lon="4.27274">
        <ele>1196</ele>
        <time>2017-04-23T12:31:37.000Z</time>
      </trkpt>
      <trkpt lat="44.97939" lon="4.27292">
        <ele>1196</ele>
        <time>2017-04-23T12:31:49.000Z</time>
      </trkpt>
      <trkpt lat="44.97942" lon="4.27307">
        <ele>1195</ele>
        <time>2017-04-23T12:31:58.000Z</time>
      </trkpt>
      <trkpt lat="44.97945" lon="4.27319">
        <ele>1195</ele>
        <time>2017-04-23T12:32:05.000Z</time>
      </trkpt>
      <trkpt lat="44.97952" lon="4.27335">
        <ele>1195</ele>
        <time>2017-04-23T12:32:16.000Z</time>
      </trkpt>
      <trkpt lat="44.97956" lon="4.2735">
        <ele>1196</ele>
        <time>2017-04-23T12:32:25.000Z</time>
      </trkpt>
      <trkpt lat="44.97961" lon="4.27363">
        <ele>1195</ele>
        <time>2017-04-23T12:32:34.000Z</time>
      </trkpt>
      <trkpt lat="44.97966" lon="4.27375">
        <ele>1195</ele>
        <time>2017-04-23T12:32:42.000Z</time>
      </trkpt>
      <trkpt lat="44.97971" lon="4.27389">
        <ele>1195</ele>
        <time>2017-04-23T12:32:53.000Z</time>
      </trkpt>
      <trkpt lat="44.97976" lon="4.27402">
        <ele>1195</ele>
        <time>2017-04-23T12:33:02.000Z</time>
      </trkpt>
      <trkpt lat="44.97981" lon="4.27417">
        <ele>1194</ele>
        <time>2017-04-23T12:33:11.000Z</time>
      </trkpt>
      <trkpt lat="44.97985" lon="4.27428">
        <ele>1195</ele>
        <time>2017-04-23T12:33:20.000Z</time>
      </trkpt>
      <trkpt lat="44.97991" lon="4.27441">
        <ele>1195</ele>
        <time>2017-04-23T12:33:30.000Z</time>
      </trkpt>
      <trkpt lat="44.97997" lon="4.27454">
        <ele>1195</ele>
        <time>2017-04-23T12:33:39.000Z</time>
      </trkpt>
      <trkpt lat="44.98003" lon="4.27468">
        <ele>1194</ele>
        <time>2017-04-23T12:33:49.000Z</time>
      </trkpt>
      <trkpt lat="44.98011" lon="4.27486">
        <ele>1194</ele>
        <time>2017-04-23T12:34:01.000Z</time>
      </trkpt>
      <trkpt lat="44.98017" lon="4.27501">
        <ele>1194</ele>
        <time>2017-04-23T12:34:12.000Z</time>
      </trkpt>
      <trkpt lat="44.98016" lon="4.27518">
        <ele>1195</ele>
        <time>2017-04-23T12:34:24.000Z</time>
      </trkpt>
      <trkpt lat="44.97996" lon="4.27538">
        <ele>1194</ele>
        <time>2017-04-23T12:34:46.000Z</time>
      </trkpt>
      <trkpt lat="44.97989" lon="4.2756">
        <ele>1193</ele>
        <time>2017-04-23T12:35:01.000Z</time>
      </trkpt>
      <trkpt lat="44.97987" lon="4.27576">
        <ele>1193</ele>
        <time>2017-04-23T12:35:12.000Z</time>
      </trkpt>
      <trkpt lat="44.97985" lon="4.2759">
        <ele>1192</ele>
        <time>2017-04-23T12:35:21.000Z</time>
      </trkpt>
      <trkpt lat="44.97982" lon="4.27603">
        <ele>1193</ele>
        <time>2017-04-23T12:35:29.000Z</time>
      </trkpt>
      <trkpt lat="44.9798" lon="4.27619">
        <ele>1193</ele>
        <time>2017-04-23T12:35:40.000Z</time>
      </trkpt>
      <trkpt lat="44.97978" lon="4.27632">
        <ele>1194</ele>
        <time>2017-04-23T12:35:47.000Z</time>
      </trkpt>
      <trkpt lat="44.97977" lon="4.2765">
        <ele>1194</ele>
        <time>2017-04-23T12:35:57.000Z</time>
      </trkpt>
      <trkpt lat="44.97971" lon="4.2767">
        <ele>1194</ele>
        <time>2017-04-23T12:36:10.000Z</time>
      </trkpt>
      <trkpt lat="44.97969" lon="4.27686">
        <ele>1193</ele>
        <time>2017-04-23T12:36:20.000Z</time>
      </trkpt>
      <trkpt lat="44.97965" lon="4.277">
        <ele>1192</ele>
        <time>2017-04-23T12:36:29.000Z</time>
      </trkpt>
      <trkpt lat="44.97961" lon="4.27715">
        <ele>1191</ele>
        <time>2017-04-23T12:36:39.000Z</time>
      </trkpt>
      <trkpt lat="44.97956" lon="4.27728">
        <ele>1189</ele>
        <time>2017-04-23T12:36:47.000Z</time>
      </trkpt>
      <trkpt lat="44.9795" lon="4.27741">
        <ele>1189</ele>
        <time>2017-04-23T12:36:56.000Z</time>
      </trkpt>
      <trkpt lat="44.97946" lon="4.27754">
        <ele>1190</ele>
        <time>2017-04-23T12:37:05.000Z</time>
      </trkpt>
      <trkpt lat="44.97941" lon="4.27765">
        <ele>1189</ele>
        <time>2017-04-23T12:37:13.000Z</time>
      </trkpt>
      <trkpt lat="44.97936" lon="4.27777">
        <ele>1189</ele>
        <time>2017-04-23T12:37:21.000Z</time>
      </trkpt>
      <trkpt lat="44.97929" lon="4.27792">
        <ele>1190</ele>
        <time>2017-04-23T12:37:31.000Z</time>
      </trkpt>
      <trkpt lat="44.97924" lon="4.27805">
        <ele>1189</ele>
        <time>2017-04-23T12:37:40.000Z</time>
      </trkpt>
      <trkpt lat="44.97918" lon="4.27818">
        <ele>1189</ele>
        <time>2017-04-23T12:37:50.000Z</time>
      </trkpt>
      <trkpt lat="44.97911" lon="4.27833">
        <ele>1188</ele>
        <time>2017-04-23T12:38:01.000Z</time>
      </trkpt>
      <trkpt lat="44.97905" lon="4.27847">
        <ele>1188</ele>
        <time>2017-04-23T12:38:10.000Z</time>
      </trkpt>
      <trkpt lat="44.97895" lon="4.27868">
        <ele>1187</ele>
        <time>2017-04-23T12:38:25.000Z</time>
      </trkpt>
      <trkpt lat="44.97889" lon="4.27881">
        <ele>1187</ele>
        <time>2017-04-23T12:38:34.000Z</time>
      </trkpt>
      <trkpt lat="44.97884" lon="4.27894">
        <ele>1185</ele>
        <time>2017-04-23T12:38:43.000Z</time>
      </trkpt>
      <trkpt lat="44.97872" lon="4.27919">
        <ele>1184</ele>
        <time>2017-04-23T12:39:00.000Z</time>
      </trkpt>
      <trkpt lat="44.97865" lon="4.27928">
        <ele>1183</ele>
        <time>2017-04-23T12:39:08.000Z</time>
      </trkpt>
      <trkpt lat="44.97849" lon="4.2795">
        <ele>1183</ele>
        <time>2017-04-23T12:39:28.000Z</time>
      </trkpt>
      <trkpt lat="44.97843" lon="4.2796">
        <ele>1183</ele>
        <time>2017-04-23T12:39:36.000Z</time>
      </trkpt>
      <trkpt lat="44.97837" lon="4.27972">
        <ele>1182</ele>
        <time>2017-04-23T12:39:45.000Z</time>
      </trkpt>
      <trkpt lat="44.97831" lon="4.27982">
        <ele>1181</ele>
        <time>2017-04-23T12:39:54.000Z</time>
      </trkpt>
      <trkpt lat="44.97826" lon="4.27993">
        <ele>1182</ele>
        <time>2017-04-23T12:40:03.000Z</time>
      </trkpt>
      <trkpt lat="44.97821" lon="4.28004">
        <ele>1181</ele>
        <time>2017-04-23T12:40:12.000Z</time>
      </trkpt>
      <trkpt lat="44.97815" lon="4.28014">
        <ele>1178</ele>
        <time>2017-04-23T12:40:21.000Z</time>
      </trkpt>
      <trkpt lat="44.97809" lon="4.28024">
        <ele>1179</ele>
        <time>2017-04-23T12:40:29.000Z</time>
      </trkpt>
      <trkpt lat="44.97799" lon="4.28044">
        <ele>1178</ele>
        <time>2017-04-23T12:40:44.000Z</time>
      </trkpt>
      <trkpt lat="44.97792" lon="4.28058">
        <ele>1177</ele>
        <time>2017-04-23T12:40:53.000Z</time>
      </trkpt>
      <trkpt lat="44.97786" lon="4.28072">
        <ele>1176</ele>
        <time>2017-04-23T12:41:02.000Z</time>
      </trkpt>
      <trkpt lat="44.97781" lon="4.28087">
        <ele>1177</ele>
        <time>2017-04-23T12:41:12.000Z</time>
      </trkpt>
      <trkpt lat="44.97777" lon="4.28098">
        <ele>1176</ele>
        <time>2017-04-23T12:41:20.000Z</time>
      </trkpt>
      <trkpt lat="44.97771" lon="4.28112">
        <ele>1175</ele>
        <time>2017-04-23T12:41:30.000Z</time>
      </trkpt>
      <trkpt lat="44.97767" lon="4.28125">
        <ele>1175</ele>
        <time>2017-04-23T12:41:38.000Z</time>
      </trkpt>
      <trkpt lat="44.97762" lon="4.28137">
        <ele>1174</ele>
        <time>2017-04-23T12:41:47.000Z</time>
      </trkpt>
      <trkpt lat="44.97755" lon="4.28148">
        <ele>1174</ele>
        <time>2017-04-23T12:41:57.000Z</time>
      </trkpt>
      <trkpt lat="44.97748" lon="4.28156">
        <ele>1174</ele>
        <time>2017-04-23T12:42:07.000Z</time>
      </trkpt>
      <trkpt lat="44.9774" lon="4.28163">
        <ele>1174</ele>
        <time>2017-04-23T12:42:16.000Z</time>
      </trkpt>
      <trkpt lat="44.9773" lon="4.28169">
        <ele>1173</ele>
        <time>2017-04-23T12:42:25.000Z</time>
      </trkpt>
      <trkpt lat="44.97721" lon="4.28173">
        <ele>1172</ele>
        <time>2017-04-23T12:42:34.000Z</time>
      </trkpt>
      <trkpt lat="44.97711" lon="4.28178">
        <ele>1173</ele>
        <time>2017-04-23T12:42:43.000Z</time>
      </trkpt>
      <trkpt lat="44.97701" lon="4.28182">
        <ele>1173</ele>
        <time>2017-04-23T12:42:52.000Z</time>
      </trkpt>
      <trkpt lat="44.97692" lon="4.28185">
        <ele>1172</ele>
        <time>2017-04-23T12:43:01.000Z</time>
      </trkpt>
      <trkpt lat="44.9768" lon="4.2819">
        <ele>1172</ele>
        <time>2017-04-23T12:43:11.000Z</time>
      </trkpt>
      <trkpt lat="44.9767" lon="4.28194">
        <ele>1172</ele>
        <time>2017-04-23T12:43:20.000Z</time>
      </trkpt>
      <trkpt lat="44.9766" lon="4.28197">
        <ele>1171</ele>
        <time>2017-04-23T12:43:29.000Z</time>
      </trkpt>
      <trkpt lat="44.97651" lon="4.282">
        <ele>1170</ele>
        <time>2017-04-23T12:43:38.000Z</time>
      </trkpt>
      <trkpt lat="44.97639" lon="4.28205">
        <ele>1168</ele>
        <time>2017-04-23T12:43:47.000Z</time>
      </trkpt>
      <trkpt lat="44.97623" lon="4.28215">
        <ele>1167</ele>
        <time>2017-04-23T12:44:03.000Z</time>
      </trkpt>
      <trkpt lat="44.97614" lon="4.28223">
        <ele>1166</ele>
        <time>2017-04-23T12:44:12.000Z</time>
      </trkpt>
      <trkpt lat="44.97606" lon="4.2823">
        <ele>1165</ele>
        <time>2017-04-23T12:44:21.000Z</time>
      </trkpt>
      <trkpt lat="44.97598" lon="4.28237">
        <ele>1163</ele>
        <time>2017-04-23T12:44:30.000Z</time>
      </trkpt>
      <trkpt lat="44.97589" lon="4.28247">
        <ele>1162</ele>
        <time>2017-04-23T12:44:41.000Z</time>
      </trkpt>
      <trkpt lat="44.97582" lon="4.28255">
        <ele>1162</ele>
        <time>2017-04-23T12:44:50.000Z</time>
      </trkpt>
      <trkpt lat="44.97575" lon="4.28266">
        <ele>1161</ele>
        <time>2017-04-23T12:45:00.000Z</time>
      </trkpt>
      <trkpt lat="44.97567" lon="4.28276">
        <ele>1160</ele>
        <time>2017-04-23T12:45:10.000Z</time>
      </trkpt>
      <trkpt lat="44.97559" lon="4.28291">
        <ele>1158</ele>
        <time>2017-04-23T12:45:22.000Z</time>
      </trkpt>
      <trkpt lat="44.97553" lon="4.28301">
        <ele>1157</ele>
        <time>2017-04-23T12:45:31.000Z</time>
      </trkpt>
      <trkpt lat="44.97549" lon="4.28313">
        <ele>1157</ele>
        <time>2017-04-23T12:45:39.000Z</time>
      </trkpt>
      <trkpt lat="44.97544" lon="4.28325">
        <ele>1157</ele>
        <time>2017-04-23T12:45:48.000Z</time>
      </trkpt>
      <trkpt lat="44.97537" lon="4.28335">
        <ele>1156</ele>
        <time>2017-04-23T12:45:55.000Z</time>
      </trkpt>
      <trkpt lat="44.97523" lon="4.28356">
        <ele>1154</ele>
        <time>2017-04-23T12:46:15.000Z</time>
      </trkpt>
      <trkpt lat="44.97517" lon="4.28366">
        <ele>1154</ele>
        <time>2017-04-23T12:46:25.000Z</time>
      </trkpt>
      <trkpt lat="44.97509" lon="4.28379">
        <ele>1153</ele>
        <time>2017-04-23T12:46:37.000Z</time>
      </trkpt>
      <trkpt lat="44.97492" lon="4.28399">
        <ele>1150</ele>
        <time>2017-04-23T12:46:56.000Z</time>
      </trkpt>
      <trkpt lat="44.97485" lon="4.28408">
        <ele>1151</ele>
        <time>2017-04-23T12:47:05.000Z</time>
      </trkpt>
      <trkpt lat="44.97466" lon="4.2843">
        <ele>1148</ele>
        <time>2017-04-23T12:47:27.000Z</time>
      </trkpt>
      <trkpt lat="44.97459" lon="4.28438">
        <ele>1146</ele>
        <time>2017-04-23T12:47:35.000Z</time>
      </trkpt>
      <trkpt lat="44.97449" lon="4.28446">
        <ele>1146</ele>
        <time>2017-04-23T12:47:44.000Z</time>
      </trkpt>
      <trkpt lat="44.97436" lon="4.28458">
        <ele>1144</ele>
        <time>2017-04-23T12:47:58.000Z</time>
      </trkpt>
      <trkpt lat="44.97429" lon="4.28466">
        <ele>1143</ele>
        <time>2017-04-23T12:48:06.000Z</time>
      </trkpt>
      <trkpt lat="44.97414" lon="4.28482">
        <ele>1141</ele>
        <time>2017-04-23T12:48:23.000Z</time>
      </trkpt>
      <trkpt lat="44.97406" lon="4.28489">
        <ele>1141</ele>
        <time>2017-04-23T12:48:31.000Z</time>
      </trkpt>
      <trkpt lat="44.97397" lon="4.28492">
        <ele>1139</ele>
        <time>2017-04-23T12:48:42.000Z</time>
      </trkpt>
      <trkpt lat="44.9739" lon="4.285">
        <ele>1137</ele>
        <time>2017-04-23T12:54:36.000Z</time>
      </trkpt>
      <trkpt lat="44.9738" lon="4.28508">
        <ele>1135</ele>
        <time>2017-04-23T12:54:47.000Z</time>
      </trkpt>
      <trkpt lat="44.97369" lon="4.28516">
        <ele>1134</ele>
        <time>2017-04-23T12:54:57.000Z</time>
      </trkpt>
      <trkpt lat="44.9736" lon="4.28523">
        <ele>1134</ele>
        <time>2017-04-23T12:55:06.000Z</time>
      </trkpt>
      <trkpt lat="44.9735" lon="4.28532">
        <ele>1133</ele>
        <time>2017-04-23T12:55:16.000Z</time>
      </trkpt>
      <trkpt lat="44.97343" lon="4.2854">
        <ele>1134</ele>
        <time>2017-04-23T12:55:24.000Z</time>
      </trkpt>
      <trkpt lat="44.97334" lon="4.28552">
        <ele>1133</ele>
        <time>2017-04-23T12:55:34.000Z</time>
      </trkpt>
      <trkpt lat="44.97325" lon="4.28567">
        <ele>1129</ele>
        <time>2017-04-23T12:55:45.000Z</time>
      </trkpt>
      <trkpt lat="44.97318" lon="4.28576">
        <ele>1126</ele>
        <time>2017-04-23T12:55:53.000Z</time>
      </trkpt>
      <trkpt lat="44.97319" lon="4.28562">
        <ele>1125</ele>
        <time>2017-04-23T12:56:05.000Z</time>
      </trkpt>
      <trkpt lat="44.97323" lon="4.2855">
        <ele>1122</ele>
        <time>2017-04-23T12:56:12.000Z</time>
      </trkpt>
      <trkpt lat="44.97327" lon="4.28537">
        <ele>1124</ele>
        <time>2017-04-23T12:56:23.000Z</time>
      </trkpt>
      <trkpt lat="44.97333" lon="4.28525">
        <ele>1123</ele>
        <time>2017-04-23T12:56:32.000Z</time>
      </trkpt>
      <trkpt lat="44.97341" lon="4.28514">
        <ele>1121</ele>
        <time>2017-04-23T12:56:41.000Z</time>
      </trkpt>
      <trkpt lat="44.97327" lon="4.28515">
        <ele>1122</ele>
        <time>2017-04-23T12:57:03.000Z</time>
      </trkpt>
      <trkpt lat="44.97318" lon="4.28521">
        <ele>1121</ele>
        <time>2017-04-23T12:57:11.000Z</time>
      </trkpt>
      <trkpt lat="44.97308" lon="4.28528">
        <ele>1118</ele>
        <time>2017-04-23T12:57:20.000Z</time>
      </trkpt>
      <trkpt lat="44.97299" lon="4.28536">
        <ele>1118</ele>
        <time>2017-04-23T12:57:29.000Z</time>
      </trkpt>
      <trkpt lat="44.97291" lon="4.28543">
        <ele>1118</ele>
        <time>2017-04-23T12:57:36.000Z</time>
      </trkpt>
      <trkpt lat="44.97283" lon="4.28549">
        <ele>1117</ele>
        <time>2017-04-23T12:57:44.000Z</time>
      </trkpt>
      <trkpt lat="44.97274" lon="4.2856">
        <ele>1117</ele>
        <time>2017-04-23T12:57:54.000Z</time>
      </trkpt>
      <trkpt lat="44.97265" lon="4.28567">
        <ele>1116</ele>
        <time>2017-04-23T12:58:03.000Z</time>
      </trkpt>
      <trkpt lat="44.97257" lon="4.28575">
        <ele>1115</ele>
        <time>2017-04-23T12:58:22.000Z</time>
      </trkpt>
      <trkpt lat="44.97249" lon="4.28583">
        <ele>1114</ele>
        <time>2017-04-23T12:58:31.000Z</time>
      </trkpt>
      <trkpt lat="44.97227" lon="4.28602">
        <ele>1109</ele>
        <time>2017-04-23T12:58:54.000Z</time>
      </trkpt>
      <trkpt lat="44.97219" lon="4.28611">
        <ele>1108</ele>
        <time>2017-04-23T12:59:03.000Z</time>
      </trkpt>
      <trkpt lat="44.97211" lon="4.28621">
        <ele>1106</ele>
        <time>2017-04-23T12:59:12.000Z</time>
      </trkpt>
      <trkpt lat="44.97192" lon="4.28644">
        <ele>1100</ele>
        <time>2017-04-23T12:59:35.000Z</time>
      </trkpt>
      <trkpt lat="44.97187" lon="4.28655">
        <ele>1100</ele>
        <time>2017-04-23T12:59:43.000Z</time>
      </trkpt>
      <trkpt lat="44.97176" lon="4.28673">
        <ele>1099</ele>
        <time>2017-04-23T12:59:58.000Z</time>
      </trkpt>
      <trkpt lat="44.9717" lon="4.28682">
        <ele>1098</ele>
        <time>2017-04-23T13:00:06.000Z</time>
      </trkpt>
      <trkpt lat="44.97165" lon="4.28698">
        <ele>1095</ele>
        <time>2017-04-23T13:00:17.000Z</time>
      </trkpt>
      <trkpt lat="44.9716" lon="4.28711">
        <ele>1094</ele>
        <time>2017-04-23T13:00:26.000Z</time>
      </trkpt>
      <trkpt lat="44.97157" lon="4.28723">
        <ele>1092</ele>
        <time>2017-04-23T13:00:39.000Z</time>
      </trkpt>
      <trkpt lat="44.97166" lon="4.28733">
        <ele>1091</ele>
        <time>2017-04-23T13:00:56.000Z</time>
      </trkpt>
      <trkpt lat="44.97175" lon="4.28739">
        <ele>1090</ele>
        <time>2017-04-23T13:01:06.000Z</time>
      </trkpt>
      <trkpt lat="44.97183" lon="4.28749">
        <ele>1097</ele>
        <time>2017-04-23T13:01:21.000Z</time>
      </trkpt>
      <trkpt lat="44.97189" lon="4.2876">
        <ele>1097</ele>
        <time>2017-04-23T13:01:33.000Z</time>
      </trkpt>
      <trkpt lat="44.97197" lon="4.2877">
        <ele>1094</ele>
        <time>2017-04-23T13:01:42.000Z</time>
      </trkpt>
      <trkpt lat="44.97202" lon="4.28781">
        <ele>1094</ele>
        <time>2017-04-23T13:01:51.000Z</time>
      </trkpt>
      <trkpt lat="44.97207" lon="4.28792">
        <ele>1092</ele>
        <time>2017-04-23T13:02:06.000Z</time>
      </trkpt>
      <trkpt lat="44.97213" lon="4.28806">
        <ele>1085</ele>
        <time>2017-04-23T13:02:21.000Z</time>
      </trkpt>
      <trkpt lat="44.97213" lon="4.2882">
        <ele>1086</ele>
        <time>2017-04-23T13:02:39.000Z</time>
      </trkpt>
      <trkpt lat="44.97216" lon="4.28842">
        <ele>1082</ele>
        <time>2017-04-23T13:03:00.000Z</time>
      </trkpt>
      <trkpt lat="44.97218" lon="4.28857">
        <ele>1076</ele>
        <time>2017-04-23T13:03:13.000Z</time>
      </trkpt>
      <trkpt lat="44.97217" lon="4.28871">
        <ele>1078</ele>
        <time>2017-04-23T13:03:28.000Z</time>
      </trkpt>
      <trkpt lat="44.97215" lon="4.28884">
        <ele>1078</ele>
        <time>2017-04-23T13:03:39.000Z</time>
      </trkpt>
      <trkpt lat="44.97213" lon="4.28897">
        <ele>1076</ele>
        <time>2017-04-23T13:03:50.000Z</time>
      </trkpt>
      <trkpt lat="44.97207" lon="4.28913">
        <ele>1075</ele>
        <time>2017-04-23T13:04:06.000Z</time>
      </trkpt>
      <trkpt lat="44.97207" lon="4.28926">
        <ele>1072</ele>
        <time>2017-04-23T13:04:18.000Z</time>
      </trkpt>
      <trkpt lat="44.97203" lon="4.28939">
        <ele>1068</ele>
        <time>2017-04-23T13:04:33.000Z</time>
      </trkpt>
      <trkpt lat="44.97196" lon="4.2895">
        <ele>1060</ele>
        <time>2017-04-23T13:04:51.000Z</time>
      </trkpt>
      <trkpt lat="44.97185" lon="4.28952">
        <ele>1061</ele>
        <time>2017-04-23T13:05:08.000Z</time>
      </trkpt>
      <trkpt lat="44.97176" lon="4.28957">
        <ele>1057</ele>
        <time>2017-04-23T13:05:30.000Z</time>
      </trkpt>
      <trkpt lat="44.97165" lon="4.28962">
        <ele>1055</ele>
        <time>2017-04-23T13:05:54.000Z</time>
      </trkpt>
      <trkpt lat="44.97156" lon="4.28966">
        <ele>1054</ele>
        <time>2017-04-23T13:06:01.000Z</time>
      </trkpt>
      <trkpt lat="44.97147" lon="4.28971">
        <ele>1053</ele>
        <time>2017-04-23T13:06:10.000Z</time>
      </trkpt>
      <trkpt lat="44.97133" lon="4.29">
        <ele>1046</ele>
        <time>2017-04-23T13:06:44.000Z</time>
      </trkpt>
      <trkpt lat="44.97125" lon="4.29008">
        <ele>1045</ele>
        <time>2017-04-23T13:06:59.000Z</time>
      </trkpt>
      <trkpt lat="44.97118" lon="4.29019">
        <ele>1045</ele>
        <time>2017-04-23T13:07:11.000Z</time>
      </trkpt>
      <trkpt lat="44.97107" lon="4.29026">
        <ele>1037</ele>
        <time>2017-04-23T13:07:29.000Z</time>
      </trkpt>
      <trkpt lat="44.97099" lon="4.29031">
        <ele>1039</ele>
        <time>2017-04-23T13:07:38.000Z</time>
      </trkpt>
      <trkpt lat="44.97089" lon="4.29032">
        <ele>1038</ele>
        <time>2017-04-23T13:07:47.000Z</time>
      </trkpt>
      <trkpt lat="44.97084" lon="4.29044">
        <ele>1033</ele>
        <time>2017-04-23T13:07:57.000Z</time>
      </trkpt>
      <trkpt lat="44.97078" lon="4.29054">
        <ele>1033</ele>
        <time>2017-04-23T13:08:09.000Z</time>
      </trkpt>
      <trkpt lat="44.97072" lon="4.29063">
        <ele>1030</ele>
        <time>2017-04-23T13:08:32.000Z</time>
      </trkpt>
      <trkpt lat="44.97065" lon="4.29073">
        <ele>1028</ele>
        <time>2017-04-23T13:08:46.000Z</time>
      </trkpt>
      <trkpt lat="44.97065" lon="4.29089">
        <ele>1031</ele>
        <time>2017-04-23T13:08:59.000Z</time>
      </trkpt>
      <trkpt lat="44.97062" lon="4.29107">
        <ele>1029</ele>
        <time>2017-04-23T13:09:15.000Z</time>
      </trkpt>
      <trkpt lat="44.97059" lon="4.29119">
        <ele>1031</ele>
        <time>2017-04-23T13:09:23.000Z</time>
      </trkpt>
      <trkpt lat="44.97055" lon="4.29132">
        <ele>1031</ele>
        <time>2017-04-23T13:09:32.000Z</time>
      </trkpt>
      <trkpt lat="44.97052" lon="4.29145">
        <ele>1025</ele>
        <time>2017-04-23T13:09:42.000Z</time>
      </trkpt>
      <trkpt lat="44.97049" lon="4.29158">
        <ele>1022</ele>
        <time>2017-04-23T13:09:54.000Z</time>
      </trkpt>
      <trkpt lat="44.97043" lon="4.29169">
        <ele>1019</ele>
        <time>2017-04-23T13:10:06.000Z</time>
      </trkpt>
      <trkpt lat="44.9704" lon="4.29185">
        <ele>1018</ele>
        <time>2017-04-23T13:10:15.000Z</time>
      </trkpt>
      <trkpt lat="44.97032" lon="4.29234">
        <ele>1015</ele>
        <time>2017-04-23T13:10:55.000Z</time>
      </trkpt>
      <trkpt lat="44.9703" lon="4.2925">
        <ele>1014</ele>
        <time>2017-04-23T13:11:05.000Z</time>
      </trkpt>
      <trkpt lat="44.97028" lon="4.29266">
        <ele>1010</ele>
        <time>2017-04-23T13:11:17.000Z</time>
      </trkpt>
      <trkpt lat="44.97028" lon="4.29288">
        <ele>1004</ele>
        <time>2017-04-23T13:11:44.000Z</time>
      </trkpt>
      <trkpt lat="44.97027" lon="4.29274">
        <ele>1006</ele>
        <time>2017-04-23T13:13:27.000Z</time>
      </trkpt>
      <trkpt lat="44.97024" lon="4.29259">
        <ele>1007</ele>
        <time>2017-04-23T13:13:36.000Z</time>
      </trkpt>
      <trkpt lat="44.97024" lon="4.29241">
        <ele>1004</ele>
        <time>2017-04-23T13:13:48.000Z</time>
      </trkpt>
      <trkpt lat="44.97019" lon="4.29225">
        <ele>1006</ele>
        <time>2017-04-23T13:13:59.000Z</time>
      </trkpt>
      <trkpt lat="44.97016" lon="4.29211">
        <ele>1006</ele>
        <time>2017-04-23T13:14:09.000Z</time>
      </trkpt>
      <trkpt lat="44.97013" lon="4.29198">
        <ele>1005</ele>
        <time>2017-04-23T13:14:18.000Z</time>
      </trkpt>
      <trkpt lat="44.97011" lon="4.29181">
        <ele>1005</ele>
        <time>2017-04-23T13:14:29.000Z</time>
      </trkpt>
      <trkpt lat="44.97009" lon="4.29166">
        <ele>1004</ele>
        <time>2017-04-23T13:14:39.000Z</time>
      </trkpt>
      <trkpt lat="44.97009" lon="4.29148">
        <ele>1003</ele>
        <time>2017-04-23T13:14:52.000Z</time>
      </trkpt>
      <trkpt lat="44.97008" lon="4.29132">
        <ele>1001</ele>
        <time>2017-04-23T13:15:02.000Z</time>
      </trkpt>
      <trkpt lat="44.97009" lon="4.29115">
        <ele>999</ele>
        <time>2017-04-23T13:15:14.000Z</time>
      </trkpt>
      <trkpt lat="44.9701" lon="4.29096">
        <ele>996</ele>
        <time>2017-04-23T13:15:26.000Z</time>
      </trkpt>
      <trkpt lat="44.97013" lon="4.29081">
        <ele>997</ele>
        <time>2017-04-23T13:15:40.000Z</time>
      </trkpt>
      <trkpt lat="44.97014" lon="4.29066">
        <ele>996</ele>
        <time>2017-04-23T13:15:48.000Z</time>
      </trkpt>
      <trkpt lat="44.97012" lon="4.29052">
        <ele>995</ele>
        <time>2017-04-23T13:15:57.000Z</time>
      </trkpt>
      <trkpt lat="44.97007" lon="4.29038">
        <ele>993</ele>
        <time>2017-04-23T13:16:09.000Z</time>
      </trkpt>
      <trkpt lat="44.96998" lon="4.29042">
        <ele>989</ele>
        <time>2017-04-23T13:16:22.000Z</time>
      </trkpt>
      <trkpt lat="44.96998" lon="4.29058">
        <ele>987</ele>
        <time>2017-04-23T13:16:34.000Z</time>
      </trkpt>
      <trkpt lat="44.96993" lon="4.29071">
        <ele>987</ele>
        <time>2017-04-23T13:16:43.000Z</time>
      </trkpt>
      <trkpt lat="44.96988" lon="4.29085">
        <ele>986</ele>
        <time>2017-04-23T13:16:53.000Z</time>
      </trkpt>
      <trkpt lat="44.96983" lon="4.29097">
        <ele>987</ele>
        <time>2017-04-23T13:17:02.000Z</time>
      </trkpt>
      <trkpt lat="44.96979" lon="4.29113">
        <ele>987</ele>
        <time>2017-04-23T13:17:13.000Z</time>
      </trkpt>
      <trkpt lat="44.96973" lon="4.29129">
        <ele>986</ele>
        <time>2017-04-23T13:17:25.000Z</time>
      </trkpt>
      <trkpt lat="44.96971" lon="4.29146">
        <ele>982</ele>
        <time>2017-04-23T13:17:36.000Z</time>
      </trkpt>
      <trkpt lat="44.96969" lon="4.2916">
        <ele>982</ele>
        <time>2017-04-23T13:17:47.000Z</time>
      </trkpt>
      <trkpt lat="44.96968" lon="4.29174">
        <ele>980</ele>
        <time>2017-04-23T13:17:56.000Z</time>
      </trkpt>
      <trkpt lat="44.96969" lon="4.29187">
        <ele>978</ele>
        <time>2017-04-23T13:18:05.000Z</time>
      </trkpt>
      <trkpt lat="44.96971" lon="4.292">
        <ele>978</ele>
        <time>2017-04-23T13:18:14.000Z</time>
      </trkpt>
      <trkpt lat="44.96973" lon="4.29221">
        <ele>978</ele>
        <time>2017-04-23T13:18:27.000Z</time>
      </trkpt>
      <trkpt lat="44.9697" lon="4.29235">
        <ele>977</ele>
        <time>2017-04-23T13:18:36.000Z</time>
      </trkpt>
      <trkpt lat="44.96967" lon="4.2925">
        <ele>978</ele>
        <time>2017-04-23T13:18:46.000Z</time>
      </trkpt>
      <trkpt lat="44.96962" lon="4.29263">
        <ele>981</ele>
        <time>2017-04-23T13:18:55.000Z</time>
      </trkpt>
      <trkpt lat="44.96958" lon="4.29275">
        <ele>979</ele>
        <time>2017-04-23T13:19:04.000Z</time>
      </trkpt>
      <trkpt lat="44.96952" lon="4.29289">
        <ele>979</ele>
        <time>2017-04-23T13:19:16.000Z</time>
      </trkpt>
      <trkpt lat="44.96946" lon="4.293">
        <ele>978</ele>
        <time>2017-04-23T13:19:25.000Z</time>
      </trkpt>
      <trkpt lat="44.96938" lon="4.29311">
        <ele>981</ele>
        <time>2017-04-23T13:19:35.000Z</time>
      </trkpt>
      <trkpt lat="44.96932" lon="4.29321">
        <ele>979</ele>
        <time>2017-04-23T13:19:43.000Z</time>
      </trkpt>
      <trkpt lat="44.96925" lon="4.29332">
        <ele>979</ele>
        <time>2017-04-23T13:19:53.000Z</time>
      </trkpt>
      <trkpt lat="44.96919" lon="4.29342">
        <ele>980</ele>
        <time>2017-04-23T13:20:01.000Z</time>
      </trkpt>
      <trkpt lat="44.96912" lon="4.29352">
        <ele>981</ele>
        <time>2017-04-23T13:20:09.000Z</time>
      </trkpt>
      <trkpt lat="44.96907" lon="4.29362">
        <ele>980</ele>
        <time>2017-04-23T13:20:18.000Z</time>
      </trkpt>
      <trkpt lat="44.96902" lon="4.29375">
        <ele>979</ele>
        <time>2017-04-23T13:20:27.000Z</time>
      </trkpt>
      <trkpt lat="44.96896" lon="4.29389">
        <ele>977</ele>
        <time>2017-04-23T13:20:38.000Z</time>
      </trkpt>
      <trkpt lat="44.96893" lon="4.29406">
        <ele>974</ele>
        <time>2017-04-23T13:20:47.000Z</time>
      </trkpt>
      <trkpt lat="44.96889" lon="4.29419">
        <ele>973</ele>
        <time>2017-04-23T13:20:55.000Z</time>
      </trkpt>
      <trkpt lat="44.96891" lon="4.29406">
        <ele>970</ele>
        <time>2017-04-23T13:22:13.000Z</time>
      </trkpt>
      <trkpt lat="44.96893" lon="4.29393">
        <ele>969</ele>
        <time>2017-04-23T13:22:32.000Z</time>
      </trkpt>
      <trkpt lat="44.96893" lon="4.2938">
        <ele>963</ele>
        <time>2017-04-23T13:23:23.000Z</time>
      </trkpt>
      <trkpt lat="44.96893" lon="4.29364">
        <ele>967</ele>
        <time>2017-04-23T13:23:37.000Z</time>
      </trkpt>
      <trkpt lat="44.96895" lon="4.29349">
        <ele>967</ele>
        <time>2017-04-23T13:23:46.000Z</time>
      </trkpt>
      <trkpt lat="44.96899" lon="4.29336">
        <ele>965</ele>
        <time>2017-04-23T13:23:53.000Z</time>
      </trkpt>
      <trkpt lat="44.96901" lon="4.29323">
        <ele>964</ele>
        <time>2017-04-23T13:24:01.000Z</time>
      </trkpt>
      <trkpt lat="44.96906" lon="4.29311">
        <ele>963</ele>
        <time>2017-04-23T13:24:13.000Z</time>
      </trkpt>
      <trkpt lat="44.96909" lon="4.29296">
        <ele>960</ele>
        <time>2017-04-23T13:24:22.000Z</time>
      </trkpt>
      <trkpt lat="44.969" lon="4.29296">
        <ele>954</ele>
        <time>2017-04-23T13:24:37.000Z</time>
      </trkpt>
      <trkpt lat="44.96888" lon="4.29307">
        <ele>952</ele>
        <time>2017-04-23T13:24:49.000Z</time>
      </trkpt>
      <trkpt lat="44.9688" lon="4.29314">
        <ele>952</ele>
        <time>2017-04-23T13:24:58.000Z</time>
      </trkpt>
      <trkpt lat="44.96872" lon="4.29324">
        <ele>951</ele>
        <time>2017-04-23T13:25:07.000Z</time>
      </trkpt>
      <trkpt lat="44.96866" lon="4.29336">
        <ele>951</ele>
        <time>2017-04-23T13:25:16.000Z</time>
      </trkpt>
      <trkpt lat="44.96869" lon="4.29322">
        <ele>942</ele>
        <time>2017-04-23T13:25:38.000Z</time>
      </trkpt>
      <trkpt lat="44.96871" lon="4.29308">
        <ele>942</ele>
        <time>2017-04-23T13:25:50.000Z</time>
      </trkpt>
      <trkpt lat="44.96874" lon="4.29294">
        <ele>939</ele>
        <time>2017-04-23T13:26:05.000Z</time>
      </trkpt>
      <trkpt lat="44.96875" lon="4.29282">
        <ele>939</ele>
        <time>2017-04-23T13:26:17.000Z</time>
      </trkpt>
      <trkpt lat="44.96869" lon="4.29273">
        <ele>939</ele>
        <time>2017-04-23T13:26:32.000Z</time>
      </trkpt>
      <trkpt lat="44.96862" lon="4.29281">
        <ele>939</ele>
        <time>2017-04-23T13:26:41.000Z</time>
      </trkpt>
      <trkpt lat="44.96848" lon="4.29299">
        <ele>939</ele>
        <time>2017-04-23T13:27:00.000Z</time>
      </trkpt>
      <trkpt lat="44.96841" lon="4.29311">
        <ele>937</ele>
        <time>2017-04-23T13:27:11.000Z</time>
      </trkpt>
      <trkpt lat="44.9683" lon="4.29327">
        <ele>935</ele>
        <time>2017-04-23T13:27:29.000Z</time>
      </trkpt>
      <trkpt lat="44.96825" lon="4.2934">
        <ele>934</ele>
        <time>2017-04-23T13:27:41.000Z</time>
      </trkpt>
      <trkpt lat="44.96822" lon="4.29352">
        <ele>927</ele>
        <time>2017-04-23T13:27:50.000Z</time>
      </trkpt>
      <trkpt lat="44.9682" lon="4.29337">
        <ele>923</ele>
        <time>2017-04-23T13:28:24.000Z</time>
      </trkpt>
      <trkpt lat="44.9682" lon="4.29322">
        <ele>923</ele>
        <time>2017-04-23T13:28:36.000Z</time>
      </trkpt>
      <trkpt lat="44.96816" lon="4.29311">
        <ele>923</ele>
        <time>2017-04-23T13:28:47.000Z</time>
      </trkpt>
      <trkpt lat="44.96813" lon="4.29298">
        <ele>921</ele>
        <time>2017-04-23T13:29:39.000Z</time>
      </trkpt>
      <trkpt lat="44.96812" lon="4.29273">
        <ele>917</ele>
        <time>2017-04-23T13:30:02.000Z</time>
      </trkpt>
      <trkpt lat="44.96814" lon="4.2926">
        <ele>914</ele>
        <time>2017-04-23T13:30:12.000Z</time>
      </trkpt>
      <trkpt lat="44.96814" lon="4.29246">
        <ele>912</ele>
        <time>2017-04-23T13:30:22.000Z</time>
      </trkpt>
      <trkpt lat="44.96805" lon="4.29243">
        <ele>910</ele>
        <time>2017-04-23T13:31:16.000Z</time>
      </trkpt>
      <trkpt lat="44.96797" lon="4.29254">
        <ele>911</ele>
        <time>2017-04-23T13:31:28.000Z</time>
      </trkpt>
      <trkpt lat="44.96789" lon="4.29261">
        <ele>912</ele>
        <time>2017-04-23T13:31:36.000Z</time>
      </trkpt>
      <trkpt lat="44.96779" lon="4.29269">
        <ele>914</ele>
        <time>2017-04-23T13:31:53.000Z</time>
      </trkpt>
      <trkpt lat="44.96777" lon="4.29282">
        <ele>911</ele>
        <time>2017-04-23T13:32:00.000Z</time>
      </trkpt>
      <trkpt lat="44.96775" lon="4.293">
        <ele>904</ele>
        <time>2017-04-23T13:32:12.000Z</time>
      </trkpt>
      <trkpt lat="44.96766" lon="4.29309">
        <ele>908</ele>
        <time>2017-04-23T13:32:32.000Z</time>
      </trkpt>
      <trkpt lat="44.96761" lon="4.29322">
        <ele>906</ele>
        <time>2017-04-23T13:32:41.000Z</time>
      </trkpt>
      <trkpt lat="44.96759" lon="4.29337">
        <ele>899</ele>
        <time>2017-04-23T13:32:52.000Z</time>
      </trkpt>
      <trkpt lat="44.96759" lon="4.29351">
        <ele>890</ele>
        <time>2017-04-23T13:33:01.000Z</time>
      </trkpt>
      <trkpt lat="44.96754" lon="4.29365">
        <ele>891</ele>
        <time>2017-04-23T13:33:12.000Z</time>
      </trkpt>
      <trkpt lat="44.96751" lon="4.29378">
        <ele>888</ele>
        <time>2017-04-23T13:33:26.000Z</time>
      </trkpt>
      <trkpt lat="44.96743" lon="4.29391">
        <ele>885</ele>
        <time>2017-04-23T13:33:45.000Z</time>
      </trkpt>
      <trkpt lat="44.96737" lon="4.29402">
        <ele>885</ele>
        <time>2017-04-23T13:34:01.000Z</time>
      </trkpt>
      <trkpt lat="44.96735" lon="4.29414">
        <ele>881</ele>
        <time>2017-04-23T13:34:20.000Z</time>
      </trkpt>
      <trkpt lat="44.96727" lon="4.29423">
        <ele>881</ele>
        <time>2017-04-23T13:34:57.000Z</time>
      </trkpt>
      <trkpt lat="44.9672" lon="4.29432">
        <ele>882</ele>
        <time>2017-04-23T13:35:07.000Z</time>
      </trkpt>
      <trkpt lat="44.96718" lon="4.29448">
        <ele>884</ele>
        <time>2017-04-23T13:35:16.000Z</time>
      </trkpt>
      <trkpt lat="44.96713" lon="4.29465">
        <ele>885</ele>
        <time>2017-04-23T13:35:28.000Z</time>
      </trkpt>
      <trkpt lat="44.96708" lon="4.29478">
        <ele>885</ele>
        <time>2017-04-23T13:35:38.000Z</time>
      </trkpt>
      <trkpt lat="44.96706" lon="4.29493">
        <ele>888</ele>
        <time>2017-04-23T13:35:46.000Z</time>
      </trkpt>
      <trkpt lat="44.96705" lon="4.29508">
        <ele>885</ele>
        <time>2017-04-23T13:35:55.000Z</time>
      </trkpt>
      <trkpt lat="44.96701" lon="4.29521">
        <ele>886</ele>
        <time>2017-04-23T13:36:08.000Z</time>
      </trkpt>
      <trkpt lat="44.96692" lon="4.29532">
        <ele>887</ele>
        <time>2017-04-23T13:36:21.000Z</time>
      </trkpt>
      <trkpt lat="44.96688" lon="4.29543">
        <ele>885</ele>
        <time>2017-04-23T13:36:30.000Z</time>
      </trkpt>
      <trkpt lat="44.96682" lon="4.29554">
        <ele>884</ele>
        <time>2017-04-23T13:36:42.000Z</time>
      </trkpt>
      <trkpt lat="44.96675" lon="4.29568">
        <ele>885</ele>
        <time>2017-04-23T13:36:55.000Z</time>
      </trkpt>
      <trkpt lat="44.96671" lon="4.29581">
        <ele>888</ele>
        <time>2017-04-23T13:37:05.000Z</time>
      </trkpt>
      <trkpt lat="44.96669" lon="4.29593">
        <ele>887</ele>
        <time>2017-04-23T13:37:16.000Z</time>
      </trkpt>
      <trkpt lat="44.96668" lon="4.29608">
        <ele>887</ele>
        <time>2017-04-23T13:37:25.000Z</time>
      </trkpt>
      <trkpt lat="44.96665" lon="4.29622">
        <ele>882</ele>
        <time>2017-04-23T13:37:38.000Z</time>
      </trkpt>
      <trkpt lat="44.96658" lon="4.29633">
        <ele>884</ele>
        <time>2017-04-23T13:37:51.000Z</time>
      </trkpt>
      <trkpt lat="44.96654" lon="4.29648">
        <ele>882</ele>
        <time>2017-04-23T13:38:02.000Z</time>
      </trkpt>
      <trkpt lat="44.96648" lon="4.2966">
        <ele>882</ele>
        <time>2017-04-23T13:38:14.000Z</time>
      </trkpt>
      <trkpt lat="44.96642" lon="4.29674">
        <ele>877</ele>
        <time>2017-04-23T13:38:37.000Z</time>
      </trkpt>
      <trkpt lat="44.96632" lon="4.29681">
        <ele>879</ele>
        <time>2017-04-23T13:38:46.000Z</time>
      </trkpt>
      <trkpt lat="44.96627" lon="4.29698">
        <ele>876</ele>
        <time>2017-04-23T13:38:59.000Z</time>
      </trkpt>
      <trkpt lat="44.96624" lon="4.29712">
        <ele>874</ele>
        <time>2017-04-23T13:39:12.000Z</time>
      </trkpt>
      <trkpt lat="44.96626" lon="4.29728">
        <ele>874</ele>
        <time>2017-04-23T13:39:26.000Z</time>
      </trkpt>
      <trkpt lat="44.96624" lon="4.29742">
        <ele>877</ele>
        <time>2017-04-23T13:39:36.000Z</time>
      </trkpt>
      <trkpt lat="44.9664" lon="4.29798">
        <ele>869</ele>
        <time>2017-04-23T13:40:26.000Z</time>
      </trkpt>
      <trkpt lat="44.96643" lon="4.2981">
        <ele>873</ele>
        <time>2017-04-23T13:40:40.000Z</time>
      </trkpt>
      <trkpt lat="44.96645" lon="4.29823">
        <ele>878</ele>
        <time>2017-04-23T13:40:55.000Z</time>
      </trkpt>
      <trkpt lat="44.96641" lon="4.29836">
        <ele>880</ele>
        <time>2017-04-23T13:41:10.000Z</time>
      </trkpt>
      <trkpt lat="44.96633" lon="4.29862">
        <ele>872</ele>
        <time>2017-04-23T13:41:31.000Z</time>
      </trkpt>
      <trkpt lat="44.96638" lon="4.29874">
        <ele>872</ele>
        <time>2017-04-23T13:41:58.000Z</time>
      </trkpt>
      <trkpt lat="44.96631" lon="4.29886">
        <ele>875</ele>
        <time>2017-04-23T13:42:56.000Z</time>
      </trkpt>
      <trkpt lat="44.96626" lon="4.29899">
        <ele>872</ele>
        <time>2017-04-23T13:43:07.000Z</time>
      </trkpt>
      <trkpt lat="44.96621" lon="4.2991">
        <ele>872</ele>
        <time>2017-04-23T13:43:15.000Z</time>
      </trkpt>
      <trkpt lat="44.96622" lon="4.29924">
        <ele>858</ele>
        <time>2017-04-23T13:43:21.000Z</time>
      </trkpt>
      <trkpt lat="44.96618" lon="4.29941">
        <ele>853</ele>
        <time>2017-04-23T13:43:31.000Z</time>
      </trkpt>
      <trkpt lat="44.96613" lon="4.29952">
        <ele>854</ele>
        <time>2017-04-23T13:43:39.000Z</time>
      </trkpt>
      <trkpt lat="44.96606" lon="4.29962">
        <ele>857</ele>
        <time>2017-04-23T13:43:48.000Z</time>
      </trkpt>
      <trkpt lat="44.96603" lon="4.29983">
        <ele>860</ele>
        <time>2017-04-23T13:43:59.000Z</time>
      </trkpt>
      <trkpt lat="44.96606" lon="4.29995">
        <ele>860</ele>
        <time>2017-04-23T13:44:04.000Z</time>
      </trkpt>
      <trkpt lat="44.96609" lon="4.30009">
        <ele>859</ele>
        <time>2017-04-23T13:44:10.000Z</time>
      </trkpt>
      <trkpt lat="44.96614" lon="4.30022">
        <ele>855</ele>
        <time>2017-04-23T13:44:16.000Z</time>
      </trkpt>
      <trkpt lat="44.96618" lon="4.30037">
        <ele>856</ele>
        <time>2017-04-23T13:44:26.000Z</time>
      </trkpt>
      <trkpt lat="44.96622" lon="4.30053">
        <ele>849</ele>
        <time>2017-04-23T13:44:35.000Z</time>
      </trkpt>
      <trkpt lat="44.96625" lon="4.30065">
        <ele>844</ele>
        <time>2017-04-23T13:44:42.000Z</time>
      </trkpt>
      <trkpt lat="44.96625" lon="4.30081">
        <ele>841</ele>
        <time>2017-04-23T13:44:50.000Z</time>
      </trkpt>
      <trkpt lat="44.96624" lon="4.30096">
        <ele>841</ele>
        <time>2017-04-23T13:44:59.000Z</time>
      </trkpt>
      <trkpt lat="44.9663" lon="4.3011">
        <ele>838</ele>
        <time>2017-04-23T13:45:09.000Z</time>
      </trkpt>
      <trkpt lat="44.96636" lon="4.30122">
        <ele>835</ele>
        <time>2017-04-23T13:45:18.000Z</time>
      </trkpt>
      <trkpt lat="44.96641" lon="4.30137">
        <ele>833</ele>
        <time>2017-04-23T13:45:29.000Z</time>
      </trkpt>
      <trkpt lat="44.96645" lon="4.30151">
        <ele>834</ele>
        <time>2017-04-23T13:45:40.000Z</time>
      </trkpt>
      <trkpt lat="44.9666" lon="4.3018">
        <ele>828</ele>
        <time>2017-04-23T13:46:01.000Z</time>
      </trkpt>
      <trkpt lat="44.96666" lon="4.30192">
        <ele>827</ele>
        <time>2017-04-23T13:46:10.000Z</time>
      </trkpt>
      <trkpt lat="44.96674" lon="4.30204">
        <ele>827</ele>
        <time>2017-04-23T13:46:20.000Z</time>
      </trkpt>
      <trkpt lat="44.96684" lon="4.30215">
        <ele>830</ele>
        <time>2017-04-23T13:46:32.000Z</time>
      </trkpt>
      <trkpt lat="44.96693" lon="4.30223">
        <ele>832</ele>
        <time>2017-04-23T13:46:41.000Z</time>
      </trkpt>
      <trkpt lat="44.967" lon="4.30233">
        <ele>832</ele>
        <time>2017-04-23T13:46:50.000Z</time>
      </trkpt>
      <trkpt lat="44.96707" lon="4.30243">
        <ele>832</ele>
        <time>2017-04-23T13:46:59.000Z</time>
      </trkpt>
      <trkpt lat="44.96712" lon="4.30254">
        <ele>832</ele>
        <time>2017-04-23T13:47:08.000Z</time>
      </trkpt>
      <trkpt lat="44.96718" lon="4.30266">
        <ele>831</ele>
        <time>2017-04-23T13:47:17.000Z</time>
      </trkpt>
      <trkpt lat="44.96724" lon="4.30276">
        <ele>833</ele>
        <time>2017-04-23T13:47:38.000Z</time>
      </trkpt>
      <trkpt lat="44.9673" lon="4.30287">
        <ele>831</ele>
        <time>2017-04-23T13:48:30.000Z</time>
      </trkpt>
      <trkpt lat="44.96735" lon="4.30297">
        <ele>829</ele>
        <time>2017-04-23T13:48:39.000Z</time>
      </trkpt>
      <trkpt lat="44.9674" lon="4.30309">
        <ele>827</ele>
        <time>2017-04-23T13:48:48.000Z</time>
      </trkpt>
      <trkpt lat="44.96745" lon="4.30323">
        <ele>823</ele>
        <time>2017-04-23T13:49:00.000Z</time>
      </trkpt>
      <trkpt lat="44.96749" lon="4.30336">
        <ele>822</ele>
        <time>2017-04-23T13:49:09.000Z</time>
      </trkpt>
      <trkpt lat="44.96753" lon="4.3035">
        <ele>822</ele>
        <time>2017-04-23T13:49:46.000Z</time>
      </trkpt>
      <trkpt lat="44.96757" lon="4.30363">
        <ele>824</ele>
        <time>2017-04-23T13:49:55.000Z</time>
      </trkpt>
      <trkpt lat="44.96761" lon="4.30376">
        <ele>823</ele>
        <time>2017-04-23T13:50:04.000Z</time>
      </trkpt>
      <trkpt lat="44.96766" lon="4.30391">
        <ele>822</ele>
        <time>2017-04-23T13:50:13.000Z</time>
      </trkpt>
      <trkpt lat="44.96768" lon="4.30405">
        <ele>821</ele>
        <time>2017-04-23T13:50:22.000Z</time>
      </trkpt>
      <trkpt lat="44.9677" lon="4.30421">
        <ele>821</ele>
        <time>2017-04-23T13:50:35.000Z</time>
      </trkpt>
      <trkpt lat="44.96771" lon="4.30434">
        <ele>819</ele>
        <time>2017-04-23T13:50:49.000Z</time>
      </trkpt>
      <trkpt lat="44.96772" lon="4.30448">
        <ele>818</ele>
        <time>2017-04-23T13:50:58.000Z</time>
      </trkpt>
      <trkpt lat="44.96775" lon="4.30462">
        <ele>820</ele>
        <time>2017-04-23T13:51:08.000Z</time>
      </trkpt>
      <trkpt lat="44.96779" lon="4.30477">
        <ele>818</ele>
        <time>2017-04-23T13:51:18.000Z</time>
      </trkpt>
      <trkpt lat="44.96785" lon="4.30493">
        <ele>817</ele>
        <time>2017-04-23T13:51:27.000Z</time>
      </trkpt>
      <trkpt lat="44.96787" lon="4.30508">
        <ele>819</ele>
        <time>2017-04-23T13:51:36.000Z</time>
      </trkpt>
      <trkpt lat="44.96786" lon="4.30543">
        <ele>819</ele>
        <time>2017-04-23T13:51:57.000Z</time>
      </trkpt>
      <trkpt lat="44.96793" lon="4.30553">
        <ele>818</ele>
        <time>2017-04-23T13:52:07.000Z</time>
      </trkpt>
      <trkpt lat="44.96801" lon="4.30561">
        <ele>819</ele>
        <time>2017-04-23T13:52:15.000Z</time>
      </trkpt>
      <trkpt lat="44.96814" lon="4.30575">
        <ele>821</ele>
        <time>2017-04-23T13:52:29.000Z</time>
      </trkpt>
      <trkpt lat="44.96823" lon="4.30586">
        <ele>817</ele>
        <time>2017-04-23T13:52:41.000Z</time>
      </trkpt>
      <trkpt lat="44.9683" lon="4.30597">
        <ele>816</ele>
        <time>2017-04-23T13:52:50.000Z</time>
      </trkpt>
      <trkpt lat="44.96838" lon="4.30611">
        <ele>818</ele>
        <time>2017-04-23T13:53:01.000Z</time>
      </trkpt>
      <trkpt lat="44.96845" lon="4.30625">
        <ele>817</ele>
        <time>2017-04-23T13:53:11.000Z</time>
      </trkpt>
      <trkpt lat="44.96847" lon="4.30642">
        <ele>818</ele>
        <time>2017-04-23T13:53:21.000Z</time>
      </trkpt>
      <trkpt lat="44.96845" lon="4.30658">
        <ele>821</ele>
        <time>2017-04-23T13:53:30.000Z</time>
      </trkpt>
      <trkpt lat="44.96842" lon="4.30671">
        <ele>821</ele>
        <time>2017-04-23T13:53:38.000Z</time>
      </trkpt>
      <trkpt lat="44.96843" lon="4.30683">
        <ele>818</ele>
        <time>2017-04-23T13:53:45.000Z</time>
      </trkpt>
      <trkpt lat="44.96846" lon="4.30696">
        <ele>814</ele>
        <time>2017-04-23T13:53:54.000Z</time>
      </trkpt>
      <trkpt lat="44.96851" lon="4.30711">
        <ele>815</ele>
        <time>2017-04-23T13:54:05.000Z</time>
      </trkpt>
      <trkpt lat="44.96845" lon="4.30721">
        <ele>812</ele>
        <time>2017-04-23T13:54:25.000Z</time>
      </trkpt>
      <trkpt lat="44.96835" lon="4.30708">
        <ele>815</ele>
        <time>2017-04-23T13:55:22.000Z</time>
      </trkpt>
      <trkpt lat="44.96824" lon="4.30711">
        <ele>815</ele>
        <time>2017-04-23T13:55:33.000Z</time>
      </trkpt>
      <trkpt lat="44.96814" lon="4.3071">
        <ele>813</ele>
        <time>2017-04-23T13:55:43.000Z</time>
      </trkpt>
      <trkpt lat="44.96805" lon="4.30714">
        <ele>813</ele>
        <time>2017-04-23T13:55:52.000Z</time>
      </trkpt>
      <trkpt lat="44.96795" lon="4.30719">
        <ele>812</ele>
        <time>2017-04-23T13:56:06.000Z</time>
      </trkpt>
      <trkpt lat="44.96805" lon="4.30716">
        <ele>818</ele>
        <time>2017-04-23T13:57:58.000Z</time>
      </trkpt>
      <trkpt lat="44.96814" lon="4.30714">
        <ele>816</ele>
        <time>2017-04-23T13:58:33.000Z</time>
      </trkpt>
      <trkpt lat="44.96832" lon="4.30712">
        <ele>819</ele>
        <time>2017-04-23T13:59:00.000Z</time>
      </trkpt>
      <trkpt lat="44.96835" lon="4.30725">
        <ele>826</ele>
        <time>2017-04-23T13:59:30.000Z</time>
      </trkpt>
      <trkpt lat="44.96846" lon="4.30727">
        <ele>823</ele>
        <time>2017-04-23T13:59:57.000Z</time>
      </trkpt>
      <trkpt lat="44.96855" lon="4.30729">
        <ele>822</ele>
        <time>2017-04-23T14:00:45.000Z</time>
      </trkpt>
      <trkpt lat="44.96859" lon="4.30741">
        <ele>821</ele>
        <time>2017-04-23T14:07:13.000Z</time>
      </trkpt>
      <trkpt lat="44.96863" lon="4.30757">
        <ele>824</ele>
        <time>2017-04-23T14:09:16.000Z</time>
      </trkpt>
      <trkpt lat="44.96866" lon="4.30772">
        <ele>818</ele>
        <time>2017-04-23T14:09:32.000Z</time>
      </trkpt>
      <trkpt lat="44.96867" lon="4.30787">
        <ele>817</ele>
        <time>2017-04-23T14:09:43.000Z</time>
      </trkpt>
      <trkpt lat="44.96865" lon="4.30802">
        <ele>817</ele>
        <time>2017-04-23T14:09:55.000Z</time>
      </trkpt>
      <trkpt lat="44.96864" lon="4.30817">
        <ele>813</ele>
        <time>2017-04-23T14:10:06.000Z</time>
      </trkpt>
      <trkpt lat="44.96865" lon="4.30833">
        <ele>815</ele>
        <time>2017-04-23T14:10:16.000Z</time>
      </trkpt>
      <trkpt lat="44.96866" lon="4.30848">
        <ele>813</ele>
        <time>2017-04-23T14:10:28.000Z</time>
      </trkpt>
      <trkpt lat="44.96866" lon="4.30862">
        <ele>813</ele>
        <time>2017-04-23T14:10:38.000Z</time>
      </trkpt>
      <trkpt lat="44.96865" lon="4.30876">
        <ele>812</ele>
        <time>2017-04-23T14:10:47.000Z</time>
      </trkpt>
      <trkpt lat="44.96865" lon="4.30891">
        <ele>812</ele>
        <time>2017-04-23T14:10:57.000Z</time>
      </trkpt>
      <trkpt lat="44.96866" lon="4.30919">
        <ele>810</ele>
        <time>2017-04-23T14:11:14.000Z</time>
      </trkpt>
      <trkpt lat="44.96866" lon="4.30933">
        <ele>808</ele>
        <time>2017-04-23T14:11:21.000Z</time>
      </trkpt>
      <trkpt lat="44.96866" lon="4.30949">
        <ele>811</ele>
        <time>2017-04-23T14:11:31.000Z</time>
      </trkpt>
      <trkpt lat="44.96865" lon="4.30962">
        <ele>809</ele>
        <time>2017-04-23T14:11:46.000Z</time>
      </trkpt>
      <trkpt lat="44.96866" lon="4.30977">
        <ele>806</ele>
        <time>2017-04-23T14:11:54.000Z</time>
      </trkpt>
      <trkpt lat="44.96868" lon="4.3099">
        <ele>805</ele>
        <time>2017-04-23T14:12:01.000Z</time>
      </trkpt>
      <trkpt lat="44.96869" lon="4.31002">
        <ele>806</ele>
        <time>2017-04-23T14:12:08.000Z</time>
      </trkpt>
      <trkpt lat="44.96872" lon="4.31017">
        <ele>805</ele>
        <time>2017-04-23T14:12:17.000Z</time>
      </trkpt>
      <trkpt lat="44.96877" lon="4.31028">
        <ele>803</ele>
        <time>2017-04-23T14:12:26.000Z</time>
      </trkpt>
      <trkpt lat="44.96885" lon="4.31039">
        <ele>805</ele>
        <time>2017-04-23T14:12:35.000Z</time>
      </trkpt>
      <trkpt lat="44.96893" lon="4.3105">
        <ele>804</ele>
        <time>2017-04-23T14:12:44.000Z</time>
      </trkpt>
      <trkpt lat="44.96897" lon="4.31064">
        <ele>805</ele>
        <time>2017-04-23T14:12:53.000Z</time>
      </trkpt>
      <trkpt lat="44.96901" lon="4.31079">
        <ele>809</ele>
        <time>2017-04-23T14:13:14.000Z</time>
      </trkpt>
      <trkpt lat="44.96906" lon="4.3109">
        <ele>806</ele>
        <time>2017-04-23T14:13:26.000Z</time>
      </trkpt>
      <trkpt lat="44.96911" lon="4.31111">
        <ele>808</ele>
        <time>2017-04-23T14:13:42.000Z</time>
      </trkpt>
      <trkpt lat="44.96911" lon="4.31124">
        <ele>812</ele>
        <time>2017-04-23T14:13:51.000Z</time>
      </trkpt>
      <trkpt lat="44.96912" lon="4.31139">
        <ele>814</ele>
        <time>2017-04-23T14:14:03.000Z</time>
      </trkpt>
      <trkpt lat="44.96914" lon="4.31158">
        <ele>809</ele>
        <time>2017-04-23T14:14:13.000Z</time>
      </trkpt>
      <trkpt lat="44.96914" lon="4.31172">
        <ele>807</ele>
        <time>2017-04-23T14:14:22.000Z</time>
      </trkpt>
      <trkpt lat="44.96915" lon="4.31185">
        <ele>805</ele>
        <time>2017-04-23T14:14:31.000Z</time>
      </trkpt>
      <trkpt lat="44.96922" lon="4.31194">
        <ele>804</ele>
        <time>2017-04-23T14:14:39.000Z</time>
      </trkpt>
      <trkpt lat="44.96928" lon="4.31204">
        <ele>808</ele>
        <time>2017-04-23T14:14:54.000Z</time>
      </trkpt>
      <trkpt lat="44.96932" lon="4.31216">
        <ele>806</ele>
        <time>2017-04-23T14:15:08.000Z</time>
      </trkpt>
      <trkpt lat="44.96934" lon="4.3123">
        <ele>807</ele>
        <time>2017-04-23T14:15:19.000Z</time>
      </trkpt>
      <trkpt lat="44.96937" lon="4.31243">
        <ele>804</ele>
        <time>2017-04-23T14:15:41.000Z</time>
      </trkpt>
      <trkpt lat="44.96934" lon="4.31257">
        <ele>803</ele>
        <time>2017-04-23T14:16:00.000Z</time>
      </trkpt>
      <trkpt lat="44.96936" lon="4.31287">
        <ele>800</ele>
        <time>2017-04-23T14:16:21.000Z</time>
      </trkpt>
      <trkpt lat="44.96938" lon="4.31303">
        <ele>797</ele>
        <time>2017-04-23T14:16:35.000Z</time>
      </trkpt>
      <trkpt lat="44.96941" lon="4.31315">
        <ele>794</ele>
        <time>2017-04-23T14:16:50.000Z</time>
      </trkpt>
      <trkpt lat="44.96946" lon="4.31328">
        <ele>789</ele>
        <time>2017-04-23T14:17:12.000Z</time>
      </trkpt>
      <trkpt lat="44.9695" lon="4.3134">
        <ele>791</ele>
        <time>2017-04-23T14:17:22.000Z</time>
      </trkpt>
      <trkpt lat="44.96959" lon="4.31345">
        <ele>792</ele>
        <time>2017-04-23T14:19:14.000Z</time>
      </trkpt>
      <trkpt lat="44.96968" lon="4.31351">
        <ele>791</ele>
        <time>2017-04-23T14:19:21.000Z</time>
      </trkpt>
      <trkpt lat="44.96977" lon="4.31363">
        <ele>789</ele>
        <time>2017-04-23T14:19:30.000Z</time>
      </trkpt>
      <trkpt lat="44.96986" lon="4.31392">
        <ele>792</ele>
        <time>2017-04-23T14:19:48.000Z</time>
      </trkpt>
      <trkpt lat="44.96988" lon="4.31408">
        <ele>792</ele>
        <time>2017-04-23T14:19:57.000Z</time>
      </trkpt>
      <trkpt lat="44.96993" lon="4.31422">
        <ele>788</ele>
        <time>2017-04-23T14:20:09.000Z</time>
      </trkpt>
      <trkpt lat="44.96996" lon="4.3144">
        <ele>789</ele>
        <time>2017-04-23T14:20:17.000Z</time>
      </trkpt>
      <trkpt lat="44.96997" lon="4.31454">
        <ele>789</ele>
        <time>2017-04-23T14:20:24.000Z</time>
      </trkpt>
      <trkpt lat="44.96999" lon="4.31468">
        <ele>790</ele>
        <time>2017-04-23T14:20:30.000Z</time>
      </trkpt>
      <trkpt lat="44.97004" lon="4.31484">
        <ele>786</ele>
        <time>2017-04-23T14:20:40.000Z</time>
      </trkpt>
      <trkpt lat="44.97006" lon="4.315">
        <ele>787</ele>
        <time>2017-04-23T14:20:48.000Z</time>
      </trkpt>
      <trkpt lat="44.97006" lon="4.31518">
        <ele>792</ele>
        <time>2017-04-23T14:20:55.000Z</time>
      </trkpt>
      <trkpt lat="44.97004" lon="4.31535">
        <ele>794</ele>
        <time>2017-04-23T14:21:04.000Z</time>
      </trkpt>
      <trkpt lat="44.97001" lon="4.31552">
        <ele>792</ele>
        <time>2017-04-23T14:21:19.000Z</time>
      </trkpt>
      <trkpt lat="44.97006" lon="4.3162">
        <ele>782</ele>
        <time>2017-04-23T14:22:02.000Z</time>
      </trkpt>
      <trkpt lat="44.97007" lon="4.31633">
        <ele>782</ele>
        <time>2017-04-23T14:22:11.000Z</time>
      </trkpt>
      <trkpt lat="44.9701" lon="4.31661">
        <ele>783</ele>
        <time>2017-04-23T14:22:29.000Z</time>
      </trkpt>
      <trkpt lat="44.97014" lon="4.31674">
        <ele>783</ele>
        <time>2017-04-23T14:22:38.000Z</time>
      </trkpt>
      <trkpt lat="44.97022" lon="4.31684">
        <ele>783</ele>
        <time>2017-04-23T14:22:51.000Z</time>
      </trkpt>
      <trkpt lat="44.97018" lon="4.31697">
        <ele>783</ele>
        <time>2017-04-23T14:23:16.000Z</time>
      </trkpt>
      <trkpt lat="44.97011" lon="4.31711">
        <ele>781</ele>
        <time>2017-04-23T14:23:26.000Z</time>
      </trkpt>
      <trkpt lat="44.97016" lon="4.31721">
        <ele>778</ele>
        <time>2017-04-23T14:23:37.000Z</time>
      </trkpt>
      <trkpt lat="44.97018" lon="4.31736">
        <ele>777</ele>
        <time>2017-04-23T14:23:47.000Z</time>
      </trkpt>
      <trkpt lat="44.97018" lon="4.31749">
        <ele>776</ele>
        <time>2017-04-23T14:23:57.000Z</time>
      </trkpt>
      <trkpt lat="44.97022" lon="4.31762">
        <ele>776</ele>
        <time>2017-04-23T14:24:08.000Z</time>
      </trkpt>
      <trkpt lat="44.97026" lon="4.31774">
        <ele>775</ele>
        <time>2017-04-23T14:24:17.000Z</time>
      </trkpt>
      <trkpt lat="44.9703" lon="4.31788">
        <ele>776</ele>
        <time>2017-04-23T14:24:28.000Z</time>
      </trkpt>
      <trkpt lat="44.97032" lon="4.31801">
        <ele>776</ele>
        <time>2017-04-23T14:24:37.000Z</time>
      </trkpt>
      <trkpt lat="44.97036" lon="4.31814">
        <ele>776</ele>
        <time>2017-04-23T14:24:46.000Z</time>
      </trkpt>
      <trkpt lat="44.97039" lon="4.31826">
        <ele>776</ele>
        <time>2017-04-23T14:24:55.000Z</time>
      </trkpt>
      <trkpt lat="44.97043" lon="4.31838">
        <ele>776</ele>
        <time>2017-04-23T14:25:04.000Z</time>
      </trkpt>
      <trkpt lat="44.97049" lon="4.31848">
        <ele>776</ele>
        <time>2017-04-23T14:25:13.000Z</time>
      </trkpt>
      <trkpt lat="44.97055" lon="4.31858">
        <ele>775</ele>
        <time>2017-04-23T14:25:22.000Z</time>
      </trkpt>
      <trkpt lat="44.97059" lon="4.3187">
        <ele>776</ele>
        <time>2017-04-23T14:25:31.000Z</time>
      </trkpt>
      <trkpt lat="44.97065" lon="4.3188">
        <ele>776</ele>
        <time>2017-04-23T14:25:42.000Z</time>
      </trkpt>
      <trkpt lat="44.97068" lon="4.31893">
        <ele>774</ele>
        <time>2017-04-23T14:25:56.000Z</time>
      </trkpt>
      <trkpt lat="44.97073" lon="4.31904">
        <ele>778</ele>
        <time>2017-04-23T14:26:07.000Z</time>
      </trkpt>
      <trkpt lat="44.97075" lon="4.31918">
        <ele>779</ele>
        <time>2017-04-23T14:26:17.000Z</time>
      </trkpt>
      <trkpt lat="44.97077" lon="4.31948">
        <ele>778</ele>
        <time>2017-04-23T14:26:36.000Z</time>
      </trkpt>
      <trkpt lat="44.97076" lon="4.31964">
        <ele>779</ele>
        <time>2017-04-23T14:26:46.000Z</time>
      </trkpt>
      <trkpt lat="44.97076" lon="4.3198">
        <ele>779</ele>
        <time>2017-04-23T14:26:57.000Z</time>
      </trkpt>
      <trkpt lat="44.97076" lon="4.31993">
        <ele>769</ele>
        <time>2017-04-23T14:28:33.000Z</time>
      </trkpt>
      <trkpt lat="44.97076" lon="4.32007">
        <ele>773</ele>
        <time>2017-04-23T14:29:36.000Z</time>
      </trkpt>
      <trkpt lat="44.97081" lon="4.32018">
        <ele>776</ele>
        <time>2017-04-23T14:29:47.000Z</time>
      </trkpt>
      <trkpt lat="44.97081" lon="4.32031">
        <ele>778</ele>
        <time>2017-04-23T14:29:56.000Z</time>
      </trkpt>
      <trkpt lat="44.97081" lon="4.32049">
        <ele>773</ele>
        <time>2017-04-23T14:30:07.000Z</time>
      </trkpt>
      <trkpt lat="44.97084" lon="4.32062">
        <ele>773</ele>
        <time>2017-04-23T14:30:15.000Z</time>
      </trkpt>
      <trkpt lat="44.97083" lon="4.32081">
        <ele>774</ele>
        <time>2017-04-23T14:30:24.000Z</time>
      </trkpt>
      <trkpt lat="44.97083" lon="4.32094">
        <ele>775</ele>
        <time>2017-04-23T14:30:33.000Z</time>
      </trkpt>
      <trkpt lat="44.97087" lon="4.3211">
        <ele>771</ele>
        <time>2017-04-23T14:30:43.000Z</time>
      </trkpt>
      <trkpt lat="44.97086" lon="4.32125">
        <ele>769</ele>
        <time>2017-04-23T14:30:51.000Z</time>
      </trkpt>
      <trkpt lat="44.97087" lon="4.32141">
        <ele>769</ele>
        <time>2017-04-23T14:31:00.000Z</time>
      </trkpt>
      <trkpt lat="44.97093" lon="4.32164">
        <ele>769</ele>
        <time>2017-04-23T14:31:15.000Z</time>
      </trkpt>
      <trkpt lat="44.97094" lon="4.32179">
        <ele>765</ele>
        <time>2017-04-23T14:31:27.000Z</time>
      </trkpt>
      <trkpt lat="44.97092" lon="4.32195">
        <ele>765</ele>
        <time>2017-04-23T14:31:36.000Z</time>
      </trkpt>
      <trkpt lat="44.97092" lon="4.32209">
        <ele>764</ele>
        <time>2017-04-23T14:31:44.000Z</time>
      </trkpt>
      <trkpt lat="44.97094" lon="4.32222">
        <ele>764</ele>
        <time>2017-04-23T14:33:07.000Z</time>
      </trkpt>
      <trkpt lat="44.97094" lon="4.32261">
        <ele>761</ele>
        <time>2017-04-23T14:33:28.000Z</time>
      </trkpt>
      <trkpt lat="44.97096" lon="4.32275">
        <ele>760</ele>
        <time>2017-04-23T14:33:37.000Z</time>
      </trkpt>
      <trkpt lat="44.97089" lon="4.32288">
        <ele>761</ele>
        <time>2017-04-23T14:33:49.000Z</time>
      </trkpt>
      <trkpt lat="44.97086" lon="4.32301">
        <ele>760</ele>
        <time>2017-04-23T14:34:16.000Z</time>
      </trkpt>
      <trkpt lat="44.97084" lon="4.32314">
        <ele>758</ele>
        <time>2017-04-23T14:34:43.000Z</time>
      </trkpt>
      <trkpt lat="44.97078" lon="4.32329">
        <ele>757</ele>
        <time>2017-04-23T14:34:55.000Z</time>
      </trkpt>
      <trkpt lat="44.97074" lon="4.32346">
        <ele>755</ele>
        <time>2017-04-23T14:35:04.000Z</time>
      </trkpt>
      <trkpt lat="44.97065" lon="4.32356">
        <ele>756</ele>
        <time>2017-04-23T14:35:12.000Z</time>
      </trkpt>
      <trkpt lat="44.97059" lon="4.32368">
        <ele>753</ele>
        <time>2017-04-23T14:35:26.000Z</time>
      </trkpt>
      <trkpt lat="44.97058" lon="4.32382">
        <ele>754</ele>
        <time>2017-04-23T14:35:51.000Z</time>
      </trkpt>
      <trkpt lat="44.97055" lon="4.32395">
        <ele>756</ele>
        <time>2017-04-23T14:36:00.000Z</time>
      </trkpt>
      <trkpt lat="44.97054" lon="4.32408">
        <ele>756</ele>
        <time>2017-04-23T14:36:08.000Z</time>
      </trkpt>
      <trkpt lat="44.97051" lon="4.32424">
        <ele>756</ele>
        <time>2017-04-23T14:36:20.000Z</time>
      </trkpt>
      <trkpt lat="44.97047" lon="4.32439">
        <ele>752</ele>
        <time>2017-04-23T14:36:31.000Z</time>
      </trkpt>
      <trkpt lat="44.97041" lon="4.32451">
        <ele>757</ele>
        <time>2017-04-23T14:36:37.000Z</time>
      </trkpt>
      <trkpt lat="44.97037" lon="4.32467">
        <ele>756</ele>
        <time>2017-04-23T14:36:46.000Z</time>
      </trkpt>
      <trkpt lat="44.97032" lon="4.32484">
        <ele>755</ele>
        <time>2017-04-23T14:36:55.000Z</time>
      </trkpt>
      <trkpt lat="44.97028" lon="4.32497">
        <ele>755</ele>
        <time>2017-04-23T14:37:02.000Z</time>
      </trkpt>
      <trkpt lat="44.97004" lon="4.32555">
        <ele>758</ele>
        <time>2017-04-23T14:37:38.000Z</time>
      </trkpt>
      <trkpt lat="44.96998" lon="4.32565">
        <ele>759</ele>
        <time>2017-04-23T14:37:46.000Z</time>
      </trkpt>
      <trkpt lat="44.96993" lon="4.32577">
        <ele>760</ele>
        <time>2017-04-23T14:37:54.000Z</time>
      </trkpt>
      <trkpt lat="44.96985" lon="4.32587">
        <ele>760</ele>
        <time>2017-04-23T14:38:02.000Z</time>
      </trkpt>
      <trkpt lat="44.96977" lon="4.32592">
        <ele>758</ele>
        <time>2017-04-23T14:38:11.000Z</time>
      </trkpt>
      <trkpt lat="44.96967" lon="4.32632">
        <ele>752</ele>
        <time>2017-04-23T14:39:00.000Z</time>
      </trkpt>
      <trkpt lat="44.96967" lon="4.32645">
        <ele>751</ele>
        <time>2017-04-23T14:39:07.000Z</time>
      </trkpt>
      <trkpt lat="44.96965" lon="4.32665">
        <ele>749</ele>
        <time>2017-04-23T14:39:18.000Z</time>
      </trkpt>
      <trkpt lat="44.96966" lon="4.32677">
        <ele>749</ele>
        <time>2017-04-23T14:40:17.000Z</time>
      </trkpt>
      <trkpt lat="44.96968" lon="4.32693">
        <ele>749</ele>
        <time>2017-04-23T14:40:28.000Z</time>
      </trkpt>
      <trkpt lat="44.96967" lon="4.32711">
        <ele>751</ele>
        <time>2017-04-23T14:40:44.000Z</time>
      </trkpt>
      <trkpt lat="44.96967" lon="4.32737">
        <ele>753</ele>
        <time>2017-04-23T14:41:01.000Z</time>
      </trkpt>
      <trkpt lat="44.96964" lon="4.32751">
        <ele>751</ele>
        <time>2017-04-23T14:41:09.000Z</time>
      </trkpt>
      <trkpt lat="44.96964" lon="4.32765">
        <ele>751</ele>
        <time>2017-04-23T14:41:17.000Z</time>
      </trkpt>
      <trkpt lat="44.96965" lon="4.32792">
        <ele>746</ele>
        <time>2017-04-23T14:41:37.000Z</time>
      </trkpt>
      <trkpt lat="44.96969" lon="4.32808">
        <ele>745</ele>
        <time>2017-04-23T14:41:50.000Z</time>
      </trkpt>
      <trkpt lat="44.96974" lon="4.3282">
        <ele>742</ele>
        <time>2017-04-23T14:42:00.000Z</time>
      </trkpt>
      <trkpt lat="44.96978" lon="4.32832">
        <ele>742</ele>
        <time>2017-04-23T14:42:10.000Z</time>
      </trkpt>
      <trkpt lat="44.96984" lon="4.32844">
        <ele>746</ele>
        <time>2017-04-23T14:42:28.000Z</time>
      </trkpt>
      <trkpt lat="44.96991" lon="4.32857">
        <ele>742</ele>
        <time>2017-04-23T14:42:47.000Z</time>
      </trkpt>
      <trkpt lat="44.96997" lon="4.32869">
        <ele>741</ele>
        <time>2017-04-23T14:42:58.000Z</time>
      </trkpt>
      <trkpt lat="44.97001" lon="4.32886">
        <ele>745</ele>
        <time>2017-04-23T14:43:13.000Z</time>
      </trkpt>
      <trkpt lat="44.97005" lon="4.32899">
        <ele>746</ele>
        <time>2017-04-23T14:43:21.000Z</time>
      </trkpt>
      <trkpt lat="44.9701" lon="4.32914">
        <ele>745</ele>
        <time>2017-04-23T14:43:31.000Z</time>
      </trkpt>
      <trkpt lat="44.97014" lon="4.32934">
        <ele>746</ele>
        <time>2017-04-23T14:43:44.000Z</time>
      </trkpt>
      <trkpt lat="44.9702" lon="4.32946">
        <ele>748</ele>
        <time>2017-04-23T14:43:52.000Z</time>
      </trkpt>
      <trkpt lat="44.97029" lon="4.32955">
        <ele>744</ele>
        <time>2017-04-23T14:44:04.000Z</time>
      </trkpt>
      <trkpt lat="44.97038" lon="4.32958">
        <ele>745</ele>
        <time>2017-04-23T14:44:16.000Z</time>
      </trkpt>
      <trkpt lat="44.97048" lon="4.32961">
        <ele>744</ele>
        <time>2017-04-23T14:44:23.000Z</time>
      </trkpt>
      <trkpt lat="44.97059" lon="4.32971">
        <ele>747</ele>
        <time>2017-04-23T14:44:32.000Z</time>
      </trkpt>
      <trkpt lat="44.9707" lon="4.3298">
        <ele>750</ele>
        <time>2017-04-23T14:44:42.000Z</time>
      </trkpt>
      <trkpt lat="44.97079" lon="4.32986">
        <ele>754</ele>
        <time>2017-04-23T14:44:50.000Z</time>
      </trkpt>
      <trkpt lat="44.97089" lon="4.32987">
        <ele>753</ele>
        <time>2017-04-23T14:45:02.000Z</time>
      </trkpt>
      <trkpt lat="44.97099" lon="4.32986">
        <ele>752</ele>
        <time>2017-04-23T14:45:10.000Z</time>
      </trkpt>
      <trkpt lat="44.97109" lon="4.32983">
        <ele>752</ele>
        <time>2017-04-23T14:45:19.000Z</time>
      </trkpt>
      <trkpt lat="44.97118" lon="4.32984">
        <ele>753</ele>
        <time>2017-04-23T14:45:25.000Z</time>
      </trkpt>
      <trkpt lat="44.97146" lon="4.32986">
        <ele>749</ele>
        <time>2017-04-23T14:46:01.000Z</time>
      </trkpt>
      <trkpt lat="44.97157" lon="4.32987">
        <ele>749</ele>
        <time>2017-04-23T14:46:14.000Z</time>
      </trkpt>
      <trkpt lat="44.97166" lon="4.32992">
        <ele>751</ele>
        <time>2017-04-23T14:46:43.000Z</time>
      </trkpt>
      <trkpt lat="44.97177" lon="4.32999">
        <ele>749</ele>
        <time>2017-04-23T14:46:55.000Z</time>
      </trkpt>
      <trkpt lat="44.97184" lon="4.33014">
        <ele>743</ele>
        <time>2017-04-23T14:47:08.000Z</time>
      </trkpt>
      <trkpt lat="44.97191" lon="4.33028">
        <ele>743</ele>
        <time>2017-04-23T14:47:19.000Z</time>
      </trkpt>
      <trkpt lat="44.97197" lon="4.33038">
        <ele>744</ele>
        <time>2017-04-23T14:47:27.000Z</time>
      </trkpt>
      <trkpt lat="44.97203" lon="4.33049">
        <ele>743</ele>
        <time>2017-04-23T14:47:36.000Z</time>
      </trkpt>
      <trkpt lat="44.97211" lon="4.33057">
        <ele>741</ele>
        <time>2017-04-23T14:47:47.000Z</time>
      </trkpt>
      <trkpt lat="44.9722" lon="4.33065">
        <ele>741</ele>
        <time>2017-04-23T14:48:55.000Z</time>
      </trkpt>
      <trkpt lat="44.97243" lon="4.33107">
        <ele>737</ele>
        <time>2017-04-23T14:49:33.000Z</time>
      </trkpt>
      <trkpt lat="44.97252" lon="4.33113">
        <ele>739</ele>
        <time>2017-04-23T14:49:44.000Z</time>
      </trkpt>
      <trkpt lat="44.97264" lon="4.33109">
        <ele>744</ele>
        <time>2017-04-23T14:49:57.000Z</time>
      </trkpt>
      <trkpt lat="44.97272" lon="4.33101">
        <ele>746</ele>
        <time>2017-04-23T14:50:14.000Z</time>
      </trkpt>
      <trkpt lat="44.97282" lon="4.33097">
        <ele>749</ele>
        <time>2017-04-23T14:50:28.000Z</time>
      </trkpt>
      <trkpt lat="44.97293" lon="4.33091">
        <ele>750</ele>
        <time>2017-04-23T14:50:40.000Z</time>
      </trkpt>
      <trkpt lat="44.97302" lon="4.33083">
        <ele>751</ele>
        <time>2017-04-23T14:50:53.000Z</time>
      </trkpt>
      <trkpt lat="44.97311" lon="4.33075">
        <ele>754</ele>
        <time>2017-04-23T14:51:05.000Z</time>
      </trkpt>
      <trkpt lat="44.97319" lon="4.33069">
        <ele>754</ele>
        <time>2017-04-23T14:51:15.000Z</time>
      </trkpt>
      <trkpt lat="44.97324" lon="4.33056">
        <ele>755</ele>
        <time>2017-04-23T14:51:27.000Z</time>
      </trkpt>
      <trkpt lat="44.97333" lon="4.33044">
        <ele>758</ele>
        <time>2017-04-23T14:51:40.000Z</time>
      </trkpt>
      <trkpt lat="44.9734" lon="4.33033">
        <ele>757</ele>
        <time>2017-04-23T14:51:52.000Z</time>
      </trkpt>
      <trkpt lat="44.97334" lon="4.33022">
        <ele>760</ele>
        <time>2017-04-23T14:52:08.000Z</time>
      </trkpt>
      <trkpt lat="44.97327" lon="4.33011">
        <ele>765</ele>
        <time>2017-04-23T14:52:26.000Z</time>
      </trkpt>
      <trkpt lat="44.97318" lon="4.33003">
        <ele>766</ele>
        <time>2017-04-23T14:52:44.000Z</time>
      </trkpt>
    </trkseg>
  </trk>
</gpx>